Provisional Data: West Branch Susquehanna River near Milton, PA


Please select a monitoring station.
Please select start date.
Please select start date.

Toggle Unit: C/F Toggle Unit: C/F
Sample Time Temperature (C) Temperature (F) Specific Conductivity (mS/cm) pH   Turbidity (NTU+) DO (mg/L)
8/9/2021 12:00:00 AM 27.22 80.996 0.225 7.99 1.86 8.76
8/9/2021 12:15:00 AM 27.17 80.906 0.225 7.96 1.98 8.7
8/9/2021 12:30:00 AM 27.11 80.798 0.225 7.95 2.16 8.65
8/9/2021 12:45:00 AM 27.05 80.69 0.225 7.92 2.08 8.61
8/9/2021 1:00:00 AM 26.99 80.582 0.225 7.91 2.01 8.55
8/9/2021 1:15:00 AM 26.92 80.456 0.225 7.89 2.43 8.5
8/9/2021 1:30:00 AM 26.49 79.682 0.232 7.81 3.84 8.67
8/9/2021 1:45:00 AM 26.55 79.79 0.23 7.7 2.02 8.6
8/9/2021 2:00:00 AM 26.67 80.006 0.226 7.77 2.11 8.38
8/9/2021 2:15:00 AM 26.63 79.934 0.225 7.8 1.95 8.33
8/9/2021 2:30:00 AM 26.56 79.808 0.225 7.8 1.89 8.29
8/9/2021 2:45:00 AM 26.49 79.682 0.225 7.78 1.78 8.25
8/9/2021 3:00:00 AM 26.41 79.538 0.225 7.77 2.29 8.22
8/9/2021 3:15:00 AM 26.34 79.412 0.225 7.75 2.26 8.19
8/9/2021 3:30:00 AM 26.26 79.268 0.225 7.73 2.07 8.15
8/9/2021 3:45:00 AM 26.19 79.142 0.226 7.72 2 8.1
8/9/2021 4:00:00 AM 26.12 79.016 0.226 7.71 2.03 8.07
8/9/2021 4:15:00 AM 26.04 78.872 0.226 7.69 2.2 8.06
8/9/2021 4:30:00 AM 25.97 78.746 0.226 7.68 1.98 8.01
8/9/2021 4:45:00 AM 25.9 78.62 0.225 7.67 2.02 7.98
8/9/2021 5:00:00 AM 25.84 78.512 0.226 7.66 1.75 7.93
8/9/2021 5:15:00 AM 25.77 78.386 0.226 7.65 2.16 7.92
8/9/2021 5:30:00 AM 25.7 78.26 0.226 7.64 2.02 7.9
8/9/2021 5:45:00 AM 25.64 78.152 0.226 7.63 2.22 7.89
8/9/2021 6:00:00 AM 25.58 78.044 0.226 7.62 2.01 7.89
8/9/2021 6:15:00 AM 25.53 77.954 0.226 7.62 2.79 7.88
8/9/2021 6:30:00 AM 25.47 77.846 0.227 7.61 1.99 7.88
8/9/2021 6:45:00 AM 25.43 77.774 0.229 7.62 1.98 7.89
8/9/2021 7:00:00 AM 25.39 77.702 0.233 7.63 1.81 7.89
8/9/2021 7:15:00 AM 25.35 77.63 0.237 7.64 2.01 7.93
8/9/2021 7:30:00 AM 25.32 77.576 0.241 7.65 2.11 7.96
8/9/2021 7:45:00 AM 25.31 77.558 0.243 7.67 2.54 8
8/9/2021 8:00:00 AM 25.3 77.54 0.247 7.69 1.94 8.03
8/9/2021 8:15:00 AM 25.31 77.558 0.248 7.7 1.92 8.08
8/9/2021 8:30:00 AM 25.32 77.576 0.249 7.71 2.17 8.13
8/9/2021 8:45:00 AM 25.35 77.63 0.249 7.72 1.98 8.19
8/9/2021 9:00:00 AM 25.38 77.684 0.247 7.73 1.8 8.25
8/9/2021 9:15:00 AM 25.42 77.756 0.246 7.74 1.91 8.3
8/9/2021 9:30:00 AM 25.47 77.846 0.244 7.73 1.86 8.35
8/9/2021 9:45:00 AM 25.54 77.972 0.241 7.74 1.74 8.36
8/9/2021 10:00:00 AM 25.61 78.098 0.239 7.77 1.89 8.52
8/9/2021 10:15:00 AM 25.67 78.206 0.239 7.78 2.19 8.59
8/9/2021 10:30:00 AM 25.74 78.332 0.238 7.79 1.92 8.64
8/9/2021 10:45:00 AM 25.83 78.494 0.236 7.81 2.16 8.71
8/9/2021 11:00:00 AM 25.93 78.674 0.234 7.82 2.04 8.81
8/9/2021 11:15:00 AM 26.02 78.836 0.233 7.83 1.92 8.86
8/9/2021 11:30:00 AM 26.12 79.016 0.233 7.86 1.96 8.95
8/9/2021 11:45:00 AM 26.23 79.214 0.232 7.88 1.78 9.01
8/9/2021 12:00:00 PM 26.38 79.484 0.231 7.9 1.78 9.06
8/9/2021 12:15:00 PM 26.51 79.718 0.23 7.91 1.96 9.12
8/9/2021 12:30:00 PM 26.64 79.952 0.23 7.94 2.09 9.19
8/9/2021 12:45:00 PM 26.76 80.168 0.23 7.97 1.94 9.25
8/9/2021 1:00:00 PM 26.88 80.384 0.23 7.99 1.92 9.3
8/9/2021 1:15:00 PM 27 80.6 0.23 8.01 1.78 9.34
8/9/2021 1:30:00 PM 27.11 80.798 0.23 8.02 1.91 9.37
8/9/2021 1:45:00 PM 27.24 81.032 0.23 8.04 1.65 9.43
8/9/2021 2:00:00 PM 27.35 81.23 0.229 8.06 1.79 9.49
8/9/2021 2:15:00 PM 27.46 81.42799 0.228 8.08 1.71 9.5
8/9/2021 2:30:00 PM 27.58 81.644 0.229 8.11 1.86 9.57
8/9/2021 2:45:00 PM 27.69 81.842 0.229 8.12 1.71 9.62
8/9/2021 3:00:00 PM 27.76 81.968 0.228 8.15 1.61 9.67
8/9/2021 3:15:00 PM 27.84 82.112 0.228 8.18 1.92 9.72
8/9/2021 3:30:00 PM 27.9 82.22 0.228 8.19 1.63 9.73
8/9/2021 3:45:00 PM 27.97 82.346 0.228 8.22 1.99 9.74
8/9/2021 4:00:00 PM 28.06 82.508 0.228 8.22 1.82 9.79
8/9/2021 4:15:00 PM 28.14 82.652 0.227 8.25 3.22 9.85
8/9/2021 4:30:00 PM 28.23 82.814 0.227 8.28 1.71 9.91
8/9/2021 4:45:00 PM 27.46 81.42799 0.235 7.92 2.05 9.13
8/9/2021 5:00:00 PM 27.52 81.536 0.233 7.85 2.2 9.12
8/9/2021 5:15:00 PM 28.39 83.102 0.227 8.3 2.81 9.99
8/9/2021 5:30:00 PM 28.5 83.3 0.227 8.37 2.28 10.07
8/9/2021 5:45:00 PM 28.53 83.354 0.226 8.38 2.21 10.05
8/9/2021 6:00:00 PM 28.52 83.336 0.226 8.39 2.54 10.05
8/9/2021 6:15:00 PM 28.52 83.336 0.225 8.38 2.13 10
8/9/2021 6:30:00 PM 28.53 83.354 0.226 8.39 1.88 9.98
8/9/2021 6:45:00 PM 28.55 83.39 0.226 8.37 1.74 9.94
8/9/2021 7:00:00 PM 28.57 83.426 0.226 8.38 2.08 9.95
8/9/2021 7:15:00 PM 28.59 83.462 0.226 8.38 1.82 9.93
8/9/2021 7:30:00 PM 28.59 83.462 0.226 8.38 1.87 9.84
8/9/2021 7:45:00 PM 28.58 83.444 0.226 8.37 1.92 9.78
8/9/2021 8:00:00 PM 28.58 83.444 0.226 8.36 1.95 9.74
8/9/2021 8:15:00 PM 28.57 83.426 0.226 8.34 1.84 9.69
8/9/2021 8:30:00 PM 28.56 83.408 0.226 8.33 2.19 9.61
8/9/2021 8:45:00 PM 28.55 83.39 0.226 8.31 1.9 9.55
8/9/2021 9:00:00 PM 28.54 83.372 0.226 8.29 2.25 9.5
8/9/2021 9:15:00 PM 28.52 83.336 0.226 8.27 1.81 9.44
8/9/2021 9:30:00 PM 28.5 83.3 0.226 8.25 1.73 9.36
8/9/2021 9:45:00 PM 28.48 83.264 0.226 8.23 1.89 9.27
8/9/2021 10:00:00 PM 28.45 83.21001 0.227 8.22 1.84 9.22
8/9/2021 10:15:00 PM 28.4 83.12 0.227 8.2 2.47 9.14
8/9/2021 10:30:00 PM 28.36 83.048 0.226 8.17 2.05 9.07
8/9/2021 10:45:00 PM 28.33 82.994 0.226 8.16 1.73 8.98
8/9/2021 11:00:00 PM 28.29 82.922 0.227 8.12 1.97 8.91
8/9/2021 11:15:00 PM 28.25 82.85 0.226 8.1 1.91 8.85
8/9/2021 11:30:00 PM 28.2 82.76 0.227 8.08 1.99 8.78
8/9/2021 11:45:00 PM 28.17 82.706 0.226 8.06 2.15 8.71
8/10/2021 12:00:00 AM 28.12 82.616 0.226 8.04 2.03 8.63
8/10/2021 12:15:00 AM 28.08 82.544 0.226 8.02 2.07 8.57
8/10/2021 12:30:00 AM 28.03 82.454 0.226 8 1.92 8.51
8/10/2021 12:45:00 AM 27.96 82.328 0.227 7.97 1.85 8.43
8/10/2021 1:00:00 AM 27.91 82.238 0.227 7.96 2.16 8.38
8/10/2021 1:15:00 AM 27.86 82.148 0.226 7.94 2.13 8.33
8/10/2021 1:30:00 AM 27.79 82.022 0.227 7.92 1.78 8.27
8/10/2021 1:45:00 AM 27.73 81.914 0.226 7.9 1.94 8.23
8/10/2021 2:00:00 AM 27.67 81.806 0.227 7.88 2.01 8.18
8/10/2021 2:15:00 AM 27.61 81.698 0.226 7.86 1.89 8.12
8/10/2021 2:30:00 AM 27.55 81.59 0.226 7.84 2.41 8.1
8/10/2021 2:45:00 AM 27.48 81.464 0.226 7.82 1.97 8.07
8/10/2021 3:00:00 AM 27.4 81.32 0.227 7.81 2.44 8.03
8/10/2021 3:15:00 AM 27.33 81.194 0.227 7.8 2.56 7.98
8/10/2021 3:30:00 AM 27.26 81.068 0.227 7.78 2.23 7.95
8/10/2021 3:45:00 AM 27.2 80.96 0.226 7.77 2.41 7.93
8/10/2021 4:00:00 AM 27.14 80.852 0.226 7.75 2.07 7.9
8/10/2021 4:15:00 AM 27.07 80.726 0.227 7.74 2.52 7.85
8/10/2021 4:30:00 AM 27.01 80.618 0.227 7.73 2.07 7.82
8/10/2021 4:45:00 AM 26.96 80.528 0.227 7.71 1.9 7.77
8/10/2021 5:00:00 AM 26.91 80.438 0.226 7.7 2.05 7.76
8/10/2021 5:15:00 AM 26.86 80.348 0.227 7.67 2.1 7.72
8/10/2021 5:30:00 AM 26.81 80.258 0.227 7.67 2.05 7.69
8/10/2021 5:45:00 AM 26.76 80.168 0.227 7.67 2.19 7.67
8/10/2021 6:00:00 AM 26.72 80.096 0.227 7.66 2.24 7.67
8/10/2021 6:15:00 AM 26.67 80.006 0.227 7.65 2.07 7.64
8/10/2021 6:30:00 AM 26.63 79.934 0.228 7.64 1.99 7.62
8/10/2021 6:45:00 AM 26.59 79.862 0.229 7.64 1.98 7.63
8/10/2021 7:00:00 AM 26.55 79.79 0.232 7.65 2.04 7.63
8/10/2021 7:15:00 AM 26.52 79.736 0.236 7.65 2.05 7.64
8/10/2021 7:30:00 AM 26.49 79.682 0.239 7.66 1.97 7.67
8/10/2021 7:45:00 AM 26.46 79.628 0.242 7.66 2.11 7.66
8/10/2021 8:00:00 AM 26.44 79.592 0.245 7.68 1.91 7.69
8/10/2021 8:15:00 AM 26.43 79.574 0.246 7.69 1.89 7.72
8/10/2021 8:30:00 AM 26.42 79.556 0.248 7.7 2.06 7.75
8/10/2021 8:45:00 AM 26.41 79.538 0.249 7.71 1.93 7.8
8/10/2021 9:00:00 AM 26.4 79.52 0.25 7.71 1.9 7.82
8/10/2021 9:15:00 AM 26.38 79.484 0.249 7.72 1.91 7.83
8/10/2021 9:30:00 AM 26.34 79.412 0.248 7.74 3.49 8
8/10/2021 9:45:00 AM 26.66 79.988 0.244 7.68 2.69 8.41
8/10/2021 10:00:00 AM 26.48 79.664 0.248 7.68 1.74 8.08
8/10/2021 10:15:00 AM 26.32 79.376 0.247 7.72 2.41 8.03
8/10/2021 10:30:00 AM 26.34 79.412 0.245 7.74 2.01 8.11
8/10/2021 10:45:00 AM 26.36 79.448 0.242 7.75 2.14 8.19
8/10/2021 11:00:00 AM 26.41 79.538 0.243 7.77 1.85 8.26
8/10/2021 11:15:00 AM 26.5 79.7 0.241 7.78 2.04 8.35
8/10/2021 11:30:00 AM 26.57 79.826 0.24 7.8 1.92 8.42
8/10/2021 11:45:00 AM 26.63 79.934 0.238 7.81 2.13 8.48
8/10/2021 12:00:00 PM 26.73 80.114 0.237 7.83 1.79 8.51
8/10/2021 12:15:00 PM 26.82 80.276 0.235 7.85 1.74 8.6
8/10/2021 12:30:00 PM 26.91 80.438 0.236 7.86 1.87 8.69
8/10/2021 12:45:00 PM 27.01 80.618 0.234 7.89 1.83 8.75
8/10/2021 1:00:00 PM 27.1 80.78 0.233 7.91 1.63 8.79
8/10/2021 1:15:00 PM 27.16 80.888 0.233 7.91 1.71 8.84
8/10/2021 1:30:00 PM 27.21 80.978 0.235 7.95 1.72 8.92
8/10/2021 1:45:00 PM 27.24 81.032 0.247 8.02 1.68 8.95
8/10/2021 2:00:00 PM 27.22 80.996 0.283 8.17 2.05 8.94
8/10/2021 2:15:00 PM 27.19 80.942 0.318 8.29 2.1 8.92
8/10/2021 2:30:00 PM 27.15 80.87 0.33 8.34 1.76 8.91
8/10/2021 2:45:00 PM 27.11 80.798 0.377 8.41 1.83 8.9
8/10/2021 3:00:00 PM 27.1 80.78 0.481 8.55 1.82 8.88
8/10/2021 3:15:00 PM 27.11 80.798 0.602 8.64 2.04 8.9
8/10/2021 3:30:00 PM 27.14 80.852 0.687 8.67 2.31 8.94
8/10/2021 3:45:00 PM 27.2 80.96 0.723 8.68 2 9.01
8/10/2021 4:00:00 PM 27.26 81.068 0.68 8.67 1.72 9.05
8/10/2021 4:15:00 PM 27.34 81.212 0.607 8.66 2.31 9.09
8/10/2021 4:30:00 PM 27.39 81.302 0.578 8.65 2.03 9.12
8/10/2021 4:45:00 PM 27.43 81.374 0.56 8.64 1.93 9.11
8/10/2021 5:00:00 PM 27.44 81.392 0.533 8.63 1.87 9.11
8/10/2021 5:15:00 PM 27.43 81.374 0.477 8.6 1.89 9.1
8/10/2021 5:30:00 PM 27.43 81.374 0.433 8.58 1.96 9.12
8/10/2021 5:45:00 PM 27.46 81.42799 0.39 8.54 1.69 9.11
8/10/2021 6:00:00 PM 27.27 81.086 0.318 8.11 1.92 8.79
8/10/2021 6:15:00 PM 27.27 81.086 0.326 8.06 1.41 8.74
8/10/2021 6:30:00 PM 27.44 81.392 0.316 8.42 2.04 9.18
8/10/2021 6:45:00 PM 27.43 81.374 0.3 8.4 1.81 9.18
8/10/2021 7:00:00 PM 27.42 81.356 0.287 8.37 2.05 9.17
8/10/2021 7:15:00 PM 27.41 81.338 0.278 8.34 1.69 9.14
8/10/2021 7:30:00 PM 27.42 81.356 0.268 8.31 2.18 9.1
8/10/2021 7:45:00 PM 27.41 81.338 0.265 8.28 1.91 9.06
8/10/2021 8:00:00 PM 27.41 81.338 0.261 8.26 1.83 9.02
8/10/2021 8:15:00 PM 27.41 81.338 0.259 8.24 1.82 8.99
8/10/2021 8:30:00 PM 27.4 81.32 0.259 8.23 1.8 8.96
8/10/2021 8:45:00 PM 27.39 81.302 0.257 8.2 1.87 8.89
8/10/2021 9:00:00 PM 27.36 81.248 0.256 8.19 1.96 8.86
8/10/2021 9:15:00 PM 27.33 81.194 0.256 8.18 2.18 8.81
8/10/2021 9:30:00 PM 27.32 81.176 0.253 8.16 1.86 8.77
8/10/2021 9:45:00 PM 27.29 81.122 0.251 8.14 1.85 8.71
8/10/2021 10:00:00 PM 27.27 81.086 0.251 8.11 1.72 8.67
8/10/2021 10:15:00 PM 27.23 81.014 0.252 8.11 1.93 8.64
8/10/2021 10:30:00 PM 27.2 80.96 0.252 8.09 2.13 8.6
8/10/2021 10:45:00 PM 27.18 80.924 0.252 8.08 1.73 8.55
8/10/2021 11:00:00 PM 27.16 80.888 0.252 8.06 1.87 8.5
8/10/2021 11:15:00 PM 27.13 80.834 0.25 8.04 1.72 8.45
8/10/2021 11:30:00 PM 27.09 80.762 0.252 8.03 1.76 8.39
8/10/2021 11:45:00 PM 27.06 80.708 0.251 8 1.77 8.34
8/11/2021 12:00:00 AM 27.03 80.654 0.252 7.99 1.86 8.29
8/11/2021 12:15:00 AM 27.01 80.618 0.25 7.97 1.8 8.23
8/11/2021 12:30:00 AM 26.98 80.564 0.252 7.96 1.88 8.19
8/11/2021 12:45:00 AM 26.96 80.528 0.253 7.95 1.78 8.15
8/11/2021 1:00:00 AM 26.94 80.492 0.254 7.94 1.85 8.11
8/11/2021 1:15:00 AM 26.92 80.456 0.255 7.92 1.67 8.06
8/11/2021 1:30:00 AM 26.84 80.312 0.267 7.88 4.22 8.27
8/11/2021 1:45:00 AM 26.93 80.474 0.283 7.77 2.77 8.38
8/11/2021 2:00:00 AM 26.84 80.312 0.265 7.84 2.04 8.04
8/11/2021 2:15:00 AM 26.79 80.222 0.259 7.87 1.73 7.94
8/11/2021 2:30:00 AM 26.77 80.186 0.257 7.86 2.22 7.9
8/11/2021 2:45:00 AM 26.75 80.15 0.258 7.85 1.78 7.85
8/11/2021 3:00:00 AM 26.73 80.114 0.257 7.84 2.05 7.83
8/11/2021 3:15:00 AM 26.71 80.078 0.256 7.83 2.09 7.79
8/11/2021 3:30:00 AM 26.68 80.024 0.251 7.8 2.01 7.75
8/11/2021 3:45:00 AM 26.64 79.952 0.248 7.78 2 7.72
8/11/2021 4:00:00 AM 26.6 79.88 0.245 7.76 2.03 7.7
8/11/2021 4:15:00 AM 26.56 79.808 0.243 7.74 2.15 7.66
8/11/2021 4:30:00 AM 26.54 79.772 0.239 7.72 1.9 7.63
8/11/2021 4:45:00 AM 26.49 79.682 0.238 7.71 2.03 7.6
8/11/2021 5:00:00 AM 26.43 79.574 0.237 7.69 2.14 7.57
8/11/2021 5:15:00 AM 26.4 79.52 0.235 7.67 2.04 7.52
8/11/2021 5:30:00 AM 26.35 79.43 0.235 7.67 2.27 7.52
8/11/2021 5:45:00 AM 26.31 79.358 0.235 7.65 2.14 7.49
8/11/2021 6:00:00 AM 26.29 79.32201 0.234 7.63 2.02 7.49
8/11/2021 6:15:00 AM 26.26 79.268 0.233 7.63 2.1 7.48
8/11/2021 6:30:00 AM 26.23 79.214 0.233 7.63 1.81 7.46
8/11/2021 6:45:00 AM 26.2 79.16 0.233 7.62 1.65 7.45
8/11/2021 7:00:00 AM 26.18 79.124 0.233 7.62 2.19 7.46
8/11/2021 7:15:00 AM 26.17 79.106 0.232 7.61 1.95 7.51
8/11/2021 7:30:00 AM 26.15 79.07 0.233 7.61 1.79 7.52
8/11/2021 7:45:00 AM 26.15 79.07 0.232 7.62 1.9 7.55
8/11/2021 8:00:00 AM 26.16 79.088 0.232 7.63 2.37 7.6
8/11/2021 8:15:00 AM 26.15 79.07 0.232 7.62 1.83 7.62
8/11/2021 8:30:00 AM 26.16 79.088 0.232 7.63 2.01 7.65
8/11/2021 8:45:00 AM 26.19 79.142 0.232 7.64 1.66 7.7
8/11/2021 9:00:00 AM 26.22 79.196 0.232 7.64 2.18 7.74
8/11/2021 9:15:00 AM 26.26 79.268 0.232 7.65 1.82 7.82
8/11/2021 9:30:00 AM 26.3 79.34 0.232 7.67 1.78 7.9
8/11/2021 9:45:00 AM 26.32 79.376 0.232 7.67 1.99 7.95
8/11/2021 10:00:00 AM 26.35 79.43 0.232 7.69 1.72 7.99
8/11/2021 10:15:00 AM 26.38 79.484 0.233 7.7 1.79 8.05
8/11/2021 10:30:00 AM 26.47 79.646 0.233 7.7 1.8 8.12
8/11/2021 10:45:00 AM 26.56 79.808 0.232 7.71 1.74 8.16
8/11/2021 11:00:00 AM 26.66 79.988 0.232 7.72 1.71 8.24
8/11/2021 11:15:00 AM 26.78 80.204 0.232 7.75 1.77 8.32
8/11/2021 11:30:00 AM 26.88 80.384 0.232 7.76 1.88 8.37
8/11/2021 11:45:00 AM 26.99 80.582 0.232 7.78 1.73 8.45
8/11/2021 12:00:00 PM 27.12 80.816 0.232 7.8 1.68 8.55
8/11/2021 12:15:00 PM 27.21 80.978 0.232 7.81 1.82 8.62
8/11/2021 12:30:00 PM 27.37 81.266 0.232 7.84 1.65 8.69
8/11/2021 12:45:00 PM 27.53 81.554 0.232 7.85 1.69 8.71
8/11/2021 1:00:00 PM 27.65 81.77 0.232 7.87 1.7 8.79
8/11/2021 1:15:00 PM 27.76 81.968 0.232 7.89 1.62 8.84
8/11/2021 1:30:00 PM 27.87 82.166 0.232 7.92 1.63 8.91
8/11/2021 1:45:00 PM 27.95 82.31 0.232 7.93 1.77 8.97
8/11/2021 2:00:00 PM 28.05 82.49 0.232 7.96 1.7 9
8/11/2021 2:15:00 PM 28.11 82.598 0.232 7.96 1.68 9.04
8/11/2021 2:30:00 PM 28.18 82.724 0.232 7.99 1.7 9.11
8/11/2021 2:45:00 PM 28.28 82.904 0.232 8.01 1.61 9.14
8/11/2021 3:00:00 PM 28.36 83.048 0.232 8.04 1.84 9.18
8/11/2021 3:15:00 PM 28.43 83.174 0.232 8.07 1.79 9.27
8/11/2021 3:30:00 PM 28.49 83.282 0.232 8.08 1.7 9.28
8/11/2021 3:45:00 PM 28.51 83.318 0.232 8.1 1.75 9.29
8/11/2021 4:00:00 PM 28.56 83.408 0.233 8.11 1.91 9.27
8/11/2021 4:15:00 PM 28.55 83.39 0.232 8.11 1.86 9.28
8/11/2021 4:30:00 PM 28.44 83.192 0.231 8.11 2.07 9.16
8/11/2021 4:45:00 PM 28.39 83.102 0.231 8.09 1.66 9.12
8/11/2021 5:00:00 PM 28.29 82.922 0.23 8.08 2.01 9.06
8/11/2021 5:15:00 PM 28.17 82.706 0.23 8.07 2.52 9.04
8/11/2021 5:30:00 PM 28.08 82.544 0.229 8.07 4.41 9
8/11/2021 5:45:00 PM 27.98 82.364 0.224 8.04 9.19 8.88
8/11/2021 6:00:00 PM 28.01 82.418 0.225 8.04 6.18 8.86
8/11/2021 6:15:00 PM 28.05 82.49 0.228 8.05 3.95 8.87
8/11/2021 6:30:00 PM 28.06 82.508 0.229 8.04 3.23 8.84
8/11/2021 6:45:00 PM 28.08 82.544 0.23 8.03 2.64 8.79
8/11/2021 7:00:00 PM 28.09 82.562 0.23 8.02 2.38 8.76
8/11/2021 7:15:00 PM 28.1 82.58 0.231 8.01 2.29 8.71
8/11/2021 7:30:00 PM 28.08 82.544 0.231 7.99 2.28 8.66
8/11/2021 7:45:00 PM 28.06 82.508 0.23 7.99 2.13 8.62
8/11/2021 8:00:00 PM 28.03 82.454 0.231 7.97 2.11 8.57
8/11/2021 8:15:00 PM 27.98 82.364 0.231 7.96 1.8 8.52
8/11/2021 8:30:00 PM 27.62 81.716 0.257 7.84 2.78 8.53
8/11/2021 8:45:00 PM 27.7 81.86 0.243 7.76 2.32 8.45
8/11/2021 9:00:00 PM 27.81 82.058 0.234 7.88 2.25 8.39
8/11/2021 9:15:00 PM 27.8 82.04 0.232 7.89 1.92 8.38
8/11/2021 9:30:00 PM 27.75 81.95 0.232 7.89 2.29 8.36
8/11/2021 9:45:00 PM 27.73 81.914 0.232 7.88 2.18 8.32
8/11/2021 10:00:00 PM 27.7 81.86 0.233 7.87 1.96 8.26
8/11/2021 10:15:00 PM 27.67 81.806 0.234 7.86 2.23 8.23
8/11/2021 10:30:00 PM 27.64 81.752 0.235 7.84 2.14 8.18
8/11/2021 10:45:00 PM 27.6 81.68 0.235 7.83 2.11 8.13
8/11/2021 11:00:00 PM 27.55 81.59 0.236 7.83 2.25 8.08
8/11/2021 11:15:00 PM 27.49 81.482 0.236 7.81 2.23 8.04
8/11/2021 11:30:00 PM 27.43 81.374 0.236 7.8 2.17 8
8/11/2021 11:45:00 PM 27.39 81.302 0.235 7.78 2.36 7.96
8/12/2021 12:00:00 AM 27.33 81.194 0.235 7.77 2.13 7.92
8/12/2021 12:15:00 AM 27.28 81.104 0.235 7.76 4.12 7.87
8/12/2021 12:30:00 AM 27.24 81.032 0.235 7.75 2.32 7.83
8/12/2021 12:45:00 AM 27.19 80.942 0.235 7.73 2.49 7.81
8/12/2021 1:00:00 AM 27.14 80.852 0.235 7.73 2.54 7.75
8/12/2021 1:15:00 AM 27.09 80.762 0.235 7.71 2.01 7.7
8/12/2021 1:30:00 AM 27.11 80.798 0.251 7.73 6.23 8.14
8/12/2021 1:45:00 AM 27.3 81.14 0.249 7.65 5.02 8.29
8/12/2021 2:00:00 AM 27 80.6 0.235 7.66 2.68 7.71
8/12/2021 2:15:00 AM 26.89 80.402 0.235 7.67 2.15 7.61
8/12/2021 2:30:00 AM 26.84 80.312 0.234 7.65 2.1 7.57
8/12/2021 2:45:00 AM 26.79 80.222 0.235 7.65 2.35 7.52
8/12/2021 3:00:00 AM 26.74 80.132 0.235 7.64 2.27 7.5
8/12/2021 3:15:00 AM 26.69 80.042 0.235 7.62 2.28 7.47
8/12/2021 3:30:00 AM 26.64 79.952 0.235 7.62 2.27 7.45
8/12/2021 3:45:00 AM 26.59 79.862 0.235 7.61 2.36 7.42
8/12/2021 4:00:00 AM 26.54 79.772 0.235 7.61 2.94 7.4
8/12/2021 4:15:00 AM 26.5 79.7 0.235 7.59 2.14 7.39
8/12/2021 4:30:00 AM 26.45 79.61 0.235 7.59 2.44 7.36
8/12/2021 4:45:00 AM 26.42 79.556 0.235 7.58 2.27 7.35
8/12/2021 5:00:00 AM 26.37 79.466 0.235 7.57 2.5 7.33
8/12/2021 5:15:00 AM 26.34 79.412 0.235 7.57 2.2 7.28
8/12/2021 5:30:00 AM 26.31 79.358 0.235 7.56 1.77 7.26
8/12/2021 5:45:00 AM 26.26 79.268 0.235 7.56 1.96 7.26
8/12/2021 6:00:00 AM 26.21 79.17799 0.236 7.55 1.93 7.22
8/12/2021 6:15:00 AM 26.17 79.106 0.235 7.54 1.81 7.21
8/12/2021 6:30:00 AM 26.13 79.034 0.235 7.55 2.02 7.23
8/12/2021 6:45:00 AM 26.09 78.962 0.236 7.55 1.95 7.24
8/12/2021 7:00:00 AM 26.05 78.89 0.236 7.54 2.08 7.26
8/12/2021 7:15:00 AM 26.03 78.854 0.236 7.55 2.06 7.28
8/12/2021 7:30:00 AM 26 78.8 0.236 7.55 2 7.32
8/12/2021 7:45:00 AM 25.99 78.782 0.236 7.56 1.69 7.36
8/12/2021 8:00:00 AM 26.01 78.818 0.235 7.55 2.11 7.41
8/12/2021 8:15:00 AM 26.01 78.818 0.236 7.56 1.92 7.45
8/12/2021 8:30:00 AM 26.03 78.854 0.236 7.57 2 7.51
8/12/2021 8:45:00 AM 26.07 78.926 0.235 7.57 1.95 7.57
8/12/2021 9:00:00 AM 26.1 78.98 0.236 7.59 1.96 7.64
8/12/2021 9:15:00 AM 26.15 79.07 0.236 7.6 1.88 7.68
8/12/2021 9:30:00 AM 26.21 79.17799 0.236 7.6 1.92 7.76
8/12/2021 9:45:00 AM 26.29 79.32201 0.236 7.61 1.78 7.81
8/12/2021 10:00:00 AM 26.36 79.448 0.236 7.63 1.92 7.89
8/12/2021 10:15:00 AM 26.47 79.646 0.236 7.64 1.63 7.95
8/12/2021 10:30:00 AM 26.58 79.844 0.236 7.65 1.97 8.05
8/12/2021 10:45:00 AM 26.7 80.06 0.236 7.67 1.87 8.11
8/12/2021 11:00:00 AM 26.82 80.276 0.236 7.69 1.71 8.2
8/12/2021 11:15:00 AM 26.95 80.51 0.236 7.7 1.85 8.26
8/12/2021 11:30:00 AM 27.08 80.744 0.236 7.72 1.69 8.36
8/12/2021 11:45:00 AM 27.19 80.942 0.236 7.75 1.65 8.41
8/12/2021 12:00:00 PM 27.27 81.086 0.236 7.76 1.96 8.48
8/12/2021 12:15:00 PM 27.38 81.284 0.236 7.78 1.87 8.59
8/12/2021 12:30:00 PM 27.5 81.5 0.236 7.8 1.93 8.64
8/12/2021 12:45:00 PM 27.65 81.77 0.236 7.82 1.82 8.72
8/12/2021 1:00:00 PM 27.78 82.004 0.236 7.83 1.94 8.76
8/12/2021 1:15:00 PM 27.89 82.202 0.237 7.86 1.74 8.79
8/12/2021 1:30:00 PM 28 82.4 0.238 7.88 2.17 8.89
8/12/2021 1:45:00 PM 28.06 82.508 0.238 7.91 1.79 8.96
8/12/2021 2:00:00 PM 28.04 82.472 0.238 7.92 1.78 8.97
8/12/2021 2:15:00 PM 28.01 82.418 0.239 7.92 1.98 8.98
8/12/2021 2:30:00 PM 28.09 82.562 0.24 7.93 1.94 9.02
8/12/2021 2:45:00 PM 28.18 82.724 0.24 7.97 1.99 9.09
8/12/2021 3:00:00 PM 28.27 82.886 0.24 7.98 1.97 9.17
8/12/2021 3:15:00 PM 28.38 83.084 0.241 8.02 2.43 9.22
8/12/2021 3:30:00 PM 28.48 83.264 0.241 8.03 1.87 9.25
8/12/2021 3:45:00 PM 28.58 83.444 0.24 8.05 2.07 9.29
8/12/2021 4:00:00 PM 28.67 83.606 0.24 8.08 1.99 9.33
8/12/2021 4:15:00 PM 28.74 83.732 0.241 8.09 1.71 9.38
8/12/2021 4:30:00 PM 28.8 83.84 0.241 8.12 2.08 9.41
8/12/2021 4:45:00 PM 28.85 83.93 0.241 8.13 2.03 9.4
8/12/2021 5:00:00 PM 28.9 84.02 0.241 8.14 1.97 9.48
8/12/2021 5:15:00 PM 28.92 84.056 0.24 8.15 2.08 9.47
8/12/2021 5:30:00 PM 28.92 84.056 0.24 8.16 2.3 9.46
8/12/2021 5:45:00 PM 28.91 84.038 0.24 8.16 1.92 9.46
8/12/2021 6:00:00 PM 28.86 83.948 0.24 8.18 1.94 9.46
8/12/2021 6:15:00 PM 28.34 83.012 0.255 7.94 5.54 8.85
8/12/2021 6:30:00 PM 28.35 83.03 0.247 7.84 2.67 8.82
8/12/2021 6:45:00 PM 28.7 83.66 0.245 8.06 2.03 9.16
8/12/2021 7:00:00 PM 28.79 83.82201 0.247 8.12 1.83 9.26
8/12/2021 7:15:00 PM 28.82 83.876 0.249 8.14 1.85 9.23
8/12/2021 7:30:00 PM 28.83 83.894 0.25 8.13 1.94 9.17
8/12/2021 7:45:00 PM 28.83 83.894 0.249 8.12 1.83 9.11
8/12/2021 8:00:00 PM 28.81 83.858 0.247 8.11 1.94 9.06
8/12/2021 8:15:00 PM 28.78 83.804 0.246 8.09 1.94 9
8/12/2021 8:30:00 PM 28.72 83.696 0.245 8.08 1.92 8.96
8/12/2021 8:45:00 PM 28.66 83.588 0.243 8.06 1.73 8.89
8/12/2021 9:00:00 PM 28.54 83.372 0.24 8.03 1.91 8.75
8/12/2021 9:15:00 PM 28.47 83.24599 0.239 8.01 1.77 8.68
8/12/2021 9:30:00 PM 28.41 83.138 0.239 7.99 2.03 8.61
8/12/2021 9:45:00 PM 28.35 83.03 0.238 7.98 1.97 8.55
8/12/2021 10:00:00 PM 28.3 82.94 0.239 7.96 2.32 8.51
8/12/2021 10:15:00 PM 28.23 82.814 0.238 7.94 2.99 8.43
8/12/2021 10:30:00 PM 28.2 82.76 0.237 7.93 2.85 8.38
8/12/2021 10:45:00 PM 28.17 82.706 0.237 7.91 2.6 8.35
8/12/2021 11:00:00 PM 28.13 82.634 0.237 7.89 2.27 8.3
8/12/2021 11:15:00 PM 28.09 82.562 0.237 7.87 2.19 8.24
8/12/2021 11:30:00 PM 28.06 82.508 0.237 7.86 2.14 8.19
8/12/2021 11:45:00 PM 28.01 82.418 0.237 7.84 2.18 8.13
8/13/2021 12:00:00 AM 27.96 82.328 0.238 7.83 2.18 8.08
8/13/2021 12:15:00 AM 27.9 82.22 0.238 7.82 2.18 8.03
8/13/2021 12:30:00 AM 27.85 82.13 0.238 7.8 1.96 7.99
8/13/2021 12:45:00 AM 27.8 82.04 0.238 7.79 1.92 7.92
8/13/2021 1:00:00 AM 27.71 81.878 0.251 7.76 3.65 8.26
8/13/2021 1:15:00 AM 27.8 82.04 0.246 7.67 1.97 8.17
8/13/2021 1:30:00 AM 27.68 81.824 0.24 7.72 1.91 7.85
8/13/2021 1:45:00 AM 27.61 81.698 0.239 7.72 2.09 7.79
8/13/2021 2:00:00 AM 27.55 81.59 0.24 7.71 1.9 7.74
8/13/2021 2:15:00 AM 27.5 81.5 0.24 7.71 2 7.71
8/13/2021 2:30:00 AM 27.43 81.374 0.24 7.7 1.78 7.67
8/13/2021 2:45:00 AM 27.38 81.284 0.24 7.69 2.13 7.63
8/13/2021 3:00:00 AM 27.32 81.176 0.239 7.68 2.08 7.59
8/13/2021 3:15:00 AM 27.26 81.068 0.239 7.67 2.15 7.54
8/13/2021 3:30:00 AM 27.2 80.96 0.24 7.66 2.02 7.52
8/13/2021 3:45:00 AM 27.14 80.852 0.239 7.65 2.85 7.49
8/13/2021 4:00:00 AM 27.07 80.726 0.239 7.63 2.19 7.46
8/13/2021 4:15:00 AM 26.99 80.582 0.239 7.62 2.04 7.42
8/13/2021 4:30:00 AM 26.92 80.456 0.239 7.62 2.06 7.4
8/13/2021 4:45:00 AM 26.85 80.33 0.239 7.61 2.03 7.37
8/13/2021 5:00:00 AM 26.78 80.204 0.239 7.6 2.11 7.35
8/13/2021 5:15:00 AM 26.72 80.096 0.239 7.59 2.15 7.33
8/13/2021 5:30:00 AM 26.68 80.024 0.238 7.58 1.95 7.29
8/13/2021 5:45:00 AM 26.63 79.934 0.239 7.57 1.85 7.2
8/13/2021 6:00:00 AM 26.58 79.844 0.239 7.57 1.61 7.24
8/13/2021 6:15:00 AM 26.54 79.772 0.239 7.57 2.14 7.24
8/13/2021 6:30:00 AM 26.5 79.7 0.239 7.55 1.68 7.22
8/13/2021 6:45:00 AM 26.46 79.628 0.239 7.55 1.91 7.23
8/13/2021 7:00:00 AM 26.42 79.556 0.239 7.56 1.77 7.22
8/13/2021 7:15:00 AM 26.39 79.502 0.239 7.56 2.15 7.25
8/13/2021 7:30:00 AM 26.36 79.448 0.239 7.55 2.02 7.27
8/13/2021 7:45:00 AM 26.34 79.412 0.239 7.55 1.99 7.29
8/13/2021 8:00:00 AM 26.32 79.376 0.239 7.56 1.98 7.32
8/13/2021 8:15:00 AM 26.31 79.358 0.239 7.55 1.71 7.36
8/13/2021 8:30:00 AM 26.31 79.358 0.239 7.56 1.88 7.39
8/13/2021 8:45:00 AM 26.31 79.358 0.239 7.57 1.87 7.46
8/13/2021 9:00:00 AM 26.34 79.412 0.239 7.58 1.92 7.52
8/13/2021 9:15:00 AM 26.38 79.484 0.239 7.58 2.04 7.57
8/13/2021 9:30:00 AM 26.43 79.574 0.24 7.6 2.46 7.64
8/13/2021 9:45:00 AM 26.51 79.718 0.239 7.61 1.98 7.71
8/13/2021 10:00:00 AM 26.57 79.826 0.239 7.61 2.04 7.73
8/13/2021 10:15:00 AM 26.63 79.934 0.24 7.61 2.02 7.79
8/13/2021 10:30:00 AM 26.73 80.114 0.239 7.63 2.04 7.9
8/13/2021 10:45:00 AM 26.82 80.276 0.239 7.64 2 7.97
8/13/2021 11:00:00 AM 26.94 80.492 0.24 7.66 2.36 8.02
8/13/2021 11:15:00 AM 27.03 80.654 0.239 7.69 2.07 8.12
8/13/2021 11:30:00 AM 27.15 80.87 0.239 7.7 1.96 8.19
8/13/2021 11:45:00 AM 27.25 81.05 0.239 7.72 2.16 8.26
8/13/2021 12:00:00 PM 27.38 81.284 0.239 7.73 2.09 8.35
8/13/2021 12:15:00 PM 27.53 81.554 0.239 7.76 2.47 8.47
8/13/2021 12:30:00 PM 27.66 81.788 0.239 7.78 2 8.51
8/13/2021 12:45:00 PM 27.82 82.076 0.24 7.8 2.37 8.61
8/13/2021 1:00:00 PM 27.96 82.328 0.241 7.84 3.2 8.7
8/13/2021 1:15:00 PM 28.1 82.58 0.244 7.86 2.22 8.75
8/13/2021 1:30:00 PM 28.24 82.832 0.246 7.89 2.34 8.82
8/13/2021 1:45:00 PM 28.39 83.102 0.248 7.91 1.92 8.89
8/13/2021 2:00:00 PM 28.53 83.354 0.249 7.93 2.05 8.96
8/13/2021 2:15:00 PM 28.67 83.606 0.248 7.96 1.9 9
8/13/2021 2:30:00 PM 28.76 83.768 0.248 7.98 2.12 9.05
8/13/2021 2:45:00 PM 28.84 83.912 0.247 7.99 2.57 9.08
8/13/2021 3:00:00 PM 28.89 84.002 0.247 8 1.92 9.11
8/13/2021 3:15:00 PM 28.96 84.128 0.246 8.01 2.12 9.15
8/13/2021 3:30:00 PM 29.02 84.236 0.245 8.03 1.8 9.16
8/13/2021 3:45:00 PM 29.05 84.28999 0.244 8.05 1.81 9.18
8/13/2021 4:00:00 PM 29.07 84.326 0.244 8.05 1.89 9.18
8/13/2021 4:15:00 PM 29.05 84.28999 0.244 8.05 1.98 9.16
8/13/2021 4:30:00 PM 29.01 84.218 0.244 8.06 1.94 9.17
8/13/2021 4:45:00 PM 29.05 84.28999 0.242 8.07 1.7 9.17
8/13/2021 5:00:00 PM 29.07 84.326 0.243 8.08 1.75 9.21
8/13/2021 5:15:00 PM 29.06 84.308 0.243 8.09 2.18 9.21
8/13/2021 5:30:00 PM 29.05 84.28999 0.242 8.1 1.97 9.16
8/13/2021 5:45:00 PM 28.95 84.11 0.24 8.08 1.99 9.06
8/13/2021 6:00:00 PM 28.91 84.038 0.24 8.08 1.84 9.04
8/13/2021 6:15:00 PM 28.87 83.966 0.24 8.08 1.91 9.03
8/13/2021 6:30:00 PM 28.81 83.858 0.24 8.07 1.94 8.97
8/13/2021 6:45:00 PM 28.75 83.75 0.239 8.06 2.71 8.93
8/13/2021 7:00:00 PM 28.67 83.606 0.236 8.05 4.21 8.82
8/13/2021 7:15:00 PM 28.68 83.624 0.237 8.03 3.81 8.81
8/13/2021 7:30:00 PM 28.68 83.624 0.238 8.03 2.92 8.8
8/13/2021 7:45:00 PM 28.67 83.606 0.24 8.01 2.37 8.74
8/13/2021 8:00:00 PM 28.67 83.606 0.24 8 2.13 8.69
8/13/2021 8:15:00 PM 28.66 83.588 0.24 7.99 2.22 8.65
8/13/2021 8:30:00 PM 28.63 83.534 0.241 7.97 2.05 8.59
8/13/2021 8:45:00 PM 28.61 83.498 0.241 7.96 2.04 8.54
8/13/2021 9:00:00 PM 28.58 83.444 0.241 7.94 2.08 8.5
8/13/2021 9:15:00 PM 28.55 83.39 0.241 7.92 2.25 8.44
8/13/2021 9:30:00 PM 28.51 83.318 0.242 7.9 2.07 8.38
8/13/2021 9:45:00 PM 28.49 83.282 0.242 7.89 1.94 8.32
8/13/2021 10:00:00 PM 28.46 83.228 0.242 7.88 1.99 8.26
8/13/2021 10:15:00 PM 28.42 83.156 0.242 7.86 1.82 8.21
8/13/2021 10:30:00 PM 28.37 83.066 0.242 7.84 1.95 8.16
8/13/2021 10:45:00 PM 28.32 82.976 0.242 7.82 2 8.1
8/13/2021 11:00:00 PM 28.26 82.868 0.243 7.81 2.33 8.04
8/13/2021 11:15:00 PM 28.19 82.742 0.242 7.79 2.12 7.97
8/13/2021 11:30:00 PM 28.13 82.634 0.241 7.77 2.18 7.92
8/13/2021 11:45:00 PM 28.05 82.49 0.241 7.76 2.44 7.85
8/14/2021 12:00:00 AM 27.98 82.364 0.241 7.75 1.98 7.8
8/14/2021 12:15:00 AM 27.91 82.238 0.241 7.73 2.25 7.74
8/14/2021 12:30:00 AM 27.83 82.094 0.241 7.72 2.4 7.68
8/14/2021 12:45:00 AM 27.75 81.95 0.241 7.7 2.84 7.64
8/14/2021 1:00:00 AM 27.69 81.842 0.24 7.69 2.55 7.59
8/14/2021 1:15:00 AM 27.62 81.716 0.24 7.68 2.27 7.55
8/14/2021 1:30:00 AM 27.56 81.608 0.24 7.67 2.7 7.51
8/14/2021 1:45:00 AM 27.49 81.482 0.24 7.65 2.35 7.49
8/14/2021 2:00:00 AM 27.42 81.356 0.24 7.65 2.65 7.45
8/14/2021 2:15:00 AM 27.36 81.248 0.24 7.64 2.4 7.43
8/14/2021 2:30:00 AM 27.3 81.14 0.239 7.63 2.52 7.4
8/14/2021 2:45:00 AM 27.23 81.014 0.239 7.62 3.28 7.39
8/14/2021 3:00:00 AM 27.38 81.284 0.25 7.66 3.09 7.97
8/14/2021 3:15:00 AM 27.42 81.356 0.245 7.62 2.4 7.89
8/14/2021 3:30:00 AM 27.08 80.744 0.238 7.6 3.65 7.38
8/14/2021 3:45:00 AM 27.01 80.618 0.238 7.59 3.57 7.34
8/14/2021 4:00:00 AM 26.98 80.564 0.238 7.58 4.68 7.32
8/14/2021 4:15:00 AM 26.94 80.492 0.238 7.58 3.26 7.31
8/14/2021 4:30:00 AM 26.89 80.402 0.239 7.58 3.39 7.29
8/14/2021 4:45:00 AM 26.83 80.294 0.241 7.57 3.27 7.27
8/14/2021 5:00:00 AM 26.77 80.186 0.242 7.57 2.92 7.26
8/14/2021 5:15:00 AM 26.73 80.114 0.242 7.56 3.17 7.25
8/14/2021 5:30:00 AM 26.69 80.042 0.242 7.56 2.89 7.23
8/14/2021 5:45:00 AM 26.65 79.97 0.243 7.55 2.83 7.22
8/14/2021 6:00:00 AM 26.61 79.898 0.243 7.55 3.1 7.22
8/14/2021 6:15:00 AM 26.59 79.862 0.244 7.54 2.97 7.23
8/14/2021 6:30:00 AM 26.57 79.826 0.244 7.55 3.08 7.24
8/14/2021 6:45:00 AM 26.56 79.808 0.244 7.56 2.93 7.27
8/14/2021 7:00:00 AM 26.54 79.772 0.244 7.56 3 7.29
8/14/2021 7:15:00 AM 26.53 79.754 0.245 7.56 2.94 7.31
8/14/2021 7:30:00 AM 26.52 79.736 0.245 7.56 2.92 7.33
8/14/2021 7:45:00 AM 26.54 79.772 0.244 7.56 2.69 7.37
8/14/2021 8:00:00 AM 26.54 79.772 0.244 7.57 2.89 7.4
8/14/2021 8:15:00 AM 26.54 79.772 0.244 7.57 2.79 7.42
8/14/2021 8:30:00 AM 26.54 79.772 0.244 7.58 3.23 7.44
8/14/2021 8:45:00 AM 26.55 79.79 0.244 7.58 2.92 7.46
8/14/2021 9:00:00 AM 26.57 79.826 0.243 7.59 2.77 7.53
8/14/2021 9:15:00 AM 26.59 79.862 0.243 7.6 2.85 7.56
8/14/2021 9:30:00 AM 26.62 79.916 0.243 7.6 2.75 7.63
8/14/2021 9:45:00 AM 26.66 79.988 0.242 7.62 2.7 7.67
8/14/2021 10:00:00 AM 26.72 80.096 0.241 7.63 2.92 7.74
8/14/2021 10:15:00 AM 26.78 80.204 0.241 7.64 3.03 7.78
8/14/2021 10:30:00 AM 26.84 80.312 0.241 7.65 2.7 7.83
8/14/2021 10:45:00 AM 26.89 80.402 0.24 7.66 3.1 7.88
8/14/2021 11:00:00 AM 27.2 80.96 0.248 7.66 2.62 8.23
8/14/2021 11:15:00 AM 27.07 80.726 0.245 7.63 2 8.11
8/14/2021 11:30:00 AM 26.89 80.402 0.239 7.67 2.55 7.97
8/14/2021 11:45:00 AM 26.96 80.528 0.239 7.69 2.68 8.06
8/14/2021 12:00:00 PM 27.02 80.636 0.238 7.71 3.1 8.14
8/14/2021 12:15:00 PM 27.08 80.744 0.238 7.72 3.33 8.15
8/14/2021 12:30:00 PM 27.07 80.726 0.237 7.74 3.56 8.18
8/14/2021 12:45:00 PM 27.03 80.654 0.236 7.74 3.65 8.17
8/14/2021 1:00:00 PM 26.98 80.564 0.234 7.74 4.48 8.16
8/14/2021 1:15:00 PM 26.95 80.51 0.233 7.74 5.09 8.15
8/14/2021 1:30:00 PM 26.92 80.456 0.231 7.74 6.31 8.13
8/14/2021 1:45:00 PM 26.92 80.456 0.228 7.73 6.39 8.09
8/14/2021 2:00:00 PM 26.91 80.438 0.227 7.73 6.99 8.1
8/14/2021 2:15:00 PM 26.9 80.42 0.225 7.73 6.82 8.08
8/14/2021 2:30:00 PM 26.93 80.474 0.223 7.73 8.2 8.1
8/14/2021 2:45:00 PM 26.95 80.51 0.221 7.72 8.72 8.11
8/14/2021 3:00:00 PM 26.99 80.582 0.221 7.72 8.33 8.12
8/14/2021 3:15:00 PM 27.02 80.636 0.22 7.72 9.16 8.12
8/14/2021 3:30:00 PM 27.07 80.726 0.219 7.71 8.58 8.1
8/14/2021 3:45:00 PM 27.07 80.726 0.218 7.72 8.44 8.15
8/14/2021 4:00:00 PM 27.1 80.78 0.217 7.72 8.68 8.15
8/14/2021 4:15:00 PM 27.11 80.798 0.217 7.73 8.89 8.22
8/14/2021 4:30:00 PM 27.1 80.78 0.217 7.75 7.71 8.26
8/14/2021 4:45:00 PM 27.11 80.798 0.216 7.75 7.58 8.28
8/14/2021 5:00:00 PM 27.11 80.798 0.216 7.76 8.17 8.33
8/14/2021 5:15:00 PM 27.12 80.816 0.216 7.77 8.94 8.37
8/14/2021 5:30:00 PM 27.12 80.816 0.216 7.78 8.95 8.4
8/14/2021 5:45:00 PM 27.35 81.23 0.243 7.75 7.4 8.5
8/14/2021 6:00:00 PM 27.19 80.942 0.237 7.66 8.45 8.5
8/14/2021 6:15:00 PM 27.06 80.708 0.218 7.75 8.13 8.42
8/14/2021 6:30:00 PM 27 80.6 0.216 7.8 8.17 8.5
8/14/2021 6:45:00 PM 26.97 80.546 0.216 7.8 7.98 8.49
8/14/2021 7:00:00 PM 26.96 80.528 0.216 7.81 7.61 8.51
8/14/2021 7:15:00 PM 26.95 80.51 0.216 7.81 7.04 8.53
8/14/2021 7:30:00 PM 26.94 80.492 0.216 7.81 7.07 8.53
8/14/2021 7:45:00 PM 26.93 80.474 0.216 7.82 7.2 8.53
8/14/2021 8:00:00 PM 26.9 80.42 0.217 7.8 6.58 8.52
8/14/2021 8:15:00 PM 26.87 80.366 0.217 7.8 7.58 8.51
8/14/2021 8:30:00 PM 26.84 80.312 0.217 7.8 7.17 8.49
8/14/2021 8:45:00 PM 26.81 80.258 0.217 7.8 6.3 8.47
8/14/2021 9:00:00 PM 26.78 80.204 0.217 7.79 6.2 8.43
8/14/2021 9:15:00 PM 26.77 80.186 0.217 7.78 6.7 8.42
8/14/2021 9:30:00 PM 26.75 80.15 0.217 7.77 5.64 8.38
8/14/2021 9:45:00 PM 26.73 80.114 0.217 7.76 6.16 8.36
8/14/2021 10:00:00 PM 26.7 80.06 0.217 7.76 5.48 8.33
8/14/2021 10:15:00 PM 26.66 79.988 0.217 7.75 5.45 8.29
8/14/2021 10:30:00 PM 26.62 79.916 0.217 7.74 5.92 8.24
8/14/2021 10:45:00 PM 26.57 79.826 0.217 7.73 5.58 8.21
8/14/2021 11:00:00 PM 26.51 79.718 0.217 7.72 5.95 8.18
8/14/2021 11:15:00 PM 26.45 79.61 0.217 7.71 5.16 8.14
8/14/2021 11:30:00 PM 26.4 79.52 0.216 7.7 4.75 8.11
8/14/2021 11:45:00 PM 26.35 79.43 0.217 7.7 5.32 8.1
8/15/2021 12:00:00 AM 26.3 79.34 0.217 7.69 4.96 8.06
8/15/2021 12:15:00 AM 26.25 79.25 0.216 7.68 5.38 8.02
8/15/2021 12:30:00 AM 26.19 79.142 0.216 7.67 5.41 8
8/15/2021 12:45:00 AM 26.13 79.034 0.216 7.66 5.07 7.98
8/15/2021 1:00:00 AM 26.08 78.944 0.216 7.65 5.25 7.95
8/15/2021 1:15:00 AM 26.02 78.836 0.216 7.65 5.33 7.92
8/15/2021 1:30:00 AM 25.96 78.728 0.216 7.64 5.34 7.9
8/15/2021 1:45:00 AM 25.89 78.602 0.216 7.63 5.54 7.85
8/15/2021 2:00:00 AM 25.83 78.494 0.216 7.62 4.93 7.82
8/15/2021 2:15:00 AM 25.75 78.35 0.216 7.61 5.21 7.79
8/15/2021 2:30:00 AM 25.68 78.224 0.217 7.6 5.14 7.76
8/15/2021 2:45:00 AM 25.61 78.098 0.217 7.59 5.22 7.72
8/15/2021 3:00:00 AM 25.54 77.972 0.217 7.59 4.79 7.71
8/15/2021 3:15:00 AM 25.48 77.864 0.217 7.58 4.96 7.68
8/15/2021 3:30:00 AM 25.41 77.738 0.218 7.58 4.76 7.65
8/15/2021 3:45:00 AM 25.34 77.612 0.218 7.57 5.11 7.63
8/15/2021 4:00:00 AM 25.28 77.504 0.218 7.56 5.18 7.62
8/15/2021 4:15:00 AM 25.21 77.378 0.218 7.55 4.76 7.6
8/15/2021 4:30:00 AM 25.14 77.252 0.218 7.55 4.35 7.59
8/15/2021 4:45:00 AM 25.07 77.126 0.219 7.54 4.83 7.58
8/15/2021 5:00:00 AM 25 77 0.219 7.54 4.4 7.56
8/15/2021 5:15:00 AM 24.95 76.91 0.219 7.54 4.64 7.55
8/15/2021 5:30:00 AM 24.89 76.802 0.219 7.53 4.65 7.54
8/15/2021 5:45:00 AM 24.83 76.694 0.219 7.53 4.02 7.53
8/15/2021 6:00:00 AM 24.78 76.604 0.219 7.53 4.36 7.53
8/15/2021 6:15:00 AM 24.72 76.496 0.219 7.52 4.51 7.54
8/15/2021 6:30:00 AM 24.67 76.406 0.219 7.52 4.07 7.56
8/15/2021 6:45:00 AM 24.61 76.298 0.22 7.52 4.52 7.57
8/15/2021 7:00:00 AM 24.57 76.226 0.22 7.52 4.25 7.58
8/15/2021 7:15:00 AM 24.53 76.154 0.22 7.52 4.05 7.6
8/15/2021 7:30:00 AM 24.51 76.118 0.22 7.52 4.03 7.6
8/15/2021 7:45:00 AM 24.5 76.1 0.22 7.52 3.9 7.6
8/15/2021 8:00:00 AM 24.47 76.046 0.221 7.53 3.72 7.64
8/15/2021 8:15:00 AM 24.47 76.046 0.221 7.53 3.67 7.65
8/15/2021 8:30:00 AM 24.46 76.028 0.221 7.54 3.73 7.71
8/15/2021 8:45:00 AM 24.46 76.028 0.221 7.55 3.41 7.77
8/15/2021 9:00:00 AM 24.47 76.046 0.221 7.56 3.77 7.82
8/15/2021 9:15:00 AM 24.5 76.1 0.221 7.57 3.31 7.88
8/15/2021 9:30:00 AM 24.54 76.172 0.221 7.58 3.37 7.96
8/15/2021 9:45:00 AM 24.6 76.28 0.221 7.6 3.41 8.01
8/15/2021 10:00:00 AM 24.66 76.388 0.221 7.59 3.19 8.07
8/15/2021 10:15:00 AM 24.74 76.532 0.221 7.62 2.97 8.18
8/15/2021 10:30:00 AM 24.8 76.64 0.221 7.63 3.15 8.15
8/15/2021 10:45:00 AM 24.88 76.784 0.22 7.65 3.06 8.31
8/15/2021 11:00:00 AM 24.96 76.92799 0.221 7.66 3.28 8.28
8/15/2021 11:15:00 AM 25.04 77.07201 0.221 7.68 3.07 8.41
8/15/2021 11:30:00 AM 25.09 77.162 0.221 7.7 3.26 8.51
8/15/2021 11:45:00 AM 25.17 77.306 0.221 7.71 2.72 8.58
8/15/2021 12:00:00 PM 25.25 77.45 0.221 7.71 2.87 8.63
8/15/2021 12:15:00 PM 25.38 77.684 0.221 7.74 2.78 8.69
8/15/2021 12:30:00 PM 25.52 77.936 0.221 7.76 3.29 8.77
8/15/2021 12:45:00 PM 25.65 78.17 0.221 7.77 2.64 8.83
8/15/2021 1:00:00 PM 25.76 78.368 0.221 7.8 2.85 8.9
8/15/2021 1:15:00 PM 25.85 78.53 0.221 7.82 2.82 9.02
8/15/2021 1:30:00 PM 25.92 78.656 0.222 7.84 2.66 9.05
8/15/2021 1:45:00 PM 26 78.8 0.222 7.85 2.62 9.07
8/15/2021 2:00:00 PM 26.08 78.944 0.222 7.87 2.58 9.15
8/15/2021 2:15:00 PM 26.17 79.106 0.222 7.9 2.56 9.18
8/15/2021 2:30:00 PM 26.24 79.232 0.222 7.91 2.74 9.22
8/15/2021 2:45:00 PM 26.29 79.32201 0.222 7.93 2.44 9.25
8/15/2021 3:00:00 PM 26.33 79.394 0.222 7.97 2.63 9.36
8/15/2021 3:15:00 PM 26.38 79.484 0.222 7.97 2.58 9.34
8/15/2021 3:30:00 PM 26.43 79.574 0.222 7.97 2.46 9.39
8/15/2021 3:45:00 PM 26.47 79.646 0.222 8.01 2.49 9.41
8/15/2021 4:00:00 PM 26.51 79.718 0.222 8.03 2.47 9.49
8/15/2021 4:15:00 PM 26.54 79.772 0.222 8.03 2.34 9.49
8/15/2021 4:30:00 PM 26.59 79.862 0.222 8.08 2.71 9.53
8/15/2021 4:45:00 PM 26.64 79.952 0.222 8.1 2.9 9.58
8/15/2021 5:00:00 PM 26.68 80.024 0.222 8.1 2.58 9.6
8/15/2021 5:15:00 PM 26.72 80.096 0.223 8.11 2.3 9.61
8/15/2021 5:30:00 PM 26.77 80.186 0.223 8.16 2.48 9.67
8/15/2021 5:45:00 PM 26.78 80.204 0.223 8.17 2.56 9.69
8/15/2021 6:00:00 PM 26.8 80.24 0.223 8.16 2.52 9.65
8/15/2021 6:15:00 PM 26.8 80.24 0.223 8.2 2.42 9.69
8/15/2021 6:30:00 PM 26.79 80.222 0.223 8.2 2.26 9.69
8/15/2021 6:45:00 PM 26.78 80.204 0.224 8.2 2.81 9.69
8/15/2021 7:00:00 PM 26.77 80.186 0.224 8.2 2.35 9.67
8/15/2021 7:15:00 PM 26.75 80.15 0.224 8.18 2.41 9.61
8/15/2021 7:30:00 PM 26.73 80.114 0.224 8.17 2.71 9.58
8/15/2021 7:45:00 PM 26.7 80.06 0.224 8.16 2.91 9.52
8/15/2021 8:00:00 PM 26.68 80.024 0.225 8.14 2.94 9.46
8/15/2021 8:15:00 PM 26.65 79.97 0.225 8.12 2.41 9.39
8/15/2021 8:30:00 PM 26.63 79.934 0.226 8.11 2.65 9.34
8/15/2021 8:45:00 PM 26.61 79.898 0.226 8.09 2.31 9.27
8/15/2021 9:00:00 PM 26.58 79.844 0.226 8.06 2.14 9.2
8/15/2021 9:15:00 PM 26.55 79.79 0.226 8.04 2.51 9.13
8/15/2021 9:30:00 PM 26.51 79.718 0.226 8.02 2.54 9.07
8/15/2021 9:45:00 PM 26.47 79.646 0.226 7.99 2.34 9.02
8/15/2021 10:00:00 PM 26.42 79.556 0.227 7.98 2.12 8.97
8/15/2021 10:15:00 PM 26.38 79.484 0.227 7.96 2.12 8.89
8/15/2021 10:30:00 PM 26.33 79.394 0.227 7.94 2.57 8.83
8/15/2021 10:45:00 PM 26.29 79.32201 0.228 7.93 2.51 8.77
8/15/2021 11:00:00 PM 26.24 79.232 0.228 7.91 2.18 8.74
8/15/2021 11:15:00 PM 26.2 79.16 0.228 7.89 2.03 8.7
8/15/2021 11:30:00 PM 26.16 79.088 0.228 7.87 2.27 8.63
8/15/2021 11:45:00 PM 26.12 79.016 0.229 7.85 2.19 8.59
8/16/2021 12:00:00 AM 26.08 78.944 0.229 7.84 2.29 8.54
8/16/2021 12:15:00 AM 26.03 78.854 0.23 7.83 2.59 8.51
8/16/2021 12:30:00 AM 25.99 78.782 0.23 7.81 2.29 8.46
8/16/2021 12:45:00 AM 25.94 78.692 0.231 7.8 2.2 8.43
8/16/2021 1:00:00 AM 25.91 78.638 0.231 7.79 3.04 8.39
8/16/2021 1:15:00 AM 25.87 78.566 0.231 7.78 2.32 8.35
8/16/2021 1:30:00 AM 25.83 78.494 0.231 7.76 2.22 8.3
8/16/2021 1:45:00 AM 25.78 78.404 0.231 7.75 2.38 8.28
8/16/2021 2:00:00 AM 25.73 78.314 0.232 7.74 2.44 8.24
8/16/2021 2:15:00 AM 25.68 78.224 0.232 7.73 2.6 8.21
8/16/2021 2:30:00 AM 25.63 78.134 0.233 7.71 2.17 8.17
8/16/2021 2:45:00 AM 25.93 78.674 0.245 7.72 7.08 8.48
8/16/2021 3:00:00 AM 25.85 78.53 0.238 7.64 2.92 8.52
8/16/2021 3:15:00 AM 25.51 77.918 0.234 7.67 2.39 8.16
8/16/2021 3:30:00 AM 25.39 77.702 0.234 7.68 3.12 8.09
8/16/2021 3:45:00 AM 25.33 77.594 0.235 7.67 2.76 8.06
8/16/2021 4:00:00 AM 25.28 77.504 0.235 7.66 2.96 8.02
8/16/2021 4:15:00 AM 25.22 77.396 0.236 7.66 2.85 8
8/16/2021 4:30:00 AM 25.17 77.306 0.236 7.65 2.55 7.97
8/16/2021 4:45:00 AM 25.12 77.216 0.236 7.64 2.34 7.95
8/16/2021 5:00:00 AM 25.07 77.126 0.237 7.64 3.23 7.92
8/16/2021 5:15:00 AM 25.02 77.036 0.237 7.63 2.43 7.9
8/16/2021 5:30:00 AM 24.98 76.964 0.237 7.62 2.53 7.88
8/16/2021 5:45:00 AM 24.95 76.91 0.238 7.62 2.32 7.86
8/16/2021 6:00:00 AM 24.9 76.82 0.239 7.61 2.69 7.84
8/16/2021 6:15:00 AM 24.87 76.766 0.239 7.61 2.64 7.84
8/16/2021 6:30:00 AM 24.83 76.694 0.24 7.6 2.36 7.82
8/16/2021 6:45:00 AM 24.8 76.64 0.239 7.61 2.85 7.82
8/16/2021 7:00:00 AM 24.77 76.586 0.24 7.6 2.36 7.83
8/16/2021 7:15:00 AM 24.74 76.532 0.24 7.6 3.07 7.82
8/16/2021 7:30:00 AM 24.71 76.478 0.241 7.6 2.37 7.84
8/16/2021 7:45:00 AM 24.69 76.442 0.241 7.61 2.48 7.87
8/16/2021 8:00:00 AM 24.67 76.406 0.241 7.61 2.37 7.89
8/16/2021 8:15:00 AM 24.66 76.388 0.241 7.61 2.28 7.92
8/16/2021 8:30:00 AM 24.65 76.37 0.242 7.62 2.5 7.95
8/16/2021 8:45:00 AM 24.65 76.37 0.242 7.62 2.51 8.01
8/16/2021 9:00:00 AM 24.67 76.406 0.242 7.64 2.45 8.07
8/16/2021 9:15:00 AM 24.7 76.46 0.242 7.65 2.31 8.11
8/16/2021 9:30:00 AM 24.75 76.55 0.242 7.65 2.29 8.14
8/16/2021 9:45:00 AM 24.81 76.658 0.241 7.67 2.26 8.23
8/16/2021 10:00:00 AM 24.89 76.802 0.24 7.67 2.15 8.32
8/16/2021 10:15:00 AM 24.96 76.92799 0.239 7.68 2.61 8.37
8/16/2021 10:30:00 AM 25.04 77.07201 0.239 7.7 2.51 8.45
8/16/2021 10:45:00 AM 25.1 77.18 0.239 7.72 2.63 8.53
8/16/2021 11:00:00 AM 25.13 77.234 0.238 7.74 2.56 8.62
8/16/2021 11:15:00 AM 25.57 78.026 0.242 7.67 3.13 8.74
8/16/2021 11:30:00 AM 25.43 77.774 0.24 7.66 2.09 8.66
8/16/2021 11:45:00 AM 25.24 77.432 0.239 7.77 2.44 8.81
8/16/2021 12:00:00 PM 25.3 77.54 0.24 7.8 2.35 8.89
8/16/2021 12:15:00 PM 25.32 77.576 0.241 7.83 2.18 8.94
8/16/2021 12:30:00 PM 25.38 77.684 0.241 7.85 2.25 9.01
8/16/2021 12:45:00 PM 25.44 77.792 0.242 7.85 2.25 8.99
8/16/2021 1:00:00 PM 25.49 77.882 0.242 7.88 2.23 9.1
8/16/2021 1:15:00 PM 25.52 77.936 0.243 7.9 2.21 9.11
8/16/2021 1:30:00 PM 25.54 77.972 0.243 7.92 2.04 9.18
8/16/2021 1:45:00 PM 25.58 78.044 0.243 7.95 2.18 9.19
8/16/2021 2:00:00 PM 25.6 78.08 0.243 7.96 2.26 9.24
8/16/2021 2:15:00 PM 25.63 78.134 0.244 7.98 2.22 9.28
8/16/2021 2:30:00 PM 25.65 78.17 0.244 8.01 2.18 9.36
8/16/2021 2:45:00 PM 25.67 78.206 0.244 8.02 2.16 9.4
8/16/2021 3:00:00 PM 25.71 78.278 0.244 8.04 2.04 9.41
8/16/2021 3:15:00 PM 25.74 78.332 0.244 8.07 2.74 9.48
8/16/2021 3:30:00 PM 25.77 78.386 0.244 8.08 2.44 9.51
8/16/2021 3:45:00 PM 25.81 78.458 0.244 8.08 2.19 9.53
8/16/2021 4:00:00 PM 25.85 78.53 0.244 8.12 2.1 9.6
8/16/2021 4:15:00 PM 25.89 78.602 0.244 8.13 2.37 9.63
8/16/2021 4:30:00 PM 25.92 78.656 0.244 8.16 2.07 9.67
8/16/2021 4:45:00 PM 25.96 78.728 0.244 8.15 2.26 9.66
8/16/2021 5:00:00 PM 25.99 78.782 0.244 8.18 2.06 9.68
8/16/2021 5:15:00 PM 26.02 78.836 0.244 8.19 2.63 9.71
8/16/2021 5:30:00 PM 25.98 78.764 0.249 7.89 3.76 9.16
8/16/2021 5:45:00 PM 25.85 78.53 0.247 7.83 1.58 9.1
8/16/2021 6:00:00 PM 26.02 78.836 0.245 8.12 2.19 9.55
8/16/2021 6:15:00 PM 26.05 78.89 0.244 8.15 2.5 9.6
8/16/2021 6:30:00 PM 26.04 78.872 0.245 8.17 2.29 9.58
8/16/2021 6:45:00 PM 26.04 78.872 0.244 8.16 2.35 9.52
8/16/2021 7:00:00 PM 26.04 78.872 0.245 8.14 1.93 9.52
8/16/2021 7:15:00 PM 26.03 78.854 0.245 8.14 2.82 9.48
8/16/2021 7:30:00 PM 26.01 78.818 0.245 8.13 2.09 9.4
8/16/2021 7:45:00 PM 26 78.8 0.245 8.11 2.05 9.35
8/16/2021 8:00:00 PM 25.98 78.764 0.245 8.1 2.28 9.29
8/16/2021 8:15:00 PM 25.96 78.728 0.245 8.08 2.33 9.24
8/16/2021 8:30:00 PM 25.93 78.674 0.246 8.06 2.25 9.2
8/16/2021 8:45:00 PM 25.92 78.656 0.246 8.05 2.17 9.13
8/16/2021 9:00:00 PM 25.89 78.602 0.246 8.03 2.16 9.09
8/16/2021 9:15:00 PM 25.86 78.548 0.246 8.01 2.25 9.04
8/16/2021 9:30:00 PM 25.83 78.494 0.246 8 2.27 8.99
8/16/2021 9:45:00 PM 25.8 78.44 0.246 7.98 2.02 8.94
8/16/2021 10:00:00 PM 25.76 78.368 0.247 7.97 2.2 8.9
8/16/2021 10:15:00 PM 25.74 78.332 0.247 7.95 2.12 8.84
8/16/2021 10:30:00 PM 25.71 78.278 0.247 7.93 2.27 8.78
8/16/2021 10:45:00 PM 25.7 78.26 0.247 7.91 1.99 8.73
8/16/2021 11:00:00 PM 25.67 78.206 0.247 7.9 2.22 8.69
8/16/2021 11:15:00 PM 25.65 78.17 0.247 7.88 2.41 8.63
8/16/2021 11:30:00 PM 25.64 78.152 0.247 7.86 2.31 8.58
8/16/2021 11:45:00 PM 25.62 78.116 0.247 7.85 2.48 8.53
8/17/2021 12:00:00 AM 25.6 78.08 0.247 7.83 2.06 8.48
8/17/2021 12:15:00 AM 25.57 78.026 0.248 7.82 2.85 8.45
8/17/2021 12:30:00 AM 25.55 77.99 0.248 7.81 2.2 8.38
8/17/2021 12:45:00 AM 25.52 77.936 0.248 7.79 2.37 8.35
8/17/2021 1:00:00 AM 25.5 77.9 0.248 7.78 2.73 8.31
8/17/2021 1:15:00 AM 25.47 77.846 0.249 7.77 2.46 8.27
8/17/2021 1:30:00 AM 25.44 77.792 0.249 7.76 3.34 8.23
8/17/2021 1:45:00 AM 25.41 77.738 0.249 7.75 2.4 8.19
8/17/2021 2:00:00 AM 25.38 77.684 0.248 7.73 2.38 8.15
8/17/2021 2:15:00 AM 25.36 77.648 0.248 7.72 2.17 8.13
8/17/2021 2:30:00 AM 25.32 77.576 0.249 7.71 2.41 8.09
8/17/2021 2:45:00 AM 25.29 77.522 0.249 7.7 2.08 8.06
8/17/2021 3:00:00 AM 25.26 77.468 0.249 7.69 2.31 8.03
8/17/2021 3:15:00 AM 25.23 77.414 0.249 7.69 2.22 8
8/17/2021 3:30:00 AM 25.2 77.36 0.249 7.68 2.83 7.97
8/17/2021 3:45:00 AM 25.18 77.324 0.249 7.67 2.45 7.95
8/17/2021 4:00:00 AM 25.15 77.27 0.249 7.66 2.66 7.92
8/17/2021 4:15:00 AM 25.13 77.234 0.25 7.65 2.68 7.9
8/17/2021 4:30:00 AM 25.1 77.18 0.25 7.65 2.47 7.88
8/17/2021 4:45:00 AM 25.08 77.144 0.25 7.64 2.32 7.85
8/17/2021 5:00:00 AM 25.06 77.108 0.25 7.63 2.45 7.82
8/17/2021 5:15:00 AM 25.05 77.09 0.25 7.61 2.47 7.79
8/17/2021 5:30:00 AM 25.03 77.054 0.25 7.62 2.53 7.78
8/17/2021 5:45:00 AM 25.02 77.036 0.25 7.61 2.28 7.77
8/17/2021 6:00:00 AM 25 77 0.25 7.61 2.14 7.75
8/17/2021 6:15:00 AM 24.97 76.946 0.251 7.6 2.28 7.72
8/17/2021 6:30:00 AM 24.95 76.91 0.251 7.59 2.32 7.7
8/17/2021 6:45:00 AM 24.94 76.892 0.25 7.59 2.2 7.71
8/17/2021 7:00:00 AM 24.92 76.856 0.25 7.59 2.24 7.71
8/17/2021 7:15:00 AM 24.9 76.82 0.251 7.59 2.65 7.7
8/17/2021 7:30:00 AM 24.87 76.766 0.251 7.59 2.42 7.7
8/17/2021 7:45:00 AM 24.85 76.73 0.25 7.58 2.25 7.69
8/17/2021 8:00:00 AM 24.84 76.712 0.251 7.58 2.14 7.71
8/17/2021 8:15:00 AM 24.84 76.712 0.25 7.59 2.38 7.75
8/17/2021 8:30:00 AM 24.84 76.712 0.25 7.59 2.14 7.78
8/17/2021 8:45:00 AM 24.84 76.712 0.25 7.6 2.19 7.83
8/17/2021 9:00:00 AM 24.85 76.73 0.251 7.61 2.16 7.86
8/17/2021 9:15:00 AM 24.87 76.766 0.25 7.61 2.08 7.91
8/17/2021 9:30:00 AM 24.88 76.784 0.25 7.62 2.26 7.97
8/17/2021 9:45:00 AM 24.89 76.802 0.25 7.63 2.19 8.03
8/17/2021 10:00:00 AM 24.91 76.838 0.25 7.64 2.2 8.06
8/17/2021 10:15:00 AM 24.92 76.856 0.25 7.64 2.16 8.09
8/17/2021 10:30:00 AM 24.93 76.874 0.25 7.65 2.89 8.12
8/17/2021 10:45:00 AM 24.96 76.92799 0.249 7.66 2.15 8.21
8/17/2021 11:00:00 AM 25 77 0.25 7.66 2.01 8.26
8/17/2021 11:15:00 AM 25.05 77.09 0.25 7.69 2.04 8.36
8/17/2021 11:30:00 AM 25.11 77.198 0.249 7.71 2.09 8.44
8/17/2021 11:45:00 AM 25.14 77.252 0.249 7.71 2 8.44
8/17/2021 12:00:00 PM 25.19 77.342 0.249 7.73 2.06 8.49
8/17/2021 12:15:00 PM 25.23 77.414 0.249 7.73 2.26 8.54
8/17/2021 12:30:00 PM 25.28 77.504 0.249 7.76 2.09 8.61
8/17/2021 12:45:00 PM 25.32 77.576 0.25 7.77 2.14 8.66
8/17/2021 1:00:00 PM 25.37 77.666 0.253 7.8 1.97 8.72
8/17/2021 1:15:00 PM 25.41 77.738 0.256 7.83 2.17 8.8
8/17/2021 1:30:00 PM 25.46 77.828 0.257 7.86 1.97 8.86
8/17/2021 1:45:00 PM 25.52 77.936 0.257 7.87 2 8.93
8/17/2021 2:00:00 PM 25.56 78.008 0.258 7.91 1.97 8.98
8/17/2021 2:15:00 PM 25.65 78.17 0.258 7.94 2 9.05
8/17/2021 2:30:00 PM 25.71 78.278 0.257 7.96 2.06 9.14
8/17/2021 2:45:00 PM 25.77 78.386 0.255 7.96 1.86 9.15
8/17/2021 3:00:00 PM 25.82 78.476 0.253 7.97 2.26 9.19
8/17/2021 3:15:00 PM 25.85 78.53 0.263 8.03 2.18 9.27
8/17/2021 3:30:00 PM 25.88 78.584 0.336 8.29 1.97 9.28
8/17/2021 3:45:00 PM 25.9 78.62 0.463 8.56 2.02 9.28
8/17/2021 4:00:00 PM 25.93 78.674 0.577 8.68 1.99 9.29
8/17/2021 4:15:00 PM 25.95 78.71 0.673 8.71 2.14 9.3
8/17/2021 4:30:00 PM 25.99 78.782 0.728 8.72 2.15 9.31
8/17/2021 4:45:00 PM 26.01 78.818 0.715 8.72 1.96 9.31
8/17/2021 5:00:00 PM 26.04 78.872 0.642 8.72 2.04 9.33
8/17/2021 5:15:00 PM 26.07 78.926 0.551 8.69 1.99 9.36
8/17/2021 5:30:00 PM 26.08 78.944 0.486 8.65 2.08 9.37
8/17/2021 5:45:00 PM 26.1 78.98 0.427 8.61 2.28 9.4
8/17/2021 6:00:00 PM 26.11 78.998 0.391 8.57 2.04 9.39
8/17/2021 6:15:00 PM 26.11 78.998 0.358 8.53 2.03 9.4
8/17/2021 6:30:00 PM 26.11 78.998 0.333 8.48 1.96 9.38
8/17/2021 6:45:00 PM 26.09 78.962 0.318 8.43 2.1 9.39
8/17/2021 7:00:00 PM 26.08 78.944 0.302 8.39 2.23 9.35
8/17/2021 7:15:00 PM 25.91 78.638 0.288 8 3.19 9.05
8/17/2021 7:30:00 PM 25.87 78.566 0.3 7.91 2.48 9.03
8/17/2021 7:45:00 PM 26 78.8 0.277 8.19 2.42 9.21
8/17/2021 8:00:00 PM 26 78.8 0.271 8.22 2.3 9.26
8/17/2021 8:15:00 PM 25.99 78.782 0.266 8.19 2.49 9.21
8/17/2021 8:30:00 PM 25.97 78.746 0.263 8.16 2.25 9.18
8/17/2021 8:45:00 PM 25.96 78.728 0.26 8.13 2.58 9.14
8/17/2021 9:00:00 PM 25.95 78.71 0.258 8.11 2.36 9.1
8/17/2021 9:15:00 PM 25.94 78.692 0.257 8.08 2.32 9.05
8/17/2021 9:30:00 PM 25.93 78.674 0.255 8.06 2.42 9.01
8/17/2021 9:45:00 PM 25.91 78.638 0.254 8.03 2.33 8.97
8/17/2021 10:00:00 PM 25.89 78.602 0.254 8.02 2.18 8.92
8/17/2021 10:15:00 PM 25.87 78.566 0.254 7.99 2.29 8.88
8/17/2021 10:30:00 PM 25.85 78.53 0.254 7.98 2.2 8.84
8/17/2021 10:45:00 PM 25.83 78.494 0.254 7.95 2.25 8.79
8/17/2021 11:00:00 PM 25.81 78.458 0.254 7.93 2.26 8.75
8/17/2021 11:15:00 PM 25.79 78.422 0.254 7.92 2.32 8.7
8/17/2021 11:30:00 PM 25.77 78.386 0.254 7.91 2.38 8.66
8/17/2021 11:45:00 PM 25.75 78.35 0.254 7.89 2.52 8.62
8/18/2021 12:00:00 AM 25.73 78.314 0.254 7.88 2.28 8.58
8/18/2021 12:15:00 AM 25.71 78.278 0.254 7.87 2.49 8.54
8/18/2021 12:30:00 AM 25.69 78.242 0.253 7.85 2.59 8.5
8/18/2021 12:45:00 AM 25.67 78.206 0.253 7.84 2.64 8.46
8/18/2021 1:00:00 AM 25.65 78.17 0.253 7.82 2.45 8.41
8/18/2021 1:15:00 AM 25.63 78.134 0.253 7.81 2.22 8.36
8/18/2021 1:30:00 AM 25.64 78.152 0.284 7.73 4.09 8.62
8/18/2021 1:45:00 AM 25.64 78.152 0.276 7.69 2.3 8.55
8/18/2021 2:00:00 AM 25.58 78.044 0.254 7.76 2.74 8.26
8/18/2021 2:15:00 AM 25.55 77.99 0.253 7.75 2.33 8.21
8/18/2021 2:30:00 AM 25.53 77.954 0.253 7.74 2.51 8.18
8/18/2021 2:45:00 AM 25.51 77.918 0.253 7.73 2.65 8.13
8/18/2021 3:00:00 AM 25.48 77.864 0.253 7.72 2.48 8.09
8/18/2021 3:15:00 AM 25.45 77.81 0.253 7.71 2.48 8.05
8/18/2021 3:30:00 AM 25.42 77.756 0.253 7.7 2.47 8.03
8/18/2021 3:45:00 AM 25.39 77.702 0.252 7.69 2.6 8
8/18/2021 4:00:00 AM 25.36 77.648 0.252 7.68 2.6 7.98
8/18/2021 4:15:00 AM 25.33 77.594 0.252 7.67 2.41 7.95
8/18/2021 4:30:00 AM 25.29 77.522 0.252 7.67 2.22 7.92
8/18/2021 4:45:00 AM 25.26 77.468 0.252 7.66 2.31 7.9
8/18/2021 5:00:00 AM 25.22 77.396 0.252 7.65 2.77 7.87
8/18/2021 5:15:00 AM 25.19 77.342 0.251 7.64 2.58 7.84
8/18/2021 5:30:00 AM 25.15 77.27 0.251 7.63 2.31 7.82
8/18/2021 5:45:00 AM 25.11 77.198 0.251 7.62 2.51 7.79
8/18/2021 6:00:00 AM 25.08 77.144 0.25 7.61 2.74 7.77
8/18/2021 6:15:00 AM 25.04 77.07201 0.25 7.61 2.59 7.75
8/18/2021 6:30:00 AM 25 77 0.249 7.61 3 7.74
8/18/2021 6:45:00 AM 24.95 76.91 0.249 7.6 3.38 7.75
8/18/2021 7:00:00 AM 24.92 76.856 0.248 7.61 2.83 7.76
8/18/2021 7:15:00 AM 24.9 76.82 0.247 7.61 2.92 7.76
8/18/2021 7:30:00 AM 24.87 76.766 0.247 7.6 3.32 7.74
8/18/2021 7:45:00 AM 24.85 76.73 0.245 7.61 3.72 7.76
8/18/2021 8:00:00 AM 24.85 76.73 0.245 7.6 3.55 7.77
8/18/2021 8:15:00 AM 24.86 76.748 0.245 7.6 3.28 7.81
8/18/2021 8:30:00 AM 24.87 76.766 0.245 7.61 4.06 7.85
8/18/2021 8:45:00 AM 24.88 76.784 0.245 7.61 3.13 7.87
8/18/2021 9:00:00 AM 24.89 76.802 0.245 7.61 3.19 7.92
8/18/2021 9:15:00 AM 24.9 76.82 0.245 7.62 3.29 7.96
8/18/2021 9:30:00 AM 24.91 76.838 0.244 7.63 3.27 8.01
8/18/2021 9:45:00 AM 24.93 76.874 0.244 7.64 3.07 8.06
8/18/2021 10:00:00 AM 24.94 76.892 0.243 7.64 3.6 8.13
8/18/2021 10:15:00 AM 24.97 76.946 0.243 7.65 3.01 8.2
8/18/2021 10:30:00 AM 25.04 77.07201 0.242 7.66 3.17 8.27
8/18/2021 10:45:00 AM 25.09 77.162 0.242 7.68 2.85 8.34
8/18/2021 11:00:00 AM 25.14 77.252 0.242 7.7 3.12 8.42
8/18/2021 11:15:00 AM 25.19 77.342 0.242 7.71 2.96 8.5
8/18/2021 11:30:00 AM 25.21 77.378 0.241 7.73 3.54 8.57
8/18/2021 11:45:00 AM 25.25 77.45 0.241 7.74 3.03 8.64
8/18/2021 12:00:00 PM 25.3 77.54 0.241 7.76 3.1 8.71
8/18/2021 12:15:00 PM 25.35 77.63 0.242 7.78 3.05 8.77
8/18/2021 12:30:00 PM 25.43 77.774 0.242 7.8 2.68 8.84
8/18/2021 12:45:00 PM 25.49 77.882 0.241 7.83 3.11 8.94
8/18/2021 1:00:00 PM 25.53 77.954 0.241 7.84 3.04 8.96
8/18/2021 1:15:00 PM 25.54 77.972 0.241 7.86 2.7 8.97
8/18/2021 1:30:00 PM 25.55 77.99 0.242 7.86 3.36 8.99
8/18/2021 1:45:00 PM 25.55 77.99 0.244 7.87 3.25 8.99
8/18/2021 2:00:00 PM 25.55 77.99 0.246 7.88 3.28 9.01
8/18/2021 2:15:00 PM 25.55 77.99 0.248 7.89 2.91 9.03
8/18/2021 2:30:00 PM 25.56 78.008 0.251 7.91 2.9 9.03
8/18/2021 2:45:00 PM 25.55 77.99 0.284 8 3.41 9.03
8/18/2021 3:00:00 PM 25.55 77.99 0.353 8.21 3.07 9.01
8/18/2021 3:15:00 PM 25.53 77.954 0.353 8.25 2.93 8.99
8/18/2021 3:30:00 PM 25.52 77.936 0.32 8.19 3.17 8.98
8/18/2021 3:45:00 PM 25.5 77.9 0.294 8.12 3.15 8.96
8/18/2021 4:00:00 PM 25.48 77.864 0.28 8.07 4.13 8.92
8/18/2021 4:15:00 PM 25.46 77.828 0.268 8.02 3.24 8.89
8/18/2021 4:30:00 PM 25.43 77.774 0.26 7.98 3.16 8.84
8/18/2021 4:45:00 PM 25.39 77.702 0.253 7.95 3.49 8.8
8/18/2021 5:00:00 PM 25.35 77.63 0.245 7.94 3.66 8.78
8/18/2021 5:15:00 PM 25.3 77.54 0.236 7.93 4.82 8.75
8/18/2021 5:30:00 PM 25.27 77.486 0.225 7.95 11.51 8.7
8/18/2021 5:45:00 PM 25.26 77.468 0.224 7.93 9.43 8.65
8/18/2021 6:00:00 PM 25.32 77.576 0.25 7.85 7.92 8.76
8/18/2021 6:15:00 PM 25.4 77.72 0.259 7.71 3.73 8.72
8/18/2021 6:30:00 PM 25.31 77.558 0.237 7.78 3.79 8.63
8/18/2021 6:45:00 PM 25.27 77.486 0.23 7.83 4.67 8.61
8/18/2021 7:00:00 PM 25.25 77.45 0.229 7.83 4.28 8.59
8/18/2021 7:15:00 PM 25.21 77.378 0.226 7.83 4.75 8.55
8/18/2021 7:30:00 PM 25.18 77.324 0.224 7.82 4.78 8.52
8/18/2021 7:45:00 PM 25.14 77.252 0.221 7.81 5.56 8.48
8/18/2021 8:00:00 PM 25.11 77.198 0.221 7.8 4.83 8.45
8/18/2021 8:15:00 PM 25.07 77.126 0.218 7.8 6.39 8.43
8/18/2021 8:30:00 PM 25.04 77.07201 0.22 7.79 6.17 8.41
8/18/2021 8:45:00 PM 25 77 0.225 7.78 6.5 8.4
8/18/2021 9:00:00 PM 24.95 76.91 0.228 7.77 6.32 8.36
8/18/2021 9:15:00 PM 24.89 76.802 0.23 7.77 6.74 8.33
8/18/2021 9:30:00 PM 24.85 76.73 0.23 7.76 8.58 8.3
8/18/2021 9:45:00 PM 24.83 76.694 0.228 7.76 9.09 8.27
8/18/2021 10:00:00 PM 24.81 76.658 0.227 7.75 10.05 8.23
8/18/2021 10:15:00 PM 24.78 76.604 0.226 7.73 10.49 8.19
8/18/2021 10:30:00 PM 24.74 76.532 0.227 7.72 11.64 8.16
8/18/2021 10:45:00 PM 24.68 76.424 0.229 7.72 12.44 8.14
8/18/2021 11:00:00 PM 24.62 76.316 0.23 7.71 14.18 8.11
8/18/2021 11:15:00 PM 24.57 76.226 0.23 7.7 15.03 8.07
8/18/2021 11:30:00 PM 24.54 76.172 0.229 7.68 18.58 8.03
8/18/2021 11:45:00 PM 24.51 76.118 0.228 7.67 16.97 8.01
8/19/2021 12:00:00 AM 24.46 76.028 0.228 7.66 16.9 7.98
8/19/2021 12:15:00 AM 24.33 75.794 0.235 7.67 22.2 7.95
8/19/2021 12:30:00 AM 24.15 75.47 0.243 7.67 25.38 7.9
8/19/2021 12:45:00 AM 24.08 75.344 0.245 7.68 36.84 7.86
8/19/2021 1:00:00 AM 24.28 75.704 0.254 7.68 44.19 8.12
8/19/2021 1:15:00 AM 24.58 76.244 0.252 7.62 28.57 8.37
8/19/2021 1:30:00 AM 24.03 75.254 0.235 7.64 54.73 7.79
8/19/2021 1:45:00 AM 23.99 75.182 0.23 7.61 66.87 7.68
8/19/2021 2:00:00 AM 23.97 75.146 0.228 7.58 60.69 7.63
8/19/2021 2:15:00 AM 23.97 75.146 0.226 7.56 57.67 7.59
8/19/2021 2:30:00 AM 23.95 75.11 0.224 7.55 68.73 7.54
8/19/2021 2:45:00 AM 23.93 75.074 0.224 7.53 65.49 7.52
8/19/2021 3:00:00 AM 23.93 75.074 0.223 7.52 59.9 7.5
8/19/2021 3:15:00 AM 23.94 75.092 0.221 7.52 60.5 7.51
8/19/2021 3:30:00 AM 23.91 75.038 0.22 7.51 61.16 7.5
8/19/2021 3:45:00 AM 23.91 75.038 0.219 7.5 57.81 7.51
8/19/2021 4:00:00 AM 23.91 75.038 0.219 7.5 51.21 7.5
8/19/2021 4:15:00 AM 23.91 75.038 0.218 7.49 43.57 7.51
8/19/2021 4:30:00 AM 23.91 75.038 0.218 7.49 48.9 7.54
8/19/2021 4:45:00 AM 23.92 75.056 0.219 7.49 39.59 7.53
8/19/2021 5:00:00 AM 23.93 75.074 0.219 7.49 42.27 7.58
8/19/2021 5:15:00 AM 23.94 75.092 0.22 7.5 35.11 7.6
8/19/2021 5:30:00 AM 23.94 75.092 0.22 7.5 36.07 7.61
8/19/2021 5:45:00 AM 23.94 75.092 0.221 7.5 29.25 7.64
8/19/2021 6:00:00 AM 23.95 75.11 0.222 7.51 28.19 7.65
8/19/2021 6:15:00 AM 23.96 75.128 0.223 7.5 26.89 7.66
8/19/2021 6:30:00 AM 23.96 75.128 0.223 7.51 25.45 7.66
8/19/2021 6:45:00 AM 23.97 75.146 0.224 7.51 21.24 7.65
8/19/2021 7:00:00 AM 24 75.2 0.224 7.51 24.09 7.66
8/19/2021 7:15:00 AM 24.01 75.218 0.225 7.51 18.32 7.66
8/19/2021 7:30:00 AM 24.02 75.236 0.225 7.52 20.68 7.66
8/19/2021 7:45:00 AM 24 75.2 0.223 7.52 23.28 7.65
8/19/2021 8:00:00 AM 23.98 75.164 0.22 7.52 23.1 7.63
8/19/2021 8:15:00 AM 23.94 75.092 0.216 7.51 31.51 7.61
8/19/2021 8:30:00 AM 23.9 75.02 0.212 7.5 32.17 7.6
8/19/2021 8:45:00 AM 23.87 74.966 0.208 7.48 34.4 7.57
8/19/2021 9:00:00 AM 23.81 74.858 0.204 7.48 33.99 7.57
8/19/2021 9:15:00 AM 23.77 74.786 0.202 7.47 32.56 7.56
8/19/2021 9:30:00 AM 23.71 74.67799 0.198 7.46 44.55 7.56
8/19/2021 9:45:00 AM 23.61 74.498 0.193 7.46 36.75 7.58
8/19/2021 10:00:00 AM 23.47 74.246 0.186 7.45 37.79 7.6
8/19/2021 10:15:00 AM 23.35 74.03 0.18 7.43 39.51 7.62
8/19/2021 10:30:00 AM 23.24 73.832 0.174 7.42 46.95 7.6
8/19/2021 10:45:00 AM 23.16 73.688 0.167 7.41 50.81 7.63
8/19/2021 11:00:00 AM 23.07 73.526 0.16 7.39 62.63 7.65
8/19/2021 11:15:00 AM 23.01 73.418 0.154 7.38 76.91 7.67
8/19/2021 11:30:00 AM 22.96 73.328 0.148 7.36 113.21 7.69
8/19/2021 11:45:00 AM 22.92 73.256 0.145 7.34 118.65 7.68
8/19/2021 12:00:00 PM 22.9 73.22 0.142 7.33 130.88 7.69
8/19/2021 12:15:00 PM 22.92 73.256 0.14 7.32 141.96 7.7
8/19/2021 12:30:00 PM 22.95 73.31 0.139 7.31 174.85 7.72
8/19/2021 12:45:00 PM 22.98 73.364 0.138 7.31 155.77 7.73
8/19/2021 1:00:00 PM 23 73.4 0.138 7.29 176.36 7.74
8/19/2021 1:15:00 PM 23.01 73.418 0.138 7.3 185.28 7.77
8/19/2021 1:30:00 PM 23.01 73.418 0.138 7.3 178.97 7.79
8/19/2021 1:45:00 PM 23 73.4 0.138 7.29 156.47 7.81
8/19/2021 2:00:00 PM 22.97 73.346 0.138 7.29 156.57 7.86
8/19/2021 2:15:00 PM 22.93 73.274 0.138 7.28 140.06 7.9
8/19/2021 2:30:00 PM 22.91 73.238 0.139 7.29 136.05 7.92
8/19/2021 2:45:00 PM 22.9 73.22 0.14 7.29 109.68 7.94
8/19/2021 3:00:00 PM 22.93 73.274 0.144 7.29 94.07 7.96
8/19/2021 3:15:00 PM 23.02 73.436 0.149 7.3 71.28 7.96
8/19/2021 3:30:00 PM 23.13 73.634 0.159 7.31 71.29 7.87
8/19/2021 3:45:00 PM 23.24 73.832 0.164 7.32 63.07 7.92
8/19/2021 4:00:00 PM 23.34 74.012 0.167 7.33 60.88 7.9
8/19/2021 4:15:00 PM 23.35 74.03 0.166 7.33 44.2 7.93
8/19/2021 4:30:00 PM 23.3 73.94 0.161 7.32 40.07 7.96
8/19/2021 4:45:00 PM 23.22 73.796 0.156 7.32 38.75 7.99
8/19/2021 5:00:00 PM 23.13 73.634 0.152 7.31 31.82 8.03
8/19/2021 5:15:00 PM 23.07 73.526 0.15 7.31 37.25 8.06
8/19/2021 5:30:00 PM 23.02 73.436 0.149 7.31 37.88 8.1
8/19/2021 5:45:00 PM 23.01 73.418 0.151 7.3 41.37 8.09
8/19/2021 6:00:00 PM 23.03 73.454 0.153 7.3 37.67 8.1
8/19/2021 6:15:00 PM 23.05 73.49 0.156 7.3 32.64 8.1
8/19/2021 6:30:00 PM 23.08 73.544 0.158 7.29 35.12 8.09
8/19/2021 6:45:00 PM 23.1 73.58 0.161 7.3 38.95 8.08
8/19/2021 7:00:00 PM 23.13 73.634 0.165 7.3 50.75 8.08
8/19/2021 7:15:00 PM 23.14 73.652 0.169 7.3 36.23 8.07
8/19/2021 7:30:00 PM 23.16 73.688 0.173 7.3 33.43 8.03
8/19/2021 7:45:00 PM 23.18 73.724 0.177 7.31 43.9 8.04
8/19/2021 8:00:00 PM 23.21 73.778 0.181 7.3 43.04 8.05
8/19/2021 8:15:00 PM 23.24 73.832 0.185 7.31 31.7 8.04
8/19/2021 8:30:00 PM 23.26 73.868 0.187 7.31 30.23 8.01
8/19/2021 8:45:00 PM 23.28 73.904 0.19 7.31 40.6 7.99
8/19/2021 9:00:00 PM 23.29 73.922 0.192 7.32 28.72 8
8/19/2021 9:15:00 PM 23.3 73.94 0.194 7.32 29.45 8
8/19/2021 9:30:00 PM 23.29 73.922 0.195 7.33 28.79 7.99
8/19/2021 9:45:00 PM 23.26 73.868 0.195 7.32 29.95 7.98
8/19/2021 10:00:00 PM 23.23 73.814 0.196 7.32 30.69 7.97
8/19/2021 10:15:00 PM 23.19 73.742 0.195 7.32 30.63 7.97
8/19/2021 10:30:00 PM 23.14 73.652 0.192 7.31 30.63 7.95
8/19/2021 10:45:00 PM 23.08 73.544 0.188 7.3 26.35 7.95
8/19/2021 11:00:00 PM 22.99 73.382 0.182 7.31 36.31 7.95
8/19/2021 11:15:00 PM 22.89 73.202 0.175 7.3 31.5 7.95
8/19/2021 11:30:00 PM 22.78 73.004 0.169 7.28 39.64 7.94
8/19/2021 11:45:00 PM 22.7 72.86 0.165 7.27 50.1 7.91
8/20/2021 12:00:00 AM 22.5 72.5 0.155 7.24 75.42 7.94
8/20/2021 12:15:00 AM 22.37 72.266 0.15 7.24 98.37 7.94
8/20/2021 12:30:00 AM 22.26 72.068 0.146 7.22 142.23 7.94
8/20/2021 12:45:00 AM 22.14 71.852 0.142 7.22 151.21 7.94
8/20/2021 1:00:00 AM 22.04 71.672 0.139 7.21 175.18 7.95
8/20/2021 1:15:00 AM 21.94 71.492 0.137 7.2 209.12 7.96
8/20/2021 1:30:00 AM 21.85 71.33 0.135 7.19 249.22 7.97
8/20/2021 1:45:00 AM 22.26 72.068 0.15 7.23 210.15 8.32
8/20/2021 2:00:00 AM 22.48 72.464 0.163 7.2 151.14 8.42
8/20/2021 2:15:00 AM 22.75 72.95 0.171 7.19 99.22 8.53
8/20/2021 2:30:00 AM 22.26 72.068 0.153 7.2 126.39 8.18
8/20/2021 2:45:00 AM 21.93 71.474 0.145 7.21 182.24 8.04
8/20/2021 3:00:00 AM 21.74 71.132 0.144 7.21 193.52 8.07
8/20/2021 3:15:00 AM 21.67 71.006 0.145 7.22 195.04 8.07
8/20/2021 3:30:00 AM 22.04 71.672 0.16 7.24 182.58 8.33
8/20/2021 3:45:00 AM 22.67 72.806 0.177 7.22 87.09 8.58
8/20/2021 4:00:00 AM 22.79 73.022 0.181 7.2 60.51 8.58
8/20/2021 4:15:00 AM 23.24 73.832 0.193 7.19 9.28 8.88
8/20/2021 4:30:00 AM 23.21 73.778 0.192 7.19 5.41 8.9
8/20/2021 4:45:00 AM 23.2 73.76 0.192 7.19 4.82 8.88
8/20/2021 5:00:00 AM 23.18 73.724 0.191 7.19 5.43 8.92
8/20/2021 5:15:00 AM 23.15 73.67 0.19 7.19 8.21 8.91
8/20/2021 5:30:00 AM 23.14 73.652 0.19 7.19 3.53 8.91
8/20/2021 5:45:00 AM 23.12 73.616 0.19 7.19 3.39 8.88
8/20/2021 6:00:00 AM 23.11 73.598 0.19 7.18 3.3 8.9
8/20/2021 6:15:00 AM 23.08 73.544 0.19 7.16 3.72 8.83
8/20/2021 6:30:00 AM 23.06 73.508 0.19 7.15 3.54 8.83
8/20/2021 6:45:00 AM 23.05 73.49 0.191 7.17 3.3 8.81
8/20/2021 7:00:00 AM 21.71 71.078 0.16 7.19 96.29 8.11
8/20/2021 7:15:00 AM 21.39 70.502 0.156 7.19 104.77 8.18
8/20/2021 7:30:00 AM 21.33 70.394 0.155 7.18 97.29 8.17
8/20/2021 7:45:00 AM 21.31 70.358 0.155 7.18 73.91 8.17
8/20/2021 8:00:00 AM 21.29 70.32201 0.155 7.16 84.9 8.19
8/20/2021 8:15:00 AM 21.29 70.32201 0.154 7.17 97.75 8.2
8/20/2021 8:30:00 AM 21.29 70.32201 0.153 7.17 81.33 8.21
8/20/2021 8:45:00 AM 21.28 70.304 0.152 7.16 74.33 8.2
8/20/2021 9:00:00 AM 21.28 70.304 0.151 7.16 80.24 8.21
8/20/2021 9:15:00 AM 21.28 70.304 0.149 7.15 73.41 8.22
8/20/2021 9:30:00 AM 21.28 70.304 0.148 7.15 75.29 8.21
8/20/2021 9:45:00 AM 21.29 70.32201 0.146 7.14 78.1 8.22
8/20/2021 10:00:00 AM 21.3 70.34 0.145 7.14 54.33 8.21
8/20/2021 10:15:00 AM 21.32 70.376 0.143 7.15 59.28 8.21
8/20/2021 10:30:00 AM 21.33 70.394 0.142 7.14 65.59 8.22
8/20/2021 10:45:00 AM 21.33 70.394 0.14 7.15 68.04 8.21
8/20/2021 11:00:00 AM 21.34 70.412 0.138 7.14 63.64 8.21
8/20/2021 11:15:00 AM 22.13 71.834 0.159 7.22 46.1 8.38
8/20/2021 11:30:00 AM 21.87 71.366 0.151 7.17 47.91 8.4
8/20/2021 11:45:00 AM 21.9 71.42 0.15 7.16 36.47 8.43
8/20/2021 12:00:00 PM 21.49 70.682 0.134 7.15 58.99 8.24
8/20/2021 12:15:00 PM 21.43 70.574 0.131 7.14 44.26 8.22
8/20/2021 12:30:00 PM 21.44 70.592 0.13 7.14 54.7 8.22
8/20/2021 12:45:00 PM 21.46 70.628 0.128 7.14 46.42 8.23
8/20/2021 1:00:00 PM 21.47 70.646 0.127 7.14 44.18 8.23
8/20/2021 1:15:00 PM 21.49 70.682 0.125 7.15 59.92 8.23
8/20/2021 1:30:00 PM 21.52 70.736 0.125 7.15 49.13 8.22
8/20/2021 1:45:00 PM 21.52 70.736 0.123 7.15 48.72 8.23
8/20/2021 2:00:00 PM 21.53 70.754 0.122 7.15 49.72 8.24
8/20/2021 2:15:00 PM 21.55 70.79 0.12 7.15 58.85 8.23
8/20/2021 2:30:00 PM 21.56 70.808 0.124 7.15 42.98 8.24
8/20/2021 2:45:00 PM 21.57 70.826 0.12 7.15 57.49 8.25
8/20/2021 3:00:00 PM 21.6 70.88 0.119 7.15 43.36 8.25
8/20/2021 3:15:00 PM 21.62 70.916 0.118 7.15 59.69 8.25
8/20/2021 3:30:00 PM 21.64 70.952 0.12 7.14 54.61 8.26
8/20/2021 3:45:00 PM 21.66 70.988 0.118 7.16 43.99 8.26
8/20/2021 4:00:00 PM 21.68 71.024 0.117 7.16 61.78 8.26
8/20/2021 4:15:00 PM 21.68 71.024 0.116 7.16 55.18 8.28
8/20/2021 4:30:00 PM 21.69 71.042 0.117 7.16 45.42 8.29
8/20/2021 4:45:00 PM 21.69 71.042 0.115 7.15 44.84 8.29
8/20/2021 5:00:00 PM 21.75 71.15 0.121 7.17 46.17 8.33
8/20/2021 5:15:00 PM 22.28 72.104 0.15 7.17 26.17 8.62
8/20/2021 5:30:00 PM 21.96 71.528 0.133 7.16 30.53 8.51
8/20/2021 5:45:00 PM 21.68 71.024 0.117 7.17 45.87 8.33
8/20/2021 6:00:00 PM 21.64 70.952 0.116 7.17 47.94 8.33
8/20/2021 6:15:00 PM 21.62 70.916 0.115 7.17 45.29 8.34
8/20/2021 6:30:00 PM 21.63 70.934 0.116 7.17 52.38 8.33
8/20/2021 6:45:00 PM 21.58 70.844 0.115 7.17 51.97 8.35
8/20/2021 7:00:00 PM 21.57 70.826 0.116 7.17 51.85 8.36
8/20/2021 7:15:00 PM 21.56 70.808 0.116 7.17 47.99 8.36
8/20/2021 7:30:00 PM 21.53 70.754 0.116 7.17 40.83 8.37
8/20/2021 7:45:00 PM 21.5 70.7 0.116 7.16 46.03 8.38
8/20/2021 8:00:00 PM 21.47 70.646 0.117 7.17 38.71 8.38
8/20/2021 8:15:00 PM 21.45 70.61 0.116 7.18 44.74 8.4
8/20/2021 8:30:00 PM 21.43 70.574 0.116 7.17 48.43 8.38
8/20/2021 8:45:00 PM 21.42 70.556 0.117 7.18 39.14 8.41
8/20/2021 9:00:00 PM 21.41 70.538 0.117 7.17 45.99 8.41
8/20/2021 9:15:00 PM 21.39 70.502 0.117 7.18 47.85 8.42
8/20/2021 9:30:00 PM 21.37 70.466 0.117 7.17 35.32 8.42
8/20/2021 9:45:00 PM 21.34 70.412 0.117 7.18 44 8.43
8/20/2021 10:00:00 PM 21.31 70.358 0.117 7.18 44.38 8.44
8/20/2021 10:15:00 PM 21.27 70.286 0.117 7.17 44.34 8.44
8/20/2021 10:30:00 PM 21.24 70.232 0.117 7.18 36.26 8.44
8/20/2021 10:45:00 PM 21.2 70.16 0.118 7.18 43.07 8.45
8/20/2021 11:00:00 PM 21.17 70.106 0.117 7.19 42.23 8.46
8/20/2021 11:15:00 PM 21.15 70.07 0.117 7.18 42.99 8.45
8/20/2021 11:30:00 PM 21.12 70.016 0.118 7.19 41.19 8.48
8/20/2021 11:45:00 PM 21.08 69.944 0.118 7.19 40.71 8.48
8/21/2021 12:00:00 AM 21.05 69.89 0.117 7.18 41.35 8.5
8/21/2021 12:15:00 AM 21.02 69.836 0.118 7.19 41.78 8.5
8/21/2021 12:30:00 AM 20.98 69.764 0.117 7.19 43.39 8.51
8/21/2021 12:45:00 AM 20.95 69.71 0.118 7.18 40.06 8.5
8/21/2021 1:00:00 AM 20.93 69.674 0.117 7.18 38.9 8.51
8/21/2021 1:15:00 AM 20.91 69.638 0.118 7.19 34.35 8.48
8/21/2021 1:30:00 AM 21.28 70.304 0.141 7.21 26.21 8.5
8/21/2021 1:45:00 AM 21.46 70.628 0.139 7.14 18.9 8.76
8/21/2021 2:00:00 AM 20.94 69.692 0.12 7.18 36.36 8.56
8/21/2021 2:15:00 AM 20.81 69.458 0.117 7.18 39.66 8.52
8/21/2021 2:30:00 AM 20.78 69.404 0.117 7.19 40.75 8.53
8/21/2021 2:45:00 AM 20.75 69.35 0.117 7.18 42.44 8.54
8/21/2021 3:00:00 AM 20.73 69.314 0.117 7.18 40.34 8.54
8/21/2021 3:15:00 AM 20.7 69.26 0.117 7.19 40.75 8.55
8/21/2021 3:30:00 AM 20.67 69.206 0.117 7.19 42.61 8.55
8/21/2021 3:45:00 AM 20.65 69.17 0.117 7.19 40.47 8.56
8/21/2021 4:00:00 AM 20.62 69.116 0.117 7.19 40.72 8.56
8/21/2021 4:15:00 AM 20.6 69.08 0.117 7.19 39.28 8.57
8/21/2021 4:30:00 AM 20.57 69.026 0.117 7.19 39.01 8.57
8/21/2021 4:45:00 AM 20.55 68.99 0.117 7.19 39.53 8.58
8/21/2021 5:00:00 AM 20.52 68.936 0.117 7.2 41.05 8.58
8/21/2021 5:15:00 AM 20.5 68.9 0.117 7.2 39.87 8.58
8/21/2021 5:30:00 AM 20.48 68.864 0.117 7.19 39.61 8.57
8/21/2021 5:45:00 AM 20.46 68.828 0.117 7.19 39.94 8.58
8/21/2021 6:00:00 AM 20.45 68.81 0.117 7.19 38.37 8.58
8/21/2021 6:15:00 AM 20.43 68.774 0.118 7.19 38.1 8.58
8/21/2021 6:30:00 AM 20.42 68.756 0.118 7.19 35.45 8.58
8/21/2021 6:45:00 AM 20.41 68.738 0.118 7.19 35.01 8.57
8/21/2021 7:00:00 AM 20.4 68.72 0.118 7.19 35.69 8.57
8/21/2021 7:15:00 AM 20.4 68.72 0.118 7.19 37.48 8.56
8/21/2021 7:30:00 AM 20.39 68.702 0.118 7.19 37.75 8.57
8/21/2021 7:45:00 AM 20.39 68.702 0.119 7.19 39.82 8.58
8/21/2021 8:00:00 AM 20.39 68.702 0.119 7.19 32.98 8.58
8/21/2021 8:15:00 AM 20.39 68.702 0.119 7.19 38.72 8.57
8/21/2021 8:30:00 AM 20.39 68.702 0.119 7.2 37.94 8.57
8/21/2021 8:45:00 AM 20.4 68.72 0.12 7.19 39.13 8.59
8/21/2021 9:00:00 AM 20.42 68.756 0.121 7.2 37.33 8.57
8/21/2021 9:15:00 AM 20.45 68.81 0.12 7.2 38.25 8.58
8/21/2021 9:30:00 AM 20.49 68.882 0.121 7.2 36.51 8.57
8/21/2021 9:45:00 AM 20.52 68.936 0.122 7.2 35.55 8.58
8/21/2021 10:00:00 AM 20.56 69.008 0.121 7.2 36.64 8.58
8/21/2021 10:15:00 AM 20.59 69.062 0.122 7.2 38.75 8.58
8/21/2021 10:30:00 AM 20.63 69.134 0.122 7.2 35.87 8.57
8/21/2021 10:45:00 AM 20.67 69.206 0.123 7.2 31.13 8.58
8/21/2021 11:00:00 AM 20.71 69.278 0.123 7.21 33.57 8.56
8/21/2021 11:15:00 AM 20.76 69.368 0.124 7.21 30.7 8.57
8/21/2021 11:30:00 AM 20.81 69.458 0.124 7.2 33.91 8.56
8/21/2021 11:45:00 AM 20.83 69.494 0.124 7.21 32.2 8.54
8/21/2021 12:00:00 PM 20.87 69.566 0.125 7.21 31.66 8.54
8/21/2021 12:15:00 PM 20.95 69.71 0.124 7.21 28.84 8.56
8/21/2021 12:30:00 PM 20.99 69.782 0.126 7.21 27.69 8.54
8/21/2021 12:45:00 PM 21.05 69.89 0.125 7.22 32.27 8.56
8/21/2021 1:00:00 PM 21.1 69.98 0.125 7.22 30.68 8.56
8/21/2021 1:15:00 PM 21.15 70.07 0.125 7.22 30.8 8.58
8/21/2021 1:30:00 PM 21.2 70.16 0.125 7.22 30.34 8.56
8/21/2021 1:45:00 PM 21.25 70.25 0.125 7.22 29.66 8.52
8/21/2021 2:00:00 PM 21.3 70.34 0.125 7.23 31.52 8.57
8/21/2021 2:15:00 PM 21.37 70.466 0.126 7.23 24.9 8.55
8/21/2021 2:30:00 PM 21.45 70.61 0.126 7.23 28.51 8.56
8/21/2021 2:45:00 PM 21.52 70.736 0.126 7.22 28.65 8.54
8/21/2021 3:00:00 PM 21.58 70.844 0.126 7.23 31 8.56
8/21/2021 3:15:00 PM 21.61 70.898 0.126 7.22 30.8 8.56
8/21/2021 3:30:00 PM 21.64 70.952 0.126 7.24 29.35 8.54
8/21/2021 3:45:00 PM 21.67 71.006 0.126 7.24 25.71 8.56
8/21/2021 4:00:00 PM 21.72 71.096 0.126 7.23 29.72 8.55
8/21/2021 4:15:00 PM 21.75 71.15 0.126 7.23 26.05 8.53
8/21/2021 4:30:00 PM 21.78 71.204 0.127 7.23 21.2 8.52
8/21/2021 4:45:00 PM 21.79 71.222 0.127 7.23 21.65 8.51
8/21/2021 5:00:00 PM 21.79 71.222 0.127 7.24 22.95 8.51
8/21/2021 5:15:00 PM 21.79 71.222 0.127 7.24 22.1 8.53
8/21/2021 5:30:00 PM 21.79 71.222 0.127 7.23 28.1 8.51
8/21/2021 5:45:00 PM 21.77 71.186 0.127 7.24 21.85 8.52
8/21/2021 6:00:00 PM 21.74 71.132 0.127 7.24 24.36 8.54
8/21/2021 6:15:00 PM 21.72 71.096 0.127 7.24 26.37 8.54
8/21/2021 6:30:00 PM 21.72 71.096 0.127 7.24 25.69 8.54
8/21/2021 6:45:00 PM 21.72 71.096 0.127 7.24 22.25 8.53
8/21/2021 7:00:00 PM 21.72 71.096 0.126 7.24 23.56 8.53
8/21/2021 7:15:00 PM 21.72 71.096 0.126 7.25 22.52 8.54
8/21/2021 7:30:00 PM 21.73 71.114 0.126 7.25 20.85 8.54
8/21/2021 7:45:00 PM 21.74 71.132 0.126 7.24 19.67 8.53
8/21/2021 8:00:00 PM 21.75 71.15 0.126 7.25 21.19 8.54
8/21/2021 8:15:00 PM 21.76 71.168 0.126 7.24 19.48 8.52
8/21/2021 8:30:00 PM 21.77 71.186 0.126 7.24 21.71 8.52
8/21/2021 8:45:00 PM 21.77 71.186 0.126 7.24 19.02 8.52
8/21/2021 9:00:00 PM 21.76 71.168 0.126 7.24 21.44 8.5
8/21/2021 9:15:00 PM 21.74 71.132 0.126 7.25 20.78 8.51
8/21/2021 9:30:00 PM 21.74 71.132 0.125 7.24 21.41 8.52
8/21/2021 9:45:00 PM 21.73 71.114 0.125 7.24 20.04 8.52
8/21/2021 10:00:00 PM 21.72 71.096 0.125 7.24 19.28 8.52
8/21/2021 10:15:00 PM 21.72 71.096 0.125 7.24 19.24 8.51
8/21/2021 10:30:00 PM 21.71 71.078 0.125 7.25 20.23 8.53
8/21/2021 10:45:00 PM 21.7 71.06 0.125 7.24 17.69 8.52
8/21/2021 11:00:00 PM 21.68 71.024 0.124 7.24 20.18 8.52
8/21/2021 11:15:00 PM 21.66 70.988 0.124 7.24 19.25 8.52
8/21/2021 11:30:00 PM 21.63 70.934 0.124 7.24 22.52 8.51
8/21/2021 11:45:00 PM 21.61 70.898 0.124 7.24 17.5 8.51
8/22/2021 12:00:00 AM 21.6 70.88 0.124 7.24 21.72 8.5
8/22/2021 12:15:00 AM 21.58 70.844 0.124 7.24 19.56 8.51
8/22/2021 12:30:00 AM 21.56 70.808 0.124 7.24 16.74 8.51
8/22/2021 12:45:00 AM 21.55 70.79 0.124 7.24 17.17 8.51
8/22/2021 1:00:00 AM 21.54 70.772 0.124 7.24 16.18 8.51
8/22/2021 1:15:00 AM 21.53 70.754 0.124 7.24 17.43 8.51
8/22/2021 1:30:00 AM 21.52 70.736 0.124 7.24 18.24 8.5
8/22/2021 1:45:00 AM 21.51 70.718 0.124 7.24 19.65 8.5
8/22/2021 2:00:00 AM 21.5 70.7 0.124 7.24 15.77 8.5
8/22/2021 2:15:00 AM 21.48 70.664 0.124 7.24 17.15 8.5
8/22/2021 2:30:00 AM 21.47 70.646 0.124 7.24 19.87 8.51
8/22/2021 2:45:00 AM 21.45 70.61 0.124 7.24 19.84 8.51
8/22/2021 3:00:00 AM 21.43 70.574 0.124 7.24 19.46 8.51
8/22/2021 3:15:00 AM 21.41 70.538 0.124 7.24 17.63 8.52
8/22/2021 3:30:00 AM 21.4 70.52 0.124 7.25 16.47 8.51
8/22/2021 3:45:00 AM 21.38 70.484 0.124 7.24 16.98 8.52
8/22/2021 4:00:00 AM 21.36 70.448 0.124 7.25 15.42 8.51
8/22/2021 4:15:00 AM 21.35 70.43 0.124 7.25 18.35 8.51
8/22/2021 4:30:00 AM 21.33 70.394 0.125 7.25 18.79 8.51
8/22/2021 4:45:00 AM 21.32 70.376 0.125 7.24 15.92 8.5
8/22/2021 5:00:00 AM 21.31 70.358 0.125 7.25 17.49 8.5
8/22/2021 5:15:00 AM 21.3 70.34 0.125 7.25 16.6 8.51
8/22/2021 5:30:00 AM 21.29 70.32201 0.126 7.25 15.69 8.49
8/22/2021 5:45:00 AM 21.27 70.286 0.127 7.25 15.69 8.49
8/22/2021 6:00:00 AM 21.26 70.268 0.128 7.26 16.52 8.5
8/22/2021 6:15:00 AM 21.25 70.25 0.128 7.26 15.43 8.49
8/22/2021 6:30:00 AM 21.24 70.232 0.129 7.26 16.88 8.49
8/22/2021 6:45:00 AM 21.23 70.214 0.129 7.26 17.88 8.49
8/22/2021 7:00:00 AM 21.22 70.196 0.129 7.26 16.6 8.5
8/22/2021 7:15:00 AM 21.21 70.17799 0.129 7.26 15.95 8.51
8/22/2021 7:30:00 AM 21.21 70.17799 0.129 7.26 15.27 8.5
8/22/2021 7:45:00 AM 21.2 70.16 0.129 7.26 14.87 8.49
8/22/2021 8:00:00 AM 21.2 70.16 0.13 7.25 14.71 8.46
8/22/2021 8:15:00 AM 21.19 70.142 0.13 7.26 15.03 8.49
8/22/2021 8:30:00 AM 21.19 70.142 0.129 7.24 18.33 8.35
8/22/2021 8:45:00 AM 21.94 71.492 0.147 7.21 10.53 8.58
8/22/2021 9:00:00 AM 21.72 71.096 0.141 7.14 7.86 8.79
8/22/2021 9:15:00 AM 21.38 70.484 0.135 7.21 12.22 8.64
8/22/2021 9:30:00 AM 21.24 70.232 0.131 7.24 15.89 8.52
8/22/2021 9:45:00 AM 21.2 70.16 0.131 7.26 16.46 8.51
8/22/2021 10:00:00 AM 21.2 70.16 0.131 7.25 16.77 8.52
8/22/2021 10:15:00 AM 21.21 70.17799 0.131 7.26 17.27 8.52
8/22/2021 10:30:00 AM 21.21 70.17799 0.131 7.25 15.86 8.51
8/22/2021 10:45:00 AM 21.22 70.196 0.131 7.26 15.93 8.53
8/22/2021 11:00:00 AM 21.23 70.214 0.131 7.26 14.29 8.54
8/22/2021 11:15:00 AM 21.24 70.232 0.131 7.26 17.62 8.54
8/22/2021 11:30:00 AM 21.25 70.25 0.131 7.27 16.88 8.55
8/22/2021 11:45:00 AM 21.26 70.268 0.131 7.27 16.71 8.56
8/22/2021 12:00:00 PM 21.27 70.286 0.131 7.27 16.09 8.56
8/22/2021 12:15:00 PM 21.28 70.304 0.131 7.27 14.26 8.57
8/22/2021 12:30:00 PM 21.3 70.34 0.131 7.27 17.19 8.57
8/22/2021 12:45:00 PM 21.31 70.358 0.131 7.27 15.74 8.59
8/22/2021 1:00:00 PM 21.32 70.376 0.131 7.27 16.03 8.59
8/22/2021 1:15:00 PM 21.33 70.394 0.128 7.27 17.98 8.61
8/22/2021 1:30:00 PM 21.34 70.412 0.132 7.27 15.82 8.58
8/22/2021 1:45:00 PM 21.36 70.448 0.132 7.28 16.42 8.59
8/22/2021 2:00:00 PM 21.37 70.466 0.132 7.28 16.59 8.59
8/22/2021 2:15:00 PM 21.37 70.466 0.132 7.28 15 8.61
8/22/2021 2:30:00 PM 21.37 70.466 0.132 7.28 15.44 8.62
8/22/2021 2:45:00 PM 21.38 70.484 0.132 7.29 14.26 8.62
8/22/2021 3:00:00 PM 21.38 70.484 0.132 7.29 15.93 8.62
8/22/2021 3:15:00 PM 21.39 70.502 0.132 7.29 15.37 8.63
8/22/2021 3:30:00 PM 21.4 70.52 0.132 7.29 16.35 8.64
8/22/2021 3:45:00 PM 21.4 70.52 0.132 7.3 14.89 8.64
8/22/2021 4:00:00 PM 21.4 70.52 0.132 7.29 15.01 8.63
8/22/2021 4:15:00 PM 21.4 70.52 0.132 7.3 13.71 8.62
8/22/2021 4:30:00 PM 21.4 70.52 0.132 7.3 13.92 8.63
8/22/2021 4:45:00 PM 21.41 70.538 0.132 7.3 12.95 8.63
8/22/2021 5:00:00 PM 21.41 70.538 0.132 7.3 12.35 8.61
8/22/2021 5:15:00 PM 21.41 70.538 0.132 7.3 10.86 8.6
8/22/2021 5:30:00 PM 21.41 70.538 0.132 7.3 14.01 8.6
8/22/2021 5:45:00 PM 21.42 70.556 0.133 7.3 12.53 8.61
8/22/2021 6:00:00 PM 21.73 71.114 0.144 7.27 8.06 8.75
8/22/2021 6:15:00 PM 21.54 70.772 0.139 7.26 9.57 8.74
8/22/2021 6:30:00 PM 21.45 70.61 0.135 7.3 12.99 8.61
8/22/2021 6:45:00 PM 21.45 70.61 0.135 7.31 12.47 8.6
8/22/2021 7:00:00 PM 21.46 70.628 0.135 7.31 13.83 8.6
8/22/2021 7:15:00 PM 21.47 70.646 0.135 7.31 12.6 8.6
8/22/2021 7:30:00 PM 21.48 70.664 0.135 7.31 14.52 8.59
8/22/2021 7:45:00 PM 21.49 70.682 0.135 7.31 12.21 8.6
8/22/2021 8:00:00 PM 21.49 70.682 0.136 7.31 13.6 8.6
8/22/2021 8:15:00 PM 21.48 70.664 0.138 7.33 13.41 8.57
8/22/2021 8:30:00 PM 21.47 70.646 0.141 7.34 13.62 8.56
8/22/2021 8:45:00 PM 21.46 70.628 0.143 7.35 12.26 8.55
8/22/2021 9:00:00 PM 21.46 70.628 0.144 7.35 15.98 8.53
8/22/2021 9:15:00 PM 21.47 70.646 0.143 7.36 17.32 8.51
8/22/2021 9:30:00 PM 21.5 70.7 0.142 7.35 15.11 8.48
8/22/2021 9:45:00 PM 21.53 70.754 0.141 7.34 21.08 8.47
8/22/2021 10:00:00 PM 21.55 70.79 0.14 7.33 17.73 8.44
8/22/2021 10:15:00 PM 21.56 70.808 0.139 7.32 17.27 8.43
8/22/2021 10:30:00 PM 21.58 70.844 0.139 7.32 16.76 8.42
8/22/2021 10:45:00 PM 21.58 70.844 0.138 7.31 15.94 8.42
8/22/2021 11:00:00 PM 21.59 70.862 0.138 7.31 17.29 8.43
8/22/2021 11:15:00 PM 21.59 70.862 0.138 7.32 15.2 8.44
8/22/2021 11:30:00 PM 21.59 70.862 0.139 7.32 17.71 8.43
8/22/2021 11:45:00 PM 21.58 70.844 0.139 7.31 16.38 8.45
8/23/2021 12:00:00 AM 21.58 70.844 0.139 7.31 14.86 8.44
8/23/2021 12:15:00 AM 21.57 70.826 0.139 7.31 16.16 8.45
8/23/2021 12:30:00 AM 21.57 70.826 0.139 7.31 15.12 8.45
8/23/2021 12:45:00 AM 21.56 70.808 0.14 7.32 17.17 8.47
8/23/2021 1:00:00 AM 21.55 70.79 0.14 7.32 13.33 8.46
8/23/2021 1:15:00 AM 21.71 71.078 0.151 7.31 10.62 8.68
8/23/2021 1:30:00 AM 21.63 70.934 0.146 7.26 7.62 8.77
8/23/2021 1:45:00 AM 21.54 70.772 0.141 7.3 14.46 8.49
8/23/2021 2:00:00 AM 21.53 70.754 0.141 7.31 15.22 8.47
8/23/2021 2:15:00 AM 21.52 70.736 0.141 7.31 14.78 8.47
8/23/2021 2:30:00 AM 21.52 70.736 0.141 7.31 13.83 8.46
8/23/2021 2:45:00 AM 21.52 70.736 0.141 7.31 12.69 8.46
8/23/2021 3:00:00 AM 21.51 70.718 0.141 7.31 12.42 8.46
8/23/2021 3:15:00 AM 21.51 70.718 0.142 7.31 11.85 8.45
8/23/2021 3:30:00 AM 21.5 70.7 0.142 7.31 11.74 8.45
8/23/2021 3:45:00 AM 21.5 70.7 0.142 7.31 12.71 8.45
8/23/2021 4:00:00 AM 21.5 70.7 0.142 7.31 12.3 8.45
8/23/2021 4:15:00 AM 21.5 70.7 0.142 7.31 11.12 8.45
8/23/2021 4:30:00 AM 21.49 70.682 0.142 7.31 10.49 8.42
8/23/2021 4:45:00 AM 21.49 70.682 0.142 7.3 10.52 8.39
8/23/2021 5:00:00 AM 21.5 70.7 0.142 7.3 11.27 8.39
8/23/2021 5:15:00 AM 21.49 70.682 0.142 7.3 10.09 8.37
8/23/2021 5:30:00 AM 21.49 70.682 0.142 7.3 10.89 8.37
8/23/2021 5:45:00 AM 21.49 70.682 0.143 7.3 11.07 8.38
8/23/2021 6:00:00 AM 21.48 70.664 0.143 7.3 11.33 8.35
8/23/2021 6:15:00 AM 21.48 70.664 0.143 7.3 10.51 8.36
8/23/2021 6:30:00 AM 21.48 70.664 0.143 7.3 11.44 8.37
8/23/2021 6:45:00 AM 21.48 70.664 0.143 7.3 11.18 8.35
8/23/2021 7:00:00 AM 21.47 70.646 0.144 7.3 10.14 8.35
8/23/2021 7:15:00 AM 21.47 70.646 0.144 7.31 10.47 8.35
8/23/2021 7:30:00 AM 21.47 70.646 0.144 7.3 9.86 8.32
8/23/2021 7:45:00 AM 21.48 70.664 0.144 7.3 9.52 8.34
8/23/2021 8:00:00 AM 21.48 70.664 0.144 7.31 10.27 8.36
8/23/2021 8:15:00 AM 21.49 70.682 0.145 7.31 9.97 8.37
8/23/2021 8:30:00 AM 21.5 70.7 0.145 7.31 10.1 8.37
8/23/2021 8:45:00 AM 21.51 70.718 0.145 7.31 10.16 8.36
8/23/2021 9:00:00 AM 21.54 70.772 0.146 7.32 9.86 8.4
8/23/2021 9:15:00 AM 21.56 70.808 0.147 7.3 9.74 8.38
8/23/2021 9:30:00 AM 21.59 70.862 0.148 7.31 9.3 8.4
8/23/2021 9:45:00 AM 21.62 70.916 0.148 7.32 9.72 8.41
8/23/2021 10:00:00 AM 21.65 70.97 0.148 7.33 9.48 8.34
8/23/2021 10:15:00 AM 21.69 71.042 0.148 7.34 11.4 8.45
8/23/2021 10:30:00 AM 21.72 71.096 0.148 7.34 11.33 8.46
8/23/2021 10:45:00 AM 21.76 71.168 0.148 7.34 10 8.47
8/23/2021 11:00:00 AM 21.81 71.258 0.148 7.34 10.66 8.51
8/23/2021 11:15:00 AM 21.89 71.402 0.148 7.33 9.62 8.48
8/23/2021 11:30:00 AM 21.96 71.528 0.148 7.34 9.53 8.52
8/23/2021 11:45:00 AM 22.03 71.654 0.148 7.34 10.04 8.51
8/23/2021 12:00:00 PM 22.13 71.834 0.148 7.36 13.46 8.59
8/23/2021 12:15:00 PM 22.2 71.96 0.148 7.38 11.8 8.64
8/23/2021 12:30:00 PM 22.24 72.032 0.148 7.38 12.49 8.67
8/23/2021 12:45:00 PM 22.27 72.086 0.148 7.39 12.59 8.68
8/23/2021 1:00:00 PM 22.33 72.194 0.148 7.4 11.21 8.7
8/23/2021 1:15:00 PM 22.37 72.266 0.148 7.4 11.37 8.73
8/23/2021 1:30:00 PM 22.37 72.266 0.148 7.41 11.31 8.74
8/23/2021 1:45:00 PM 22.37 72.266 0.148 7.41 11.6 8.75
8/23/2021 2:00:00 PM 22.35 72.23 0.148 7.41 10.74 8.75
8/23/2021 2:15:00 PM 22.39 72.302 0.148 7.41 10.75 8.76
8/23/2021 2:30:00 PM 22.47 72.446 0.148 7.42 10.96 8.78
8/23/2021 2:45:00 PM 22.53 72.554 0.147 7.42 9.9 8.8
8/23/2021 3:00:00 PM 22.55 72.59 0.147 7.41 9.44 8.79
8/23/2021 3:15:00 PM 22.54 72.57201 0.147 7.41 8.77 8.75
8/23/2021 3:30:00 PM 22.55 72.59 0.147 7.42 8.68 8.8
8/23/2021 3:45:00 PM 22.57 72.626 0.147 7.42 9.18 8.77
8/23/2021 4:00:00 PM 22.61 72.698 0.147 7.43 9.36 8.81
8/23/2021 4:15:00 PM 22.62 72.716 0.147 7.41 9.4 8.8
8/23/2021 4:30:00 PM 22.61 72.698 0.146 7.42 8.72 8.76
8/23/2021 4:45:00 PM 22.59 72.662 0.146 7.43 8.75 8.83
8/23/2021 5:00:00 PM 22.59 72.662 0.146 7.44 8.98 8.85
8/23/2021 5:15:00 PM 22.58 72.644 0.146 7.44 9.64 8.87
8/23/2021 5:30:00 PM 22.6 72.68 0.146 7.44 8.98 8.87
8/23/2021 5:45:00 PM 22.63 72.734 0.145 7.44 9.83 8.87
8/23/2021 6:00:00 PM 22.66 72.788 0.144 7.45 9.13 8.87
8/23/2021 6:15:00 PM 22.67 72.806 0.143 7.45 8.46 8.92
8/23/2021 6:30:00 PM 22.68 72.824 0.143 7.45 8.61 8.9
8/23/2021 6:45:00 PM 22.7 72.86 0.143 7.45 8.48 8.9
8/23/2021 7:00:00 PM 22.72 72.896 0.143 7.46 9.44 8.93
8/23/2021 7:15:00 PM 22.73 72.914 0.142 7.46 8.61 8.94
8/23/2021 7:30:00 PM 22.73 72.914 0.142 7.46 8.93 8.93
8/23/2021 7:45:00 PM 22.72 72.896 0.142 7.46 9.47 8.92
8/23/2021 8:00:00 PM 22.71 72.878 0.142 7.46 9.6 8.92
8/23/2021 8:15:00 PM 22.71 72.878 0.142 7.45 10 8.92
8/23/2021 8:30:00 PM 22.7 72.86 0.141 7.46 9.8 8.93
8/23/2021 8:45:00 PM 22.69 72.842 0.141 7.45 10.34 8.89
8/23/2021 9:00:00 PM 22.68 72.824 0.141 7.45 10.22 8.89
8/23/2021 9:15:00 PM 22.67 72.806 0.141 7.45 8.99 8.89
8/23/2021 9:30:00 PM 22.65 72.77 0.141 7.44 8.81 8.86
8/23/2021 9:45:00 PM 22.62 72.716 0.14 7.44 9.06 8.85
8/23/2021 10:00:00 PM 22.59 72.662 0.14 7.44 9.93 8.85
8/23/2021 10:15:00 PM 22.57 72.626 0.14 7.44 8.37 8.84
8/23/2021 10:30:00 PM 22.55 72.59 0.14 7.43 9.15 8.81
8/23/2021 10:45:00 PM 22.53 72.554 0.14 7.43 9.23 8.81
8/23/2021 11:00:00 PM 22.51 72.518 0.139 7.42 10.01 8.8
8/23/2021 11:15:00 PM 22.49 72.482 0.139 7.43 8.88 8.8
8/23/2021 11:30:00 PM 22.48 72.464 0.139 7.42 8.95 8.78
8/23/2021 11:45:00 PM 22.46 72.42799 0.139 7.42 9.05 8.77
8/24/2021 12:00:00 AM 22.44 72.392 0.139 7.41 8.96 8.76
8/24/2021 12:15:00 AM 22.43 72.374 0.138 7.41 9.17 8.74
8/24/2021 12:30:00 AM 22.42 72.356 0.138 7.41 9.56 8.73
8/24/2021 12:45:00 AM 22.41 72.338 0.138 7.41 9.26 8.74
8/24/2021 1:00:00 AM 22.4 72.32 0.138 7.41 9.18 8.73
8/24/2021 1:15:00 AM 22.39 72.302 0.138 7.41 8.72 8.72
8/24/2021 1:30:00 AM 22.38 72.284 0.138 7.4 9.79 8.73
8/24/2021 1:45:00 AM 22.37 72.266 0.137 7.4 8.49 8.71
8/24/2021 2:00:00 AM 22.35 72.23 0.137 7.4 9.12 8.71
8/24/2021 2:15:00 AM 22.34 72.212 0.137 7.4 9.4 8.7
8/24/2021 2:30:00 AM 22.32 72.176 0.137 7.4 9.42 8.68
8/24/2021 2:45:00 AM 22.31 72.158 0.137 7.39 9.5 8.69
8/24/2021 3:00:00 AM 22.29 72.122 0.136 7.39 9.16 8.68
8/24/2021 3:15:00 AM 22.27 72.086 0.136 7.39 8.69 8.67
8/24/2021 3:30:00 AM 22.26 72.068 0.136 7.39 8.98 8.65
8/24/2021 3:45:00 AM 22.24 72.032 0.136 7.39 8.56 8.65
8/24/2021 4:00:00 AM 22.21 71.978 0.135 7.39 8.51 8.64
8/24/2021 4:15:00 AM 22.19 71.942 0.135 7.38 8.07 8.63
8/24/2021 4:30:00 AM 22.16 71.888 0.135 7.38 8.5 8.62
8/24/2021 4:45:00 AM 22.13 71.834 0.134 7.37 9.26 8.62
8/24/2021 5:00:00 AM 22.09 71.762 0.134 7.38 9.16 8.61
8/24/2021 5:15:00 AM 22.06 71.708 0.134 7.37 9.37 8.59
8/24/2021 5:30:00 AM 22.02 71.636 0.133 7.37 9.42 8.59
8/24/2021 5:45:00 AM 21.98 71.564 0.133 7.37 9.57 8.58
8/24/2021 6:00:00 AM 21.95 71.51 0.133 7.36 10.02 8.56
8/24/2021 6:15:00 AM 21.91 71.438 0.133 7.36 9.4 8.55
8/24/2021 6:30:00 AM 21.88 71.384 0.132 7.36 9.44 8.56
8/24/2021 6:45:00 AM 21.85 71.33 0.132 7.36 10.61 8.55
8/24/2021 7:00:00 AM 21.82 71.276 0.132 7.35 9.74 8.52
8/24/2021 7:15:00 AM 21.8 71.24 0.131 7.36 10.29 8.53
8/24/2021 7:30:00 AM 21.78 71.204 0.131 7.36 10.8 8.53
8/24/2021 7:45:00 AM 21.77 71.186 0.131 7.36 10.78 8.53
8/24/2021 8:00:00 AM 21.76 71.168 0.131 7.36 10.64 8.53
8/24/2021 8:15:00 AM 21.76 71.168 0.131 7.36 11.62 8.54
8/24/2021 8:30:00 AM 21.77 71.186 0.131 7.35 11.64 8.54
8/24/2021 8:45:00 AM 21.79 71.222 0.131 7.36 11.36 8.54
8/24/2021 9:00:00 AM 21.81 71.258 0.131 7.36 11.96 8.54
8/24/2021 9:15:00 AM 21.84 71.312 0.131 7.36 11.7 8.55
8/24/2021 9:30:00 AM 21.87 71.366 0.131 7.37 11.23 8.55
8/24/2021 9:45:00 AM 22 71.6 0.136 7.38 12.11 8.66
8/24/2021 10:00:00 AM 22.21 71.978 0.142 7.34 8.2 8.75
8/24/2021 10:15:00 AM 22.07 71.726 0.135 7.35 10.51 8.64
8/24/2021 10:30:00 AM 22.08 71.744 0.133 7.37 11.01 8.63
8/24/2021 10:45:00 AM 22.15 71.87 0.133 7.38 12.66 8.66
8/24/2021 11:00:00 AM 22.22 71.996 0.134 7.39 11.44 8.67
8/24/2021 11:15:00 AM 22.29 72.122 0.133 7.39 11.87 8.7
8/24/2021 11:30:00 AM 22.37 72.266 0.134 7.4 11.23 8.71
8/24/2021 11:45:00 AM 22.43 72.374 0.134 7.39 11.05 8.71
8/24/2021 12:00:00 PM 22.46 72.42799 0.133 7.41 11.29 8.75
8/24/2021 12:15:00 PM 22.51 72.518 0.133 7.4 11.42 8.78
8/24/2021 12:30:00 PM 22.62 72.716 0.135 7.42 11.49 8.82
8/24/2021 12:45:00 PM 22.73 72.914 0.169 7.53 12.5 8.83
8/24/2021 1:00:00 PM 22.81 73.058 0.145 7.49 11.22 8.88
8/24/2021 1:15:00 PM 22.93 73.274 0.136 7.47 11.37 8.93
8/24/2021 1:30:00 PM 23 73.4 0.134 7.46 11.37 8.93
8/24/2021 1:45:00 PM 23.11 73.598 0.133 7.48 11.51 9.02
8/24/2021 2:00:00 PM 23.19 73.742 0.132 7.49 11.19 9.05
8/24/2021 2:15:00 PM 23.25 73.85 0.132 7.49 10.42 9.08
8/24/2021 2:30:00 PM 23.32 73.976 0.132 7.49 10.92 9.1
8/24/2021 2:45:00 PM 23.39 74.102 0.132 7.5 10.07 9.15
8/24/2021 3:00:00 PM 23.47 74.246 0.132 7.52 9.67 9.17
8/24/2021 3:15:00 PM 23.53 74.354 0.132 7.53 9.74 9.2
8/24/2021 3:30:00 PM 23.57 74.426 0.132 7.53 9.66 9.2
8/24/2021 3:45:00 PM 23.62 74.516 0.132 7.53 9.79 9.25
8/24/2021 4:00:00 PM 23.67 74.606 0.131 7.55 9.83 9.29
8/24/2021 4:15:00 PM 23.69 74.642 0.131 7.55 9.76 9.3
8/24/2021 4:30:00 PM 23.72 74.696 0.131 7.57 9.33 9.32
8/24/2021 4:45:00 PM 23.75 74.75 0.131 7.56 9.94 9.31
8/24/2021 5:00:00 PM 23.78 74.804 0.132 7.57 10.12 9.33
8/24/2021 5:15:00 PM 23.8 74.84 0.132 7.58 9.48 9.34
8/24/2021 5:30:00 PM 23.82 74.876 0.131 7.58 8.99 9.35
8/24/2021 5:45:00 PM 23.81 74.858 0.131 7.58 9.08 9.35
8/24/2021 6:00:00 PM 23.81 74.858 0.13 7.58 9.77 9.36
8/24/2021 6:15:00 PM 23.81 74.858 0.13 7.58 8.81 9.36
8/24/2021 6:30:00 PM 23.74 74.732 0.139 7.53 8.22 9.22
8/24/2021 6:45:00 PM 23.7 74.66 0.134 7.52 7.52 9.24
8/24/2021 7:00:00 PM 23.77 74.786 0.131 7.57 9.28 9.32
8/24/2021 7:15:00 PM 23.75 74.75 0.131 7.58 8.35 9.32
8/24/2021 7:30:00 PM 23.73 74.714 0.131 7.58 9.15 9.32
8/24/2021 7:45:00 PM 23.71 74.67799 0.131 7.57 8.43 9.3
8/24/2021 8:00:00 PM 23.69 74.642 0.13 7.57 8.7 9.3
8/24/2021 8:15:00 PM 23.66 74.588 0.13 7.57 9.08 9.28
8/24/2021 8:30:00 PM 23.64 74.552 0.13 7.56 7.68 9.27
8/24/2021 8:45:00 PM 23.62 74.516 0.131 7.56 8.28 9.25
8/24/2021 9:00:00 PM 23.59 74.462 0.131 7.55 8.43 9.24
8/24/2021 9:15:00 PM 23.57 74.426 0.13 7.55 8.64 9.23
8/24/2021 9:30:00 PM 23.55 74.39 0.131 7.55 8.29 9.22
8/24/2021 9:45:00 PM 23.53 74.354 0.131 7.54 8.54 9.21
8/24/2021 10:00:00 PM 23.51 74.318 0.13 7.54 8.27 9.19
8/24/2021 10:15:00 PM 23.49 74.282 0.131 7.54 8.32 9.18
8/24/2021 10:30:00 PM 23.48 74.264 0.13 7.53 8.03 9.17
8/24/2021 10:45:00 PM 23.46 74.228 0.131 7.52 8.99 9.15
8/24/2021 11:00:00 PM 23.45 74.21 0.131 7.52 8.27 9.12
8/24/2021 11:15:00 PM 23.44 74.192 0.131 7.51 8.39 9.11
8/24/2021 11:30:00 PM 23.43 74.174 0.131 7.5 8.52 9.09
8/24/2021 11:45:00 PM 23.42 74.156 0.131 7.51 9.02 9.07
8/25/2021 12:00:00 AM 23.41 74.138 0.131 7.5 8.01 9.05
8/25/2021 12:15:00 AM 23.4 74.12 0.131 7.5 7.79 9.03
8/25/2021 12:30:00 AM 23.4 74.12 0.131 7.49 8.56 9.01
8/25/2021 12:45:00 AM 23.39 74.102 0.131 7.48 7.81 8.99
8/25/2021 1:00:00 AM 23.39 74.102 0.131 7.48 8.41 8.97
8/25/2021 1:15:00 AM 23.38 74.084 0.131 7.48 8.11 8.96
8/25/2021 1:30:00 AM 23.38 74.084 0.131 7.48 8.55 8.94
8/25/2021 1:45:00 AM 23.38 74.084 0.131 7.47 8.85 8.93
8/25/2021 2:00:00 AM 23.37 74.066 0.131 7.45 8.3 8.91
8/25/2021 2:15:00 AM 23.37 74.066 0.131 7.45 7.74 8.89
8/25/2021 2:30:00 AM 23.37 74.066 0.131 7.47 7.38 8.89
8/25/2021 2:45:00 AM 23.36 74.048 0.131 7.46 7.52 8.86
8/25/2021 3:00:00 AM 23.36 74.048 0.134 7.46 8.29 8.88
8/25/2021 3:15:00 AM 23.36 74.048 0.138 7.42 6.08 8.9
8/25/2021 3:30:00 AM 23.35 74.03 0.133 7.43 6.78 8.82
8/25/2021 3:45:00 AM 23.33 73.994 0.132 7.45 8.6 8.8
8/25/2021 4:00:00 AM 23.32 73.976 0.132 7.45 8.77 8.78
8/25/2021 4:15:00 AM 23.31 73.958 0.132 7.44 8.02 8.77
8/25/2021 4:30:00 AM 23.29 73.922 0.131 7.44 7.7 8.76
8/25/2021 4:45:00 AM 23.28 73.904 0.132 7.43 8.52 8.73
8/25/2021 5:00:00 AM 23.26 73.868 0.132 7.43 7.73 8.72
8/25/2021 5:15:00 AM 23.24 73.832 0.132 7.43 7.27 8.69
8/25/2021 5:30:00 AM 23.22 73.796 0.132 7.42 7.24 8.68
8/25/2021 5:45:00 AM 23.2 73.76 0.132 7.42 7.45 8.66
8/25/2021 6:00:00 AM 23.17 73.706 0.132 7.42 7.21 8.64
8/25/2021 6:15:00 AM 23.15 73.67 0.132 7.41 7.17 8.63
8/25/2021 6:30:00 AM 23.13 73.634 0.132 7.41 7.2 8.61
8/25/2021 6:45:00 AM 23.11 73.598 0.132 7.41 7.23 8.62
8/25/2021 7:00:00 AM 23.1 73.58 0.132 7.41 6.58 8.6
8/25/2021 7:15:00 AM 23.09 73.562 0.132 7.41 6.96 8.6
8/25/2021 7:30:00 AM 23.08 73.544 0.132 7.41 6.83 8.61
8/25/2021 7:45:00 AM 23.07 73.526 0.132 7.41 7.32 8.6
8/25/2021 8:00:00 AM 23.06 73.508 0.132 7.41 6.52 8.6
8/25/2021 8:15:00 AM 23.06 73.508 0.132 7.41 6.09 8.62
8/25/2021 8:30:00 AM 23.05 73.49 0.132 7.42 6.68 8.64
8/25/2021 8:45:00 AM 23.05 73.49 0.133 7.41 6.55 8.64
8/25/2021 9:00:00 AM 23.06 73.508 0.133 7.42 5.94 8.65
8/25/2021 9:15:00 AM 23.08 73.544 0.133 7.42 6.45 8.68
8/25/2021 9:30:00 AM 23.11 73.598 0.133 7.43 5.62 8.7
8/25/2021 9:45:00 AM 23.14 73.652 0.134 7.41 5.86 8.69
8/25/2021 10:00:00 AM 23.18 73.724 0.134 7.43 6.41 8.73
8/25/2021 10:15:00 AM 23.23 73.814 0.135 7.43 6.22 8.73
8/25/2021 10:30:00 AM 23.29 73.922 0.135 7.44 6 8.78
8/25/2021 10:45:00 AM 23.35 74.03 0.135 7.45 6.32 8.78
8/25/2021 11:00:00 AM 23.41 74.138 0.135 7.46 5.97 8.82
8/25/2021 11:15:00 AM 23.47 74.246 0.135 7.46 6.03 8.8
8/25/2021 11:30:00 AM 23.53 74.354 0.135 7.47 5.57 8.88
8/25/2021 11:45:00 AM 23.59 74.462 0.136 7.46 5.45 8.91
8/25/2021 12:00:00 PM 23.66 74.588 0.136 7.47 5.22 8.88
8/25/2021 12:15:00 PM 23.72 74.696 0.136 7.48 5.47 8.91
8/25/2021 12:30:00 PM 23.81 74.858 0.136 7.5 5.99 8.98
8/25/2021 12:45:00 PM 23.9 75.02 0.143 7.52 5.76 9.02
8/25/2021 1:00:00 PM 23.99 75.182 0.187 7.65 5.25 9.07
8/25/2021 1:15:00 PM 24.05 75.29 0.169 7.61 5.62 9.03
8/25/2021 1:30:00 PM 24.12 75.416 0.153 7.61 5.55 9.14
8/25/2021 1:45:00 PM 24.22 75.596 0.144 7.6 5.63 9.21
8/25/2021 2:00:00 PM 24.3 75.74 0.141 7.59 5.4 9.22
8/25/2021 2:15:00 PM 24.4 75.92 0.14 7.61 6.03 9.31
8/25/2021 2:30:00 PM 24.49 76.082 0.139 7.63 5.7 9.32
8/25/2021 2:45:00 PM 24.57 76.226 0.138 7.64 5.49 9.42
8/25/2021 3:00:00 PM 24.63 76.334 0.138 7.64 5.25 9.39
8/25/2021 3:15:00 PM 24.72 76.496 0.138 7.66 5.66 9.49
8/25/2021 3:30:00 PM 24.76 76.568 0.138 7.67 5.18 9.5
8/25/2021 3:45:00 PM 24.83 76.694 0.138 7.7 5.26 9.53
8/25/2021 4:00:00 PM 24.87 76.766 0.138 7.69 5.41 9.56
8/25/2021 4:15:00 PM 24.95 76.91 0.137 7.71 6.1 9.57
8/25/2021 4:30:00 PM 24.99 76.982 0.138 7.73 5.3 9.64
8/25/2021 4:45:00 PM 25.02 77.036 0.137 7.73 5.7 9.65
8/25/2021 5:00:00 PM 25.04 77.07201 0.138 7.75 5.37 9.64
8/25/2021 5:15:00 PM 25.07 77.126 0.137 7.76 6.01 9.68
8/25/2021 5:30:00 PM 25.1 77.18 0.138 7.77 5.75 9.68
8/25/2021 5:45:00 PM 25.11 77.198 0.138 7.75 5.69 9.69
8/25/2021 6:00:00 PM 25.12 77.216 0.138 7.79 5.44 9.72
8/25/2021 6:15:00 PM 25.12 77.216 0.138 7.8 5.84 9.72
8/25/2021 6:30:00 PM 25.11 77.198 0.138 7.79 6.1 9.71
8/25/2021 6:45:00 PM 25.1 77.18 0.138 7.79 5.65 9.7
8/25/2021 7:00:00 PM 25.09 77.162 0.138 7.79 6.14 9.66
8/25/2021 7:15:00 PM 25.07 77.126 0.138 7.78 5.44 9.64
8/25/2021 7:30:00 PM 25.05 77.09 0.138 7.76 6.15 9.59
8/25/2021 7:45:00 PM 25.03 77.054 0.138 7.75 5.92 9.56
8/25/2021 8:00:00 PM 25 77 0.138 7.73 5.84 9.52
8/25/2021 8:15:00 PM 24.97 76.946 0.138 7.72 6.21 9.5
8/25/2021 8:30:00 PM 24.93 76.874 0.138 7.71 5.99 9.47
8/25/2021 8:45:00 PM 24.9 76.82 0.138 7.69 5.54 9.45
8/25/2021 9:00:00 PM 24.87 76.766 0.138 7.69 5.73 9.41
8/25/2021 9:15:00 PM 24.84 76.712 0.138 7.68 5.4 9.38
8/25/2021 9:30:00 PM 24.8 76.64 0.138 7.67 6.45 9.35
8/25/2021 9:45:00 PM 24.77 76.586 0.138 7.66 5.71 9.32
8/25/2021 10:00:00 PM 24.73 76.514 0.138 7.65 5.84 9.29
8/25/2021 10:15:00 PM 24.7 76.46 0.138 7.64 6.13 9.27
8/25/2021 10:30:00 PM 24.67 76.406 0.138 7.64 6.04 9.25
8/25/2021 10:45:00 PM 24.63 76.334 0.138 7.62 5.56 9.2
8/25/2021 11:00:00 PM 24.6 76.28 0.139 7.61 5.92 9.18
8/25/2021 11:15:00 PM 24.58 76.244 0.138 7.61 5.46 9.17
8/25/2021 11:30:00 PM 24.54 76.172 0.138 7.6 5.76 9.14
8/25/2021 11:45:00 PM 24.52 76.136 0.139 7.59 5.56 9.12
8/26/2021 12:00:00 AM 24.5 76.1 0.139 7.58 5.92 9.08
8/26/2021 12:15:00 AM 24.48 76.064 0.139 7.57 5.61 9.06
8/26/2021 12:30:00 AM 24.46 76.028 0.139 7.56 6.31 9.02
8/26/2021 12:45:00 AM 24.44 75.992 0.149 7.57 7.06 9.02
8/26/2021 1:00:00 AM 24.44 75.992 0.146 7.43 5.07 8.95
8/26/2021 1:15:00 AM 24.41 75.938 0.14 7.51 6.13 8.92
8/26/2021 1:30:00 AM 24.41 75.938 0.139 7.53 6.06 8.94
8/26/2021 1:45:00 AM 24.4 75.92 0.139 7.53 5.97 8.93
8/26/2021 2:00:00 AM 24.4 75.92 0.14 7.52 6.22 8.9
8/26/2021 2:15:00 AM 24.39 75.902 0.14 7.51 5.34 8.87
8/26/2021 2:30:00 AM 24.39 75.902 0.14 7.5 5.98 8.82
8/26/2021 2:45:00 AM 24.39 75.902 0.14 7.51 6.41 8.84
8/26/2021 3:00:00 AM 24.39 75.902 0.14 7.5 6.15 8.83
8/26/2021 3:15:00 AM 24.4 75.92 0.14 7.5 6.61 8.81
8/26/2021 3:30:00 AM 24.4 75.92 0.14 7.49 6.24 8.79
8/26/2021 3:45:00 AM 24.4 75.92 0.14 7.49 7.07 8.78
8/26/2021 4:00:00 AM 24.41 75.938 0.141 7.49 6.42 8.76
8/26/2021 4:15:00 AM 24.41 75.938 0.141 7.48 6.63 8.73
8/26/2021 4:30:00 AM 24.41 75.938 0.141 7.48 5.8 8.72
8/26/2021 4:45:00 AM 24.41 75.938 0.141 7.48 6.51 8.69
8/26/2021 5:00:00 AM 24.41 75.938 0.141 7.47 6.86 8.68
8/26/2021 5:15:00 AM 24.4 75.92 0.141 7.47 6.62 8.66
8/26/2021 5:30:00 AM 24.39 75.902 0.141 7.46 6.61 8.63
8/26/2021 5:45:00 AM 24.39 75.902 0.141 7.46 6.56 8.61
8/26/2021 6:00:00 AM 24.38 75.884 0.142 7.46 7.13 8.59
8/26/2021 6:15:00 AM 24.37 75.866 0.142 7.45 6.67 8.57
8/26/2021 6:30:00 AM 24.36 75.848 0.142 7.45 6.06 8.56
8/26/2021 6:45:00 AM 24.36 75.848 0.142 7.45 6.57 8.55
8/26/2021 7:00:00 AM 24.35 75.83 0.142 7.45 6.17 8.55
8/26/2021 7:15:00 AM 24.35 75.83 0.142 7.45 6.32 8.55
8/26/2021 7:30:00 AM 24.34 75.812 0.142 7.46 6.18 8.55
8/26/2021 7:45:00 AM 24.35 75.83 0.142 7.46 6.39 8.56
8/26/2021 8:00:00 AM 24.35 75.83 0.143 7.47 6 8.57
8/26/2021 8:15:00 AM 24.35 75.83 0.143 7.47 6.49 8.59
8/26/2021 8:30:00 AM 24.36 75.848 0.142 7.48 6.25 8.61
8/26/2021 8:45:00 AM 24.39 75.902 0.142 7.48 5.84 8.65
8/26/2021 9:00:00 AM 24.42 75.956 0.142 7.49 6 8.68
8/26/2021 9:15:00 AM 24.46 76.028 0.143 7.5 5.42 8.71
8/26/2021 9:30:00 AM 24.5 76.1 0.142 7.51 5.92 8.75
8/26/2021 9:45:00 AM 24.55 76.19 0.142 7.52 6.01 8.79
8/26/2021 10:00:00 AM 24.6 76.28 0.143 7.53 5.9 8.83
8/26/2021 10:15:00 AM 24.66 76.388 0.143 7.55 5.66 8.88
8/26/2021 10:30:00 AM 24.72 76.496 0.143 7.56 5.69 8.93
8/26/2021 10:45:00 AM 24.79 76.622 0.143 7.58 5.78 8.97
8/26/2021 11:00:00 AM 24.86 76.748 0.143 7.6 5.64 9.02
8/26/2021 11:15:00 AM 24.93 76.874 0.144 7.61 5.81 9.08
8/26/2021 11:30:00 AM 25.01 77.018 0.144 7.63 5.35 9.15
8/26/2021 11:45:00 AM 25.1 77.18 0.143 7.65 5.54 9.21
8/26/2021 12:00:00 PM 25.18 77.324 0.144 7.68 5.38 9.27
8/26/2021 12:15:00 PM 25.28 77.504 0.144 7.7 5.54 9.34
8/26/2021 12:30:00 PM 25.38 77.684 0.144 7.73 5.61 9.4
8/26/2021 12:45:00 PM 25.47 77.846 0.144 7.75 5.52 9.45
8/26/2021 1:00:00 PM 25.57 78.026 0.144 7.77 5.69 9.47
8/26/2021 1:15:00 PM 25.66 78.188 0.144 7.81 5.3 9.57
8/26/2021 1:30:00 PM 25.75 78.35 0.144 7.83 5.42 9.63
8/26/2021 1:45:00 PM 25.83 78.494 0.144 7.87 5.87 9.68
8/26/2021 2:00:00 PM 25.91 78.638 0.144 7.9 5.43 9.76
8/26/2021 2:15:00 PM 25.99 78.782 0.144 7.92 5.14 9.79
8/26/2021 2:30:00 PM 26.08 78.944 0.144 7.96 5.37 9.87
8/26/2021 2:45:00 PM 26.15 79.07 0.146 7.98 5.35 9.9
8/26/2021 3:00:00 PM 26.22 79.196 0.148 8.02 5.4 9.91
8/26/2021 3:15:00 PM 26.29 79.32201 0.149 8.05 4.77 9.97
8/26/2021 3:30:00 PM 26.36 79.448 0.15 8.07 5.13 10.02
8/26/2021 3:45:00 PM 26.43 79.574 0.152 8.1 5.33 10.05
8/26/2021 4:00:00 PM 26.47 79.646 0.153 8.13 5.35 10.07
8/26/2021 4:15:00 PM 26.5 79.7 0.154 8.17 5.75 10.13
8/26/2021 4:30:00 PM 26.51 79.718 0.155 8.18 5.35 10.11
8/26/2021 4:45:00 PM 26.53 79.754 0.154 8.12 8.31 10.07
8/26/2021 5:00:00 PM 26.55 79.79 0.156 8.17 6.83 10.08
8/26/2021 5:15:00 PM 26.32 79.376 0.161 8.08 5.33 9.78
8/26/2021 5:30:00 PM 26.15 79.07 0.16 7.84 4.62 9.48
8/26/2021 5:45:00 PM 26.47 79.646 0.16 8.07 4.75 9.86
8/26/2021 6:00:00 PM 26.51 79.718 0.158 8.12 6.14 9.92
8/26/2021 6:15:00 PM 26.48 79.664 0.157 8.1 5.59 9.88
8/26/2021 6:30:00 PM 26.44 79.592 0.157 8.08 5.44 9.8
8/26/2021 6:45:00 PM 26.39 79.502 0.157 8.05 5.6 9.72
8/26/2021 7:00:00 PM 26.35 79.43 0.157 8.03 5.43 9.67
8/26/2021 7:15:00 PM 26.3 79.34 0.157 8 4.94 9.61
8/26/2021 7:30:00 PM 26.25 79.25 0.157 7.97 5.2 9.56
8/26/2021 7:45:00 PM 26.21 79.17799 0.157 7.94 5.03 9.51
8/26/2021 8:00:00 PM 26.17 79.106 0.157 7.91 5.4 9.47
8/26/2021 8:15:00 PM 26.12 79.016 0.157 7.9 5.19 9.41
8/26/2021 8:30:00 PM 26.07 78.926 0.157 7.87 4.95 9.35
8/26/2021 8:45:00 PM 26.02 78.836 0.158 7.86 4.96 9.31
8/26/2021 9:00:00 PM 25.98 78.764 0.156 7.83 4.74 9.27
8/26/2021 9:15:00 PM 25.93 78.674 0.155 7.82 5.09 9.22
8/26/2021 9:30:00 PM 25.89 78.602 0.156 7.8 4.84 9.19
8/26/2021 9:45:00 PM 25.85 78.53 0.157 7.79 5.08 9.15
8/26/2021 10:00:00 PM 25.8 78.44 0.158 7.78 5.14 9.13
8/26/2021 10:15:00 PM 25.76 78.368 0.156 7.76 4.66 9.1
8/26/2021 10:30:00 PM 25.72 78.296 0.154 7.74 5.09 9.07
8/26/2021 10:45:00 PM 25.69 78.242 0.152 7.71 4.7 9.03
8/26/2021 11:00:00 PM 25.65 78.17 0.151 7.69 5.12 9.01
8/26/2021 11:15:00 PM 25.62 78.116 0.15 7.68 4.89 8.99
8/26/2021 11:30:00 PM 25.58 78.044 0.15 7.67 4.95 8.96
8/26/2021 11:45:00 PM 25.55 77.99 0.149 7.66 4.95 8.94
8/27/2021 12:00:00 AM 25.53 77.954 0.149 7.65 4.73 8.93
8/27/2021 12:15:00 AM 25.49 77.882 0.15 7.64 4.9 8.91
8/27/2021 12:30:00 AM 25.46 77.828 0.149 7.63 5.36 8.88
8/27/2021 12:45:00 AM 25.42 77.756 0.149 7.62 5.06 8.85
8/27/2021 1:00:00 AM 25.4 77.72 0.149 7.61 4.78 8.82
8/27/2021 1:15:00 AM 25.38 77.684 0.149 7.6 4.75 8.8
8/27/2021 1:30:00 AM 25.35 77.63 0.149 7.6 4.93 8.77
8/27/2021 1:45:00 AM 25.33 77.594 0.148 7.59 4.81 8.75
8/27/2021 2:00:00 AM 25.3 77.54 0.149 7.58 5.03 8.73
8/27/2021 2:15:00 AM 25.29 77.522 0.149 7.57 5.05 8.7
8/27/2021 2:30:00 AM 25.29 77.522 0.149 7.57 5.2 8.69
8/27/2021 2:45:00 AM 25.28 77.504 0.151 7.56 4.93 8.67
8/27/2021 3:00:00 AM 25.28 77.504 0.152 7.57 4.91 8.65
8/27/2021 3:15:00 AM 25.27 77.486 0.153 7.57 4.95 8.63
8/27/2021 3:30:00 AM 25.27 77.486 0.154 7.57 5.08 8.62
8/27/2021 3:45:00 AM 25.26 77.468 0.154 7.56 5.27 8.59
8/27/2021 4:00:00 AM 25.26 77.468 0.154 7.55 5.24 8.56
8/27/2021 4:15:00 AM 25.25 77.45 0.154 7.55 5.25 8.56
8/27/2021 4:30:00 AM 25.25 77.45 0.155 7.55 5.41 8.52
8/27/2021 4:45:00 AM 25.24 77.432 0.155 7.54 5.82 8.5
8/27/2021 5:00:00 AM 25.23 77.414 0.155 7.54 4.71 8.46
8/27/2021 5:15:00 AM 25.22 77.396 0.155 7.53 5.03 8.44
8/27/2021 5:30:00 AM 25.21 77.378 0.155 7.53 5.11 8.41
8/27/2021 5:45:00 AM 25.2 77.36 0.155 7.53 5.27 8.38
8/27/2021 6:00:00 AM 25.2 77.36 0.155 7.52 4.94 8.38
8/27/2021 6:15:00 AM 25.2 77.36 0.155 7.51 4.98 8.37
8/27/2021 6:30:00 AM 25.19 77.342 0.155 7.51 4.86 8.36
8/27/2021 6:45:00 AM 25.18 77.324 0.155 7.51 4.7 8.35
8/27/2021 7:00:00 AM 25.18 77.324 0.157 7.52 5.46 8.35
8/27/2021 7:15:00 AM 25.18 77.324 0.159 7.53 5.18 8.36
8/27/2021 7:30:00 AM 25.19 77.342 0.16 7.53 5.61 8.39
8/27/2021 7:45:00 AM 25.19 77.342 0.16 7.54 5.19 8.4
8/27/2021 8:00:00 AM 25.21 77.378 0.16 7.55 4.89 8.44
8/27/2021 8:15:00 AM 25.23 77.414 0.16 7.56 4.97 8.47
8/27/2021 8:30:00 AM 25.23 77.414 0.16 7.57 5.44 8.5
8/27/2021 8:45:00 AM 25.25 77.45 0.161 7.58 5.12 8.52
8/27/2021 9:00:00 AM 25.27 77.486 0.161 7.59 4.74 8.57
8/27/2021 9:15:00 AM 25.28 77.504 0.161 7.6 5.4 8.6
8/27/2021 9:30:00 AM 25.3 77.54 0.162 7.62 5.17 8.64
8/27/2021 9:45:00 AM 25.32 77.576 0.161 7.63 5.31 8.69
8/27/2021 10:00:00 AM 25.34 77.612 0.164 7.65 5.47 8.73
8/27/2021 10:15:00 AM 25.37 77.666 0.167 7.68 5.47 8.79
8/27/2021 10:30:00 AM 25.41 77.738 0.169 7.71 5.45 8.84
8/27/2021 10:45:00 AM 25.45 77.81 0.169 7.72 4.87 8.86
8/27/2021 11:00:00 AM 25.52 77.936 0.169 7.77 5.37 8.96
8/27/2021 11:15:00 AM 25.57 78.026 0.17 7.78 6.53 8.98
8/27/2021 11:30:00 AM 25.65 78.17 0.169 7.76 4.74 8.94
8/27/2021 11:45:00 AM 25.72 78.296 0.165 7.75 4.94 9.01
8/27/2021 12:00:00 PM 25.79 78.422 0.16 7.77 5.37 9.11
8/27/2021 12:15:00 PM 25.84 78.512 0.158 7.78 4.78 9.11
8/27/2021 12:30:00 PM 25.88 78.584 0.156 7.8 5.04 9.27
8/27/2021 12:45:00 PM 25.82 78.476 0.164 7.78 5.97 9.11
8/27/2021 1:00:00 PM 25.89 78.602 0.16 7.72 4.4 9.17
8/27/2021 1:15:00 PM 26.03 78.854 0.155 7.82 4.8 9.39
8/27/2021 1:30:00 PM 26.14 79.052 0.154 7.9 4.74 9.48
8/27/2021 1:45:00 PM 26.21 79.17799 0.153 7.93 5.06 9.57
8/27/2021 2:00:00 PM 26.26 79.268 0.153 7.97 5.28 9.71
8/27/2021 2:15:00 PM 26.3 79.34 0.152 7.99 4.73 9.75
8/27/2021 2:30:00 PM 26.35 79.43 0.152 8.02 5.1 9.8
8/27/2021 2:45:00 PM 26.4 79.52 0.152 8.07 4.86 9.87
8/27/2021 3:00:00 PM 26.46 79.628 0.152 8.11 4.63 9.9
8/27/2021 3:15:00 PM 26.5 79.7 0.152 8.12 5.14 9.96
8/27/2021 3:30:00 PM 26.53 79.754 0.152 8.16 4.85 10.04
8/27/2021 3:45:00 PM 26.56 79.808 0.152 8.18 4.81 10.08
8/27/2021 4:00:00 PM 26.58 79.844 0.152 8.2 5.33 10.06
8/27/2021 4:15:00 PM 26.61 79.898 0.152 8.25 4.92 10.13
8/27/2021 4:30:00 PM 26.62 79.916 0.152 8.23 5.23 10.16
8/27/2021 4:45:00 PM 26.63 79.934 0.153 8.27 5.24 10.18
8/27/2021 5:00:00 PM 26.64 79.952 0.153 8.3 4.84 10.18
8/27/2021 5:15:00 PM 26.65 79.97 0.153 8.3 5.05 10.21
8/27/2021 5:30:00 PM 26.64 79.952 0.153 8.3 4.89 10.2
8/27/2021 5:45:00 PM 26.62 79.916 0.153 8.31 4.49 10.17
8/27/2021 6:00:00 PM 26.62 79.916 0.153 8.29 4.81 10.13
8/27/2021 6:15:00 PM 26.61 79.898 0.154 8.28 4.88 10.11
8/27/2021 6:30:00 PM 26.59 79.862 0.153 8.27 5.14 10.09
8/27/2021 6:45:00 PM 26.57 79.826 0.153 8.25 5.16 10.03
8/27/2021 7:00:00 PM 26.54 79.772 0.153 8.22 5.06 9.96
8/27/2021 7:15:00 PM 26.51 79.718 0.153 8.19 4.7 9.91
8/27/2021 7:30:00 PM 26.48 79.664 0.153 8.17 5.27 9.86
8/27/2021 7:45:00 PM 26.47 79.646 0.153 8.13 4.69 9.81
8/27/2021 8:00:00 PM 26.45 79.61 0.153 8.1 4.28 9.72
8/27/2021 8:15:00 PM 26.44 79.592 0.153 8.07 4.95 9.68
8/27/2021 8:30:00 PM 26.43 79.574 0.154 8.04 4.88 9.62
8/27/2021 8:45:00 PM 26.42 79.556 0.154 8.01 4.9 9.52
8/27/2021 9:00:00 PM 26.41 79.538 0.155 7.99 4.88 9.47
8/27/2021 9:15:00 PM 26.39 79.502 0.155 7.96 5.02 9.41
8/27/2021 9:30:00 PM 26.36 79.448 0.155 7.95 4.66 9.37
8/27/2021 9:45:00 PM 26.33 79.394 0.155 7.93 4.73 9.35
8/27/2021 10:00:00 PM 26.3 79.34 0.156 7.9 5.04 9.3
8/27/2021 10:15:00 PM 26.27 79.286 0.156 7.88 4.96 9.25
8/27/2021 10:30:00 PM 26.23 79.214 0.156 7.86 4.79 9.21
8/27/2021 10:45:00 PM 26.19 79.142 0.156 7.84 4.48 9.17
8/27/2021 11:00:00 PM 26.15 79.07 0.156 7.82 4.4 9.11
8/27/2021 11:15:00 PM 26.12 79.016 0.157 7.8 4.64 9.09
8/27/2021 11:30:00 PM 26.08 78.944 0.157 7.79 4.71 9.03
8/27/2021 11:45:00 PM 26.05 78.89 0.157 7.77 4.68 9.01
8/28/2021 12:00:00 AM 26.01 78.818 0.157 7.74 5.46 8.97
8/28/2021 12:15:00 AM 25.98 78.764 0.157 7.74 4.63 8.92
8/28/2021 12:30:00 AM 25.94 78.692 0.157 7.72 4.78 8.88
8/28/2021 12:45:00 AM 25.91 78.638 0.157 7.7 4.74 8.85
8/28/2021 1:00:00 AM 26.03 78.854 0.171 7.67 5.16 8.79
8/28/2021 1:15:00 AM 26.06 78.908 0.165 7.53 3.97 8.75
8/28/2021 1:30:00 AM 25.84 78.512 0.158 7.64 5.22 8.74
8/28/2021 1:45:00 AM 25.81 78.458 0.158 7.65 4.96 8.72
8/28/2021 2:00:00 AM 25.79 78.422 0.158 7.64 5.01 8.68
8/28/2021 2:15:00 AM 25.77 78.386 0.158 7.62 4.75 8.69
8/28/2021 2:30:00 AM 25.75 78.35 0.158 7.62 5.21 8.63
8/28/2021 2:45:00 AM 25.73 78.314 0.16 7.62 5.16 8.63
8/28/2021 3:00:00 AM 25.72 78.296 0.163 7.62 5.11 8.59
8/28/2021 3:15:00 AM 25.7 78.26 0.166 7.62 5.23 8.55
8/28/2021 3:30:00 AM 25.69 78.242 0.167 7.62 4.89 8.53
8/28/2021 3:45:00 AM 25.68 78.224 0.168 7.61 4.53 8.49
8/28/2021 4:00:00 AM 25.67 78.206 0.168 7.61 4.46 8.47
8/28/2021 4:15:00 AM 25.66 78.188 0.168 7.61 5.02 8.46
8/28/2021 4:30:00 AM 25.65 78.17 0.168 7.6 5.01 8.43
8/28/2021 4:45:00 AM 25.63 78.134 0.168 7.59 5.1 8.42
8/28/2021 5:00:00 AM 25.62 78.116 0.169 7.58 4.47 8.37
8/28/2021 5:15:00 AM 25.6 78.08 0.168 7.57 4.52 8.33
8/28/2021 5:30:00 AM 25.6 78.08 0.168 7.57 4.17 8.31
8/28/2021 5:45:00 AM 25.59 78.062 0.168 7.56 4.55 8.3
8/28/2021 6:00:00 AM 25.58 78.044 0.167 7.55 4.49 8.27
8/28/2021 6:15:00 AM 25.58 78.044 0.167 7.54 4.93 8.27
8/28/2021 6:30:00 AM 25.57 78.026 0.167 7.55 4.95 8.26
8/28/2021 6:45:00 AM 25.56 78.008 0.167 7.55 4.92 8.25
8/28/2021 7:00:00 AM 25.56 78.008 0.167 7.54 5.29 8.24
8/28/2021 7:15:00 AM 25.56 78.008 0.166 7.54 4.72 8.23
8/28/2021 7:30:00 AM 25.56 78.008 0.165 7.54 5.25 8.25
8/28/2021 7:45:00 AM 25.56 78.008 0.164 7.53 4.52 8.25
8/28/2021 8:00:00 AM 25.56 78.008 0.162 7.53 4.51 8.23
8/28/2021 8:15:00 AM 25.56 78.008 0.16 7.52 5.34 8.24
8/28/2021 8:30:00 AM 25.56 78.008 0.161 7.53 4.82 8.24
8/28/2021 8:45:00 AM 25.56 78.008 0.163 7.53 4.59 8.25
8/28/2021 9:00:00 AM 25.56 78.008 0.164 7.54 4.67 8.24
8/28/2021 9:15:00 AM 25.57 78.026 0.164 7.56 4.56 8.29
8/28/2021 9:30:00 AM 25.57 78.026 0.164 7.56 5.06 8.32
8/28/2021 9:45:00 AM 25.58 78.044 0.161 7.56 4.31 8.35
8/28/2021 10:00:00 AM 25.59 78.062 0.158 7.57 4.63 8.41
8/28/2021 10:15:00 AM 25.61 78.098 0.157 7.56 4.25 8.39
8/28/2021 10:30:00 AM 25.63 78.134 0.156 7.55 4.48 8.36
8/28/2021 10:45:00 AM 25.65 78.17 0.156 7.55 4.63 8.43
8/28/2021 11:00:00 AM 25.66 78.188 0.155 7.56 4.7 8.42
8/28/2021 11:15:00 AM 25.66 78.188 0.154 7.58 4.33 8.57
8/28/2021 11:30:00 AM 25.65 78.17 0.155 7.58 5.75 8.51
8/28/2021 11:45:00 AM 25.65 78.17 0.155 7.59 5 8.48
8/28/2021 12:00:00 PM 25.64 78.152 0.154 7.59 4.84 8.52
8/28/2021 12:15:00 PM 25.63 78.134 0.154 7.59 4.27 8.54
8/28/2021 12:30:00 PM 25.63 78.134 0.154 7.6 4.24 8.56
8/28/2021 12:45:00 PM 25.6 78.08 0.154 7.6 4.64 8.51
8/28/2021 1:00:00 PM 25.6 78.08 0.154 7.59 4.07 8.52
8/28/2021 1:15:00 PM 25.62 78.116 0.154 7.58 4.1 8.5
8/28/2021 1:30:00 PM 25.65 78.17 0.155 7.59 3.99 8.5
8/28/2021 1:45:00 PM 25.69 78.242 0.155 7.6 4.5 8.51
8/28/2021 2:00:00 PM 25.73 78.314 0.155 7.62 4.09 8.61
8/28/2021 2:15:00 PM 25.78 78.404 0.155 7.61 4.7 8.66
8/28/2021 2:30:00 PM 25.83 78.494 0.155 7.62 4.27 8.65
8/28/2021 2:45:00 PM 25.87 78.566 0.155 7.64 4.43 8.73
8/28/2021 3:00:00 PM 25.88 78.584 0.154 7.72 4.53 8.89
8/28/2021 3:15:00 PM 25.9 78.62 0.155 7.72 4.77 8.95
8/28/2021 3:30:00 PM 25.92 78.656 0.155 7.7 4.54 8.9
8/28/2021 3:45:00 PM 25.94 78.692 0.155 7.73 4.56 9.08
8/28/2021 4:00:00 PM 25.96 78.728 0.154 7.77 4.48 9.17
8/28/2021 4:15:00 PM 25.97 78.746 0.154 7.79 4.89 9.14
8/28/2021 4:30:00 PM 25.96 78.728 0.154 7.87 4.46 9.32
8/28/2021 4:45:00 PM 25.88 78.584 0.154 7.88 4.67 9.35
8/28/2021 5:00:00 PM 25.83 78.494 0.154 7.86 4.99 9.35
8/28/2021 5:15:00 PM 25.79 78.422 0.154 7.87 4.94 9.34
8/28/2021 5:30:00 PM 25.77 78.386 0.154 7.86 4.75 9.34
8/28/2021 5:45:00 PM 25.75 78.35 0.154 7.84 4.37 9.3
8/28/2021 6:00:00 PM 25.72 78.296 0.153 7.84 4.74 9.28
8/28/2021 6:15:00 PM 25.68 78.224 0.154 7.82 4.55 9.22
8/28/2021 6:30:00 PM 25.63 78.134 0.153 7.81 5.17 9.18
8/28/2021 6:45:00 PM 25.59 78.062 0.153 7.79 5.46 9.17
8/28/2021 7:00:00 PM 25.56 78.008 0.153 7.78 5.05 9.13
8/28/2021 7:15:00 PM 25.76 78.368 0.164 7.73 5.01 8.94
8/28/2021 7:30:00 PM 25.74 78.332 0.163 7.61 4.08 8.86
8/28/2021 7:45:00 PM 25.52 77.936 0.155 7.7 6.05 8.98
8/28/2021 8:00:00 PM 25.45 77.81 0.154 7.71 5.42 8.99
8/28/2021 8:15:00 PM 25.42 77.756 0.154 7.71 5.35 8.97
8/28/2021 8:30:00 PM 25.4 77.72 0.154 7.69 5.15 8.91
8/28/2021 8:45:00 PM 25.37 77.666 0.153 7.69 4.83 8.9
8/28/2021 9:00:00 PM 25.34 77.612 0.153 7.68 4.95 8.87
8/28/2021 9:15:00 PM 25.31 77.558 0.153 7.67 5.37 8.85
8/28/2021 9:30:00 PM 25.28 77.504 0.154 7.66 5.01 8.81
8/28/2021 9:45:00 PM 25.26 77.468 0.154 7.65 5.17 8.78
8/28/2021 10:00:00 PM 25.24 77.432 0.154 7.64 4.96 8.75
8/28/2021 10:15:00 PM 25.22 77.396 0.154 7.63 4.98 8.74
8/28/2021 10:30:00 PM 25.2 77.36 0.154 7.63 5.5 8.74
8/28/2021 10:45:00 PM 25.19 77.342 0.154 7.61 5.21 8.68
8/28/2021 11:00:00 PM 25.17 77.306 0.154 7.6 5.52 8.67
8/28/2021 11:15:00 PM 25.15 77.27 0.154 7.6 5.65 8.64
8/28/2021 11:30:00 PM 25.13 77.234 0.154 7.59 5.97 8.6
8/28/2021 11:45:00 PM 25.1 77.18 0.154 7.58 5.24 8.57
8/29/2021 12:00:00 AM 25.06 77.108 0.154 7.56 5.23 8.52
8/29/2021 12:15:00 AM 25.05 77.09 0.154 7.55 5.47 8.49
8/29/2021 12:30:00 AM 25.02 77.036 0.154 7.54 5.14 8.44
8/29/2021 12:45:00 AM 25 77 0.154 7.53 5.27 8.42
8/29/2021 1:00:00 AM 24.97 76.946 0.154 7.53 5.22 8.41
8/29/2021 1:15:00 AM 24.95 76.91 0.155 7.52 5.83 8.39
8/29/2021 1:30:00 AM 24.93 76.874 0.155 7.51 5.6 8.35
8/29/2021 1:45:00 AM 24.91 76.838 0.155 7.51 5.69 8.36
8/29/2021 2:00:00 AM 24.89 76.802 0.155 7.5 6.23 8.34
8/29/2021 2:15:00 AM 24.87 76.766 0.155 7.5 6.11 8.34
8/29/2021 2:30:00 AM 24.85 76.73 0.155 7.5 6.34 8.33
8/29/2021 2:45:00 AM 24.84 76.712 0.155 7.49 5.44 8.3
8/29/2021 3:00:00 AM 24.82 76.676 0.155 7.48 5.56 8.27
8/29/2021 3:15:00 AM 24.8 76.64 0.155 7.48 5.57 8.26
8/29/2021 3:30:00 AM 24.79 76.622 0.156 7.47 5.33 8.22
8/29/2021 3:45:00 AM 24.78 76.604 0.156 7.46 5.08 8.19
8/29/2021 4:00:00 AM 24.76 76.568 0.156 7.47 5.1 8.2
8/29/2021 4:15:00 AM 24.75 76.55 0.158 7.47 4.82 8.19
8/29/2021 4:30:00 AM 24.73 76.514 0.161 7.47 4.82 8.17
8/29/2021 4:45:00 AM 24.73 76.514 0.163 7.47 5.34 8.16
8/29/2021 5:00:00 AM 24.71 76.478 0.164 7.47 4.73 8.15
8/29/2021 5:15:00 AM 24.71 76.478 0.165 7.47 4.74 8.12
8/29/2021 5:30:00 AM 24.69 76.442 0.166 7.48 4.75 8.12
8/29/2021 5:45:00 AM 24.69 76.442 0.166 7.47 4.69 8.11
8/29/2021 6:00:00 AM 24.69 76.442 0.166 7.47 4.74 8.08
8/29/2021 6:15:00 AM 24.68 76.424 0.167 7.48 5.55 8.1
8/29/2021 6:30:00 AM 24.67 76.406 0.167 7.47 4.83 8.07
8/29/2021 6:45:00 AM 24.66 76.388 0.167 7.47 4.62 8.05
8/29/2021 7:00:00 AM 24.66 76.388 0.167 7.47 4.36 8.05
8/29/2021 7:15:00 AM 24.65 76.37 0.165 7.46 4.67 8.04
8/29/2021 7:30:00 AM 24.65 76.37 0.163 7.46 4.31 8.05
8/29/2021 7:45:00 AM 24.65 76.37 0.162 7.45 5.04 8.04
8/29/2021 8:00:00 AM 24.64 76.352 0.161 7.45 4.42 8.05
8/29/2021 8:15:00 AM 24.64 76.352 0.163 7.46 5.11 8.07
8/29/2021 8:30:00 AM 24.64 76.352 0.165 7.46 4.39 8.06
8/29/2021 8:45:00 AM 24.64 76.352 0.167 7.47 4.44 8.08
8/29/2021 9:00:00 AM 24.64 76.352 0.167 7.47 4.64 8.07
8/29/2021 9:15:00 AM 24.64 76.352 0.166 7.48 4.27 8.13
8/29/2021 9:30:00 AM 24.65 76.37 0.164 7.47 4.45 8.14
8/29/2021 9:45:00 AM 24.67 76.406 0.162 7.49 4.17 8.16
8/29/2021 10:00:00 AM 24.68 76.424 0.162 7.48 4.42 8.15
8/29/2021 10:15:00 AM 24.7 76.46 0.161 7.48 4.19 8.22
8/29/2021 10:30:00 AM 24.73 76.514 0.161 7.46 4.12 8.03
8/29/2021 10:45:00 AM 24.75 76.55 0.161 7.47 4.29 8.17
8/29/2021 11:00:00 AM 24.77 76.586 0.161 7.5 4.18 8.22
8/29/2021 11:15:00 AM 24.79 76.622 0.16 7.5 4.19 8.22
8/29/2021 11:30:00 AM 24.81 76.658 0.16 7.47 4.27 8.23
8/29/2021 11:45:00 AM 24.83 76.694 0.161 7.49 4.1 8.17
8/29/2021 12:00:00 PM 24.85 76.73 0.161 7.49 4.13 8.1
8/29/2021 12:15:00 PM 24.88 76.784 0.161 7.52 4.01 8.39
8/29/2021 12:30:00 PM 24.9 76.82 0.161 7.52 4.03 8.29
8/29/2021 12:45:00 PM 24.93 76.874 0.161 7.54 4.28 8.3
8/29/2021 1:00:00 PM 24.96 76.92799 0.161 7.54 4.25 8.48
8/29/2021 1:15:00 PM 24.99 76.982 0.161 7.55 4.08 8.44
8/29/2021 1:30:00 PM 25.01 77.018 0.161 7.59 4.48 8.58
8/29/2021 1:45:00 PM 25.05 77.09 0.161 7.59 4.43 8.57
8/29/2021 2:00:00 PM 25.08 77.144 0.161 7.58 4.06 8.61
8/29/2021 2:15:00 PM 25.12 77.216 0.161 7.64 4 8.77
8/29/2021 2:30:00 PM 25.14 77.252 0.161 7.57 4.03 8.57
8/29/2021 2:45:00 PM 25.2 77.36 0.161 7.7 5.41 8.93
8/29/2021 3:00:00 PM 25.23 77.414 0.161 7.7 4.38 8.95
8/29/2021 3:15:00 PM 25.25 77.45 0.161 7.77 4.68 9.16
8/29/2021 3:30:00 PM 25.26 77.468 0.162 7.81 4.1 9.27
8/29/2021 3:45:00 PM 25.27 77.486 0.162 7.87 4.41 9.38
8/29/2021 4:00:00 PM 25.27 77.486 0.162 7.89 4.44 9.41
8/29/2021 4:15:00 PM 25.27 77.486 0.162 7.9 4.64 9.43
8/29/2021 4:30:00 PM 25.27 77.486 0.162 7.93 5.44 9.49
8/29/2021 4:45:00 PM 25.28 77.504 0.162 7.93 4.42 9.47
8/29/2021 5:00:00 PM 25.28 77.504 0.162 7.93 4.16 9.46
8/29/2021 5:15:00 PM 25.27 77.486 0.162 7.95 5.14 9.52
8/29/2021 5:30:00 PM 25.47 77.846 0.17 7.75 4.4 9.08
8/29/2021 5:45:00 PM 25.31 77.558 0.167 7.7 4.19 9.09
8/29/2021 6:00:00 PM 25.23 77.414 0.163 7.92 5.17 9.46
8/29/2021 6:15:00 PM 25.21 77.378 0.163 7.92 4.84 9.44
8/29/2021 6:30:00 PM 25.19 77.342 0.163 7.91 5.16 9.39
8/29/2021 6:45:00 PM 25.16 77.288 0.163 7.9 4.78 9.36
8/29/2021 7:00:00 PM 25.14 77.252 0.163 7.89 4.96 9.34
8/29/2021 7:15:00 PM 25.13 77.234 0.163 7.86 4.37 9.28
8/29/2021 7:30:00 PM 25.1 77.18 0.163 7.85 5.31 9.23
8/29/2021 7:45:00 PM 25.09 77.162 0.164 7.84 4.7 9.24
8/29/2021 8:00:00 PM 25.08 77.144 0.164 7.83 4.6 9.18
8/29/2021 8:15:00 PM 25.06 77.108 0.164 7.81 4.86 9.15
8/29/2021 8:30:00 PM 25.04 77.07201 0.164 7.8 5.2 9.11
8/29/2021 8:45:00 PM 25.01 77.018 0.164 7.78 4.69 9.08
8/29/2021 9:00:00 PM 24.98 76.964 0.164 7.77 4.67 9.06
8/29/2021 9:15:00 PM 24.95 76.91 0.164 7.75 5.06 9.01
8/29/2021 9:30:00 PM 24.93 76.874 0.165 7.74 4.83 8.96
8/29/2021 9:45:00 PM 24.91 76.838 0.165 7.72 4.4 8.92
8/29/2021 10:00:00 PM 24.89 76.802 0.165 7.71 4.76 8.89
8/29/2021 10:15:00 PM 24.87 76.766 0.165 7.7 4.68 8.85
8/29/2021 10:30:00 PM 24.86 76.748 0.165 7.69 4.49 8.82
8/29/2021 10:45:00 PM 24.84 76.712 0.165 7.68 4.41 8.8
8/29/2021 11:00:00 PM 24.82 76.676 0.165 7.67 5.12 8.78
8/29/2021 11:15:00 PM 24.81 76.658 0.165 7.64 4.97 8.74
8/29/2021 11:30:00 PM 24.79 76.622 0.166 7.64 4.35 8.71
8/29/2021 11:45:00 PM 24.78 76.604 0.166 7.63 4.85 8.7
8/30/2021 12:00:00 AM 24.77 76.586 0.165 7.62 4.61 8.66
8/30/2021 12:15:00 AM 24.76 76.568 0.166 7.61 4.34 8.63
8/30/2021 12:30:00 AM 24.75 76.55 0.166 7.6 4.73 8.61
8/30/2021 12:45:00 AM 24.74 76.532 0.166 7.59 4.54 8.58
8/30/2021 1:00:00 AM 24.73 76.514 0.166 7.58 4.76 8.55
8/30/2021 1:15:00 AM 24.71 76.478 0.166 7.58 4.77 8.53
8/30/2021 1:30:00 AM 24.7 76.46 0.166 7.58 4.22 8.52
8/30/2021 1:45:00 AM 24.68 76.424 0.166 7.57 5.4 8.52
8/30/2021 2:00:00 AM 24.67 76.406 0.166 7.56 4.75 8.51
8/30/2021 2:15:00 AM 24.67 76.406 0.166 7.56 4.84 8.48
8/30/2021 2:30:00 AM 24.66 76.388 0.167 7.56 4.75 8.47
8/30/2021 2:45:00 AM 24.66 76.388 0.166 7.56 5.18 8.47
8/30/2021 3:00:00 AM 24.66 76.388 0.166 7.55 5.02 8.48
8/30/2021 3:15:00 AM 24.65 76.37 0.167 7.55 4.98 8.46
8/30/2021 3:30:00 AM 24.64 76.352 0.167 7.54 4.83 8.45
8/30/2021 3:45:00 AM 24.63 76.334 0.167 7.54 4.86 8.43
8/30/2021 4:00:00 AM 24.63 76.334 0.167 7.54 5.12 8.43
8/30/2021 4:15:00 AM 24.63 76.334 0.167 7.53 4.9 8.41
8/30/2021 4:30:00 AM 24.62 76.316 0.167 7.53 4.53 8.39
8/30/2021 4:45:00 AM 24.61 76.298 0.167 7.52 4.42 8.36
8/30/2021 5:00:00 AM 24.6 76.28 0.168 7.52 4.38 8.36
8/30/2021 5:15:00 AM 24.58 76.244 0.168 7.52 5.16 8.34
8/30/2021 5:30:00 AM 24.57 76.226 0.168 7.52 4.62 8.33
8/30/2021 5:45:00 AM 24.55 76.19 0.168 7.52 5.02 8.32
8/30/2021 6:00:00 AM 24.55 76.19 0.17 7.52 4.74 8.32
8/30/2021 6:15:00 AM 24.53 76.154 0.173 7.52 4.04 8.29
8/30/2021 6:30:00 AM 24.52 76.136 0.174 7.52 4.91 8.28
8/30/2021 6:45:00 AM 24.52 76.136 0.175 7.53 4.43 8.27
8/30/2021 7:00:00 AM 24.52 76.136 0.176 7.53 4.64 8.27
8/30/2021 7:15:00 AM 24.5 76.1 0.177 7.53 4.8 8.27
8/30/2021 7:30:00 AM 24.5 76.1 0.177 7.53 4.24 8.26
8/30/2021 7:45:00 AM 24.51 76.118 0.177 7.54 4.94 8.3
8/30/2021 8:00:00 AM 24.52 76.136 0.178 7.55 4.76 8.33
8/30/2021 8:15:00 AM 24.52 76.136 0.178 7.55 4.48 8.34
8/30/2021 8:30:00 AM 24.53 76.154 0.178 7.56 4.45 8.36
8/30/2021 8:45:00 AM 24.56 76.208 0.177 7.56 4.21 8.37
8/30/2021 9:00:00 AM 24.57 76.226 0.175 7.57 4.71 8.45
8/30/2021 9:15:00 AM 24.59 76.262 0.174 7.57 3.95 8.43
8/30/2021 9:30:00 AM 24.61 76.298 0.173 7.57 5 8.46
8/30/2021 9:45:00 AM 24.63 76.334 0.173 7.55 4.49 8.48
8/30/2021 10:00:00 AM 24.98 76.964 0.181 7.64 5.76 8.73
8/30/2021 10:15:00 AM 24.92 76.856 0.177 7.53 3.9 8.72
8/30/2021 10:30:00 AM 24.85 76.73 0.175 7.51 3.54 8.67
8/30/2021 10:45:00 AM 24.77 76.586 0.173 7.61 4.45 8.71
8/30/2021 11:00:00 AM 24.82 76.676 0.173 7.63 4.27 8.74
8/30/2021 11:15:00 AM 24.89 76.802 0.173 7.63 4.12 8.75
8/30/2021 11:30:00 AM 24.93 76.874 0.173 7.65 4.15 8.82
8/30/2021 11:45:00 AM 24.98 76.964 0.173 7.64 4.36 8.76
8/30/2021 12:00:00 PM 25.04 77.07201 0.174 7.65 4.13 8.78
8/30/2021 12:15:00 PM 25.1 77.18 0.174 7.66 4.07 8.85
8/30/2021 12:30:00 PM 25.13 77.234 0.174 7.69 4.53 8.92
8/30/2021 12:45:00 PM 25.14 77.252 0.174 7.71 4.04 8.97
8/30/2021 1:00:00 PM 25.11 77.198 0.175 7.67 4.27 8.87
8/30/2021 1:15:00 PM 25.12 77.216 0.175 7.7 3.86 8.95
8/30/2021 1:30:00 PM 25.16 77.288 0.174 7.71 3.87 8.96
8/30/2021 1:45:00 PM 25.18 77.324 0.175 7.7 3.99 9
8/30/2021 2:00:00 PM 25.22 77.396 0.175 7.74 4.34 9.1
8/30/2021 2:15:00 PM 25.24 77.432 0.175 7.69 3.59 8.93
8/30/2021 2:30:00 PM 25.27 77.486 0.175 7.74 3.57 9.04
8/30/2021 2:45:00 PM 25.37 77.666 0.175 7.76 4.25 9.21
8/30/2021 3:00:00 PM 25.46 77.828 0.175 7.79 3.89 9.26
8/30/2021 3:15:00 PM 25.56 78.008 0.175 7.84 4.01 9.36
8/30/2021 3:30:00 PM 25.65 78.17 0.175 7.86 3.82 9.43
8/30/2021 3:45:00 PM 25.72 78.296 0.175 7.87 4.41 9.42
8/30/2021 4:00:00 PM 25.79 78.422 0.175 7.95 4.2 9.57
8/30/2021 4:15:00 PM 25.86 78.548 0.175 7.97 5.32 9.59
8/30/2021 4:30:00 PM 25.87 78.566 0.175 7.98 4.06 9.62
8/30/2021 4:45:00 PM 25.89 78.602 0.175 8 3.99 9.62
8/30/2021 5:00:00 PM 25.9 78.62 0.175 8.01 4.23 9.66
8/30/2021 5:15:00 PM 25.89 78.602 0.175 8.02 4.43 9.68
8/30/2021 5:30:00 PM 25.86 78.548 0.175 8.03 4.31 9.66
8/30/2021 5:45:00 PM 25.85 78.53 0.176 8.02 4.25 9.62
8/30/2021 6:00:00 PM 25.85 78.53 0.175 8.01 4.4 9.61
8/30/2021 6:15:00 PM 25.88 78.584 0.175 8 4 9.57
8/30/2021 6:30:00 PM 25.91 78.638 0.175 7.99 3.97 9.56
8/30/2021 6:45:00 PM 25.93 78.674 0.175 8 4.27 9.58
8/30/2021 7:00:00 PM 25.93 78.674 0.175 7.97 3.95 9.5
8/30/2021 7:15:00 PM 25.93 78.674 0.176 7.97 3.92 9.49
8/30/2021 7:30:00 PM 25.92 78.656 0.175 7.97 4.32 9.48
8/30/2021 7:45:00 PM 25.9 78.62 0.175 7.95 4.28 9.42
8/30/2021 8:00:00 PM 25.87 78.566 0.175 7.93 4.05 9.38
8/30/2021 8:15:00 PM 25.84 78.512 0.175 7.91 4.13 9.32
8/30/2021 8:30:00 PM 25.81 78.458 0.175 7.89 3.83 9.28
8/30/2021 8:45:00 PM 25.78 78.404 0.175 7.87 4.12 9.24
8/30/2021 9:00:00 PM 25.76 78.368 0.175 7.85 4.07 9.19
8/30/2021 9:15:00 PM 25.74 78.332 0.175 7.84 4 9.17
8/30/2021 9:30:00 PM 25.72 78.296 0.175 7.82 4.36 9.11
8/30/2021 9:45:00 PM 25.7 78.26 0.175 7.81 4.67 9.06
8/30/2021 10:00:00 PM 25.67 78.206 0.175 7.79 4.23 9.02
8/30/2021 10:15:00 PM 25.64 78.152 0.175 7.77 4.26 8.99
8/30/2021 10:30:00 PM 25.62 78.116 0.175 7.76 3.96 8.96
8/30/2021 10:45:00 PM 25.59 78.062 0.175 7.75 4.98 8.91
8/30/2021 11:00:00 PM 25.54 77.972 0.175 7.74 4.16 8.89
8/30/2021 11:15:00 PM 25.5 77.9 0.175 7.72 4.7 8.85
8/30/2021 11:30:00 PM 25.46 77.828 0.175 7.69 6.24 8.77
8/30/2021 11:45:00 PM 25.4 77.72 0.175 7.7 5.25 8.8
8/31/2021 12:00:00 AM 25.35 77.63 0.175 7.68 4.46 8.75
8/31/2021 12:15:00 AM 25.31 77.558 0.175 7.66 4.17 8.71
8/31/2021 12:30:00 AM 25.26 77.468 0.175 7.65 4.61 8.66
8/31/2021 12:45:00 AM 25.22 77.396 0.175 7.65 4.38 8.63
8/31/2021 1:00:00 AM 25.27 77.486 0.181 7.65 4.11 8.68
8/31/2021 1:15:00 AM 25.27 77.486 0.179 7.57 3.83 8.64
8/31/2021 1:30:00 AM 25.15 77.27 0.176 7.6 4.04 8.58
8/31/2021 1:45:00 AM 25.11 77.198 0.175 7.61 4.6 8.59
8/31/2021 2:00:00 AM 25.09 77.162 0.175 7.6 4.37 8.55
8/31/2021 2:15:00 AM 25.08 77.144 0.175 7.59 4.23 8.5
8/31/2021 2:30:00 AM 25.06 77.108 0.175 7.59 4.54 8.5
8/31/2021 2:45:00 AM 25.04 77.07201 0.175 7.59 4.86 8.49
8/31/2021 3:00:00 AM 25.02 77.036 0.175 7.58 4.53 8.49
8/31/2021 3:15:00 AM 25 77 0.175 7.58 4.91 8.46
8/31/2021 3:30:00 AM 24.97 76.946 0.175 7.57 4.61 8.44
8/31/2021 3:45:00 AM 24.95 76.91 0.175 7.57 4.42 8.42
8/31/2021 4:00:00 AM 24.93 76.874 0.177 7.56 4.07 8.4
8/31/2021 4:15:00 AM 24.91 76.838 0.178 7.56 3.82 8.37
8/31/2021 4:30:00 AM 24.89 76.802 0.18 7.57 4.4 8.35
8/31/2021 4:45:00 AM 24.88 76.784 0.182 7.57 4.43 8.36
8/31/2021 5:00:00 AM 24.87 76.766 0.183 7.57 4.53 8.34
8/31/2021 5:15:00 AM 24.86 76.748 0.183 7.57 4.29 8.34
8/31/2021 5:30:00 AM 24.85 76.73 0.184 7.57 4.4 8.33
8/31/2021 5:45:00 AM 24.83 76.694 0.185 7.57 4.29 8.3
8/31/2021 6:00:00 AM 24.82 76.676 0.186 7.57 4.73 8.3
8/31/2021 6:15:00 AM 24.81 76.658 0.186 7.57 4.64 8.29
8/31/2021 6:30:00 AM 24.8 76.64 0.186 7.57 4.3 8.29
8/31/2021 6:45:00 AM 24.8 76.64 0.186 7.57 4.24 8.28
8/31/2021 7:00:00 AM 24.79 76.622 0.184 7.56 3.96 8.27
8/31/2021 7:15:00 AM 24.78 76.604 0.182 7.56 4.19 8.27
8/31/2021 7:30:00 AM 24.79 76.622 0.181 7.55 4.01 8.29
8/31/2021 7:45:00 AM 24.79 76.622 0.183 7.56 4.07 8.3
8/31/2021 8:00:00 AM 24.8 76.64 0.185 7.57 4.11 8.32
8/31/2021 8:15:00 AM 24.81 76.658 0.186 7.58 4.25 8.32
8/31/2021 8:30:00 AM 24.82 76.676 0.187 7.59 4.08 8.37
8/31/2021 8:45:00 AM 24.83 76.694 0.187 7.6 4.75 8.39
8/31/2021 9:00:00 AM 24.83 76.694 0.188 7.61 4.07 8.42
8/31/2021 9:15:00 AM 24.85 76.73 0.188 7.62 3.99 8.45
8/31/2021 9:30:00 AM 24.87 76.766 0.188 7.62 4.08 8.48
8/31/2021 9:45:00 AM 24.88 76.784 0.189 7.64 3.9 8.53
8/31/2021 10:00:00 AM 24.9 76.82 0.188 7.66 4.12 8.57
8/31/2021 10:15:00 AM 24.93 76.874 0.189 7.67 4.25 8.6
8/31/2021 10:30:00 AM 24.96 76.92799 0.187 7.68 4.14 8.64
8/31/2021 10:45:00 AM 24.99 76.982 0.185 7.64 3.98 8.58
8/31/2021 11:00:00 AM 25.03 77.054 0.183 7.65 3.91 8.59
8/31/2021 11:15:00 AM 25.08 77.144 0.182 7.65 4.17 8.62
8/31/2021 11:30:00 AM 25.14 77.252 0.181 7.68 3.97 8.69
8/31/2021 11:45:00 AM 25.2 77.36 0.181 7.69 4.05 8.7
8/31/2021 12:00:00 PM 25.25 77.45 0.18 7.71 3.53 8.85
8/31/2021 12:15:00 PM 25.29 77.522 0.18 7.73 4.01 8.9
8/31/2021 12:30:00 PM 25.33 77.594 0.18 7.76 3.96 8.98
8/31/2021 12:45:00 PM 25.38 77.684 0.18 7.73 4.01 8.97
8/31/2021 1:00:00 PM 25.44 77.792 0.18 7.74 3.85 8.99
8/31/2021 1:15:00 PM 25.49 77.882 0.18 7.78 3.57 9.02
8/31/2021 1:30:00 PM 25.57 78.026 0.18 7.81 3.64 9.11
8/31/2021 1:45:00 PM 25.64 78.152 0.18 7.79 3.78 9.18
8/31/2021 2:00:00 PM 25.71 78.278 0.18 7.85 3.85 9.25
8/31/2021 2:15:00 PM 25.75 78.35 0.18 7.87 3.71 9.26
8/31/2021 2:30:00 PM 25.79 78.422 0.18 7.88 3.74 9.33
8/31/2021 2:45:00 PM 25.82 78.476 0.18 7.92 3.75 9.37
8/31/2021 3:00:00 PM 25.84 78.512 0.18 7.9 3.55 9.42
8/31/2021 3:15:00 PM 25.88 78.584 0.181 7.96 3.49 9.48
8/31/2021 3:30:00 PM 25.93 78.674 0.18 7.99 3.59 9.55
8/31/2021 3:45:00 PM 25.97 78.746 0.18 8 3.59 9.58
8/31/2021 4:00:00 PM 25.98 78.764 0.181 8.04 4.23 9.65
8/31/2021 4:15:00 PM 25.98 78.764 0.181 8.06 3.75 9.64
8/31/2021 4:30:00 PM 25.98 78.764 0.181 8.1 4.07 9.72
8/31/2021 4:45:00 PM 25.97 78.746 0.181 8.11 3.69 9.74
8/31/2021 5:00:00 PM 25.84 78.512 0.187 7.89 3.53 9.24
8/31/2021 5:15:00 PM 25.74 78.332 0.186 7.77 3.2 9.09
8/31/2021 5:30:00 PM 25.89 78.602 0.182 7.98 4.21 9.56
8/31/2021 5:45:00 PM 25.91 78.638 0.182 8.06 3.58 9.63
8/31/2021 6:00:00 PM 25.89 78.602 0.182 8.1 3.86 9.7
8/31/2021 6:15:00 PM 25.85 78.53 0.182 8.09 3.69 9.65
8/31/2021 6:30:00 PM 25.81 78.458 0.182 8.08 4 9.62
8/31/2021 6:45:00 PM 25.77 78.386 0.183 8.07 3.68 9.59
8/31/2021 7:00:00 PM 25.74 78.332 0.183 8.04 3.72 9.53
8/31/2021 7:15:00 PM 25.7 78.26 0.183 8.03 3.91 9.49
8/31/2021 7:30:00 PM 25.68 78.224 0.183 8.01 3.54 9.45
8/31/2021 7:45:00 PM 25.65 78.17 0.183 7.99 3.96 9.4
8/31/2021 8:00:00 PM 25.62 78.116 0.184 7.97 4.04 9.39
8/31/2021 8:15:00 PM 25.59 78.062 0.184 7.95 3.84 9.33
8/31/2021 8:30:00 PM 25.55 77.99 0.184 7.93 3.73 9.29
8/31/2021 8:45:00 PM 25.51 77.918 0.185 7.91 3.82 9.25
8/31/2021 9:00:00 PM 25.46 77.828 0.185 7.89 3.84 9.19
8/31/2021 9:15:00 PM 25.41 77.738 0.185 7.88 4.83 9.17
8/31/2021 9:30:00 PM 25.36 77.648 0.185 7.87 4.12 9.14
8/31/2021 9:45:00 PM 25.32 77.576 0.185 7.85 3.73 9.09
8/31/2021 10:00:00 PM 25.27 77.486 0.186 7.83 4.06 9.06
8/31/2021 10:15:00 PM 25.23 77.414 0.186 7.82 4.13 9.03
8/31/2021 10:30:00 PM 25.19 77.342 0.186 7.81 3.69 9
8/31/2021 10:45:00 PM 25.15 77.27 0.187 7.79 3.97 8.97
8/31/2021 11:00:00 PM 25.11 77.198 0.187 7.78 4.08 8.94
8/31/2021 11:15:00 PM 25.07 77.126 0.187 7.77 4.33 8.91
8/31/2021 11:30:00 PM 25.03 77.054 0.187 7.75 3.84 8.86
8/31/2021 11:45:00 PM 24.99 76.982 0.188 7.73 4.05 8.83
9/1/2021 12:00:00 AM 24.95 76.91 0.188 7.72 4.25 8.8
9/1/2021 12:15:00 AM 24.92 76.856 0.188 7.7 4.33 8.77
9/1/2021 12:30:00 AM 24.9 76.82 0.188 7.69 3.74 8.73
9/1/2021 12:45:00 AM 24.93 76.874 0.191 7.7 4.69 8.74
9/1/2021 1:00:00 AM 25.19 77.342 0.193 7.59 4.14 8.72
9/1/2021 1:15:00 AM 25.02 77.036 0.19 7.58 3.53 8.63
9/1/2021 1:30:00 AM 24.84 76.712 0.189 7.65 4.16 8.63
9/1/2021 1:45:00 AM 24.82 76.676 0.189 7.64 3.89 8.61
9/1/2021 2:00:00 AM 24.8 76.64 0.189 7.64 4.13 8.58
9/1/2021 2:15:00 AM 24.79 76.622 0.189 7.63 4.15 8.57
9/1/2021 2:30:00 AM 24.77 76.586 0.189 7.63 4.46 8.55
9/1/2021 2:45:00 AM 24.76 76.568 0.189 7.62 4.3 8.54
9/1/2021 3:00:00 AM 24.75 76.55 0.189 7.62 4.31 8.53
9/1/2021 3:15:00 AM 24.74 76.532 0.189 7.61 4.44 8.51
9/1/2021 3:30:00 AM 24.73 76.514 0.189 7.61 4.44 8.5
9/1/2021 3:45:00 AM 24.72 76.496 0.189 7.61 4.49 8.48
9/1/2021 4:00:00 AM 24.72 76.496 0.189 7.61 4.53 8.48
9/1/2021 4:15:00 AM 24.7 76.46 0.19 7.61 4.02 8.46
9/1/2021 4:30:00 AM 24.69 76.442 0.192 7.61 4.53 8.45
9/1/2021 4:45:00 AM 24.68 76.424 0.193 7.61 4.17 8.44
9/1/2021 5:00:00 AM 24.68 76.424 0.193 7.61 4.16 8.41
9/1/2021 5:15:00 AM 24.67 76.406 0.193 7.61 4.41 8.41
9/1/2021 5:30:00 AM 24.65 76.37 0.194 7.61 4.5 8.41
9/1/2021 5:45:00 AM 24.64 76.352 0.193 7.61 4.16 8.39
9/1/2021 6:00:00 AM 24.63 76.334 0.193 7.61 4.36 8.38
9/1/2021 6:15:00 AM 24.62 76.316 0.193 7.61 4.83 8.35
9/1/2021 6:30:00 AM 24.61 76.298 0.193 7.59 4.44 8.34
9/1/2021 6:45:00 AM 24.58 76.244 0.193 7.6 4.62 8.33
9/1/2021 7:00:00 AM 24.57 76.226 0.193 7.59 3.99 8.31
9/1/2021 7:15:00 AM 24.53 76.154 0.192 7.58 4.49 8.28
9/1/2021 7:30:00 AM 24.5 76.1 0.192 7.59 3.97 8.29
9/1/2021 7:45:00 AM 24.46 76.028 0.192 7.59 4.24 8.26
9/1/2021 8:00:00 AM 24.42 75.956 0.192 7.59 4.22 8.26
9/1/2021 8:15:00 AM 24.39 75.902 0.191 7.59 4.67 8.25
9/1/2021 8:30:00 AM 24.34 75.812 0.192 7.59 3.98 8.26
9/1/2021 8:45:00 AM 24.3 75.74 0.192 7.59 4.52 8.24
9/1/2021 9:00:00 AM 24.25 75.65 0.192 7.59 4.27 8.23
9/1/2021 9:15:00 AM 24.19 75.542 0.191 7.59 4.14 8.22
9/1/2021 9:30:00 AM 24.14 75.452 0.188 7.59 4.27 8.23
9/1/2021 9:45:00 AM 24.09 75.362 0.186 7.58 4.7 8.23
9/1/2021 10:00:00 AM 24.03 75.254 0.184 7.57 5 8.24
9/1/2021 10:15:00 AM 24 75.2 0.183 7.57 4.98 8.23
9/1/2021 10:30:00 AM 23.97 75.146 0.183 7.57 5.26 8.22
9/1/2021 10:45:00 AM 23.95 75.11 0.183 7.56 5.87 8.19
9/1/2021 11:00:00 AM 23.92 75.056 0.183 7.55 4.67 8.19
9/1/2021 11:15:00 AM 23.9 75.02 0.183 7.55 4.35 8.19
9/1/2021 11:30:00 AM 23.89 75.002 0.183 7.55 5.06 8.21
9/1/2021 11:45:00 AM 23.86 74.948 0.184 7.55 5.18 8.21
9/1/2021 12:00:00 PM 23.84 74.912 0.184 7.56 5.23 8.22
9/1/2021 12:15:00 PM 23.8 74.84 0.185 7.56 5.13 8.22
9/1/2021 12:30:00 PM 23.74 74.732 0.185 7.56 5.74 8.21
9/1/2021 12:45:00 PM 23.69 74.642 0.185 7.56 6.15 8.19
9/1/2021 1:00:00 PM 23.63 74.534 0.185 7.57 5.98 8.22
9/1/2021 1:15:00 PM 23.6 74.48 0.184 7.56 6.4 8.22
9/1/2021 1:30:00 PM 23.55 74.39 0.184 7.56 7.17 8.22
9/1/2021 1:45:00 PM 23.52 74.336 0.183 7.56 7.44 8.24
9/1/2021 2:00:00 PM 23.49 74.282 0.183 7.57 7.68 8.27
9/1/2021 2:15:00 PM 23.45 74.21 0.183 7.57 8.97 8.25
9/1/2021 2:30:00 PM 23.42 74.156 0.183 7.56 8.11 8.26
9/1/2021 2:45:00 PM 23.38 74.084 0.184 7.57 9.23 8.28
9/1/2021 3:00:00 PM 23.34 74.012 0.184 7.56 8.64 8.3
9/1/2021 3:15:00 PM 23.28 73.904 0.186 7.57 9.91 8.27
9/1/2021 3:30:00 PM 23.19 73.742 0.189 7.58 12.53 8.29
9/1/2021 3:45:00 PM 23.05 73.49 0.194 7.59 12 8.28
9/1/2021 4:00:00 PM 22.94 73.292 0.196 7.59 15.48 8.28
9/1/2021 4:15:00 PM 22.88 73.184 0.194 7.59 22.05 8.26
9/1/2021 4:30:00 PM 22.83 73.094 0.191 7.58 23.08 8.25
9/1/2021 4:45:00 PM 22.79 73.022 0.188 7.56 29.36 8.2
9/1/2021 5:00:00 PM 22.73 72.914 0.185 7.55 33.11 8.22
9/1/2021 5:15:00 PM 22.68 72.824 0.183 7.55 26.08 8.2
9/1/2021 5:30:00 PM 22.63 72.734 0.181 7.54 32.85 8.21
9/1/2021 5:45:00 PM 22.57 72.626 0.179 7.52 30.38 8.18
9/1/2021 6:00:00 PM 22.53 72.554 0.178 7.52 31.94 8.2
9/1/2021 6:15:00 PM 22.5 72.5 0.177 7.51 28.79 8.19
9/1/2021 6:30:00 PM 22.47 72.446 0.176 7.5 34.04 8.19
9/1/2021 6:45:00 PM 22.44 72.392 0.175 7.49 35.46 8.17
9/1/2021 7:00:00 PM 22.42 72.356 0.174 7.48 36.23 8.17
9/1/2021 7:15:00 PM 22.37 72.266 0.174 7.47 39.74 8.15
9/1/2021 7:30:00 PM 22.34 72.212 0.173 7.47 32.77 8.14
9/1/2021 7:45:00 PM 22.3 72.14 0.173 7.47 34.04 8.14
9/1/2021 8:00:00 PM 22.25 72.05 0.172 7.46 34.55 8.12
9/1/2021 8:15:00 PM 22.22 71.996 0.172 7.46 36.45 8.12
9/1/2021 8:30:00 PM 22.19 71.942 0.171 7.46 40.11 8.11
9/1/2021 8:45:00 PM 22.15 71.87 0.171 7.45 42.09 8.09
9/1/2021 9:00:00 PM 22.1 71.78 0.171 7.45 49.8 8.11
9/1/2021 9:15:00 PM 22.05 71.69 0.17 7.45 49.69 8.08
9/1/2021 9:30:00 PM 22.01 71.618 0.17 7.45 50.33 8.1
9/1/2021 9:45:00 PM 21.95 71.51 0.169 7.44 62.83 8.06
9/1/2021 10:00:00 PM 21.91 71.438 0.168 7.44 60.46 8.09
9/1/2021 10:15:00 PM 21.84 71.312 0.167 7.44 64.71 8.08
9/1/2021 10:30:00 PM 21.8 71.24 0.166 7.43 70.73 8.1
9/1/2021 10:45:00 PM 21.75 71.15 0.165 7.42 63.46 8.07
9/1/2021 11:00:00 PM 21.69 71.042 0.164 7.42 63.84 8.08
9/1/2021 11:15:00 PM 21.62 70.916 0.164 7.41 69.06 8.06
9/1/2021 11:30:00 PM 21.59 70.862 0.163 7.41 64.76 8.09
9/1/2021 11:45:00 PM 22.25 72.05 0.184 7.43 31.29 8.05
9/2/2021 12:00:00 AM 22.23 72.014 0.18 7.43 38.73 8.14
9/2/2021 12:15:00 AM 21.59 70.862 0.165 7.41 58.33 8.18
9/2/2021 12:30:00 AM 21.46 70.628 0.163 7.4 61.71 8.15
9/2/2021 12:45:00 AM 21.41 70.538 0.163 7.39 53.87 8.16
9/2/2021 1:00:00 AM 21.4 70.52 0.163 7.4 49.66 8.17
9/2/2021 1:15:00 AM 21.36 70.448 0.163 7.39 51.16 8.18
9/2/2021 1:30:00 AM 21.32 70.376 0.163 7.39 46.95 8.19
9/2/2021 1:45:00 AM 21.28 70.304 0.163 7.4 42.36 8.19
9/2/2021 2:00:00 AM 21.26 70.268 0.163 7.39 37.93 8.19
9/2/2021 2:15:00 AM 21.23 70.214 0.163 7.4 35.18 8.2
9/2/2021 2:30:00 AM 21.2 70.16 0.163 7.39 35.39 8.18
9/2/2021 2:45:00 AM 21.16 70.088 0.162 7.39 34.32 8.2
9/2/2021 3:00:00 AM 21.13 70.034 0.162 7.4 29.89 8.21
9/2/2021 3:15:00 AM 21.08 69.944 0.162 7.4 34.85 8.23
9/2/2021 3:30:00 AM 21.02 69.836 0.161 7.4 32.76 8.26
9/2/2021 3:45:00 AM 20.96 69.728 0.16 7.4 27.62 8.26
9/2/2021 4:00:00 AM 20.87 69.566 0.159 7.4 30.12 8.26
9/2/2021 4:15:00 AM 20.82 69.476 0.158 7.4 27.81 8.28
9/2/2021 4:30:00 AM 20.73 69.314 0.156 7.39 32.22 8.28
9/2/2021 4:45:00 AM 20.67 69.206 0.155 7.39 34.72 8.31
9/2/2021 5:00:00 AM 20.58 69.044 0.154 7.39 35.93 8.33
9/2/2021 5:15:00 AM 20.51 68.918 0.153 7.38 28.15 8.33
9/2/2021 5:30:00 AM 20.44 68.792 0.152 7.37 29.83 8.31
9/2/2021 5:45:00 AM 20.35 68.63 0.151 7.37 31.19 8.34
9/2/2021 6:00:00 AM 20.26 68.468 0.149 7.36 37.04 8.32
9/2/2021 6:15:00 AM 20.19 68.342 0.148 7.36 30.94 8.38
9/2/2021 6:30:00 AM 20.11 68.198 0.147 7.36 33.72 8.41
9/2/2021 6:45:00 AM 20.05 68.09 0.146 7.35 31.64 8.41
9/2/2021 7:00:00 AM 19.99 67.982 0.145 7.35 35.98 8.43
9/2/2021 7:15:00 AM 19.94 67.892 0.145 7.34 34.61 8.44
9/2/2021 7:30:00 AM 19.88 67.784 0.143 7.34 29.37 8.44
9/2/2021 7:45:00 AM 19.83 67.694 0.143 7.34 33.99 8.46
9/2/2021 8:00:00 AM 19.78 67.604 0.142 7.34 40.1 8.52
9/2/2021 8:15:00 AM 19.72 67.496 0.141 7.34 36.08 8.52
9/2/2021 8:30:00 AM 19.7 67.46 0.141 7.34 39.32 8.55
9/2/2021 8:45:00 AM 19.68 67.424 0.14 7.33 36.64 8.56
9/2/2021 9:00:00 AM 19.65 67.37 0.14 7.34 40.29 8.56
9/2/2021 9:15:00 AM 19.63 67.334 0.14 7.34 36.85 8.57
9/2/2021 9:30:00 AM 19.63 67.334 0.139 7.34 35.22 8.6
9/2/2021 9:45:00 AM 19.62 67.316 0.139 7.34 34.62 8.61
9/2/2021 10:00:00 AM 19.64 67.352 0.139 7.34 34.23 8.6
9/2/2021 10:15:00 AM 19.66